<?xml version="1.0" encoding="UTF-8" standalone="no" ?><gpx xmlns="http://www.topografix.com/GPX/1/1" xmlns:gpxx="http://www.garmin.com/xmlschemas/GpxExtensions/v3" xmlns:wptx1="http://www.garmin.com/xmlschemas/WaypointExtension/v1" xmlns:gpxtpx="http://www.garmin.com/xmlschemas/TrackPointExtension/v1" creator="GuideVTT.com" version="1.1" xmlns:xsi="http://www.w3.org/2001/XMLSchema-instance" xsi:schemaLocation="http://www.topografix.com/GPX/1/1 http://www.topografix.com/GPX/1/1/gpx.xsd http://www.garmin.com/xmlschemas/GpxExtensions/v3 http://www8.garmin.com/xmlschemas/GpxExtensionsv3.xsd http://www.garmin.com/xmlschemas/WaypointExtension/v1 http://www8.garmin.com/xmlschemas/WaypointExtensionv1.xsd http://www.garmin.com/xmlschemas/TrackPointExtension/v1 http://www.garmin.com/xmlschemas/TrackPointExtensionv1.xsd">
<metadata><link href="http://www.garmin.com"><text>Garmin International</text></link><time>2013-06-22T15:13:50Z</time></metadata>
<trk><name>2023rp27.gpx</name><extensions><gpxx:TrackExtension><gpxx:DisplayColor>Cyan</gpxx:DisplayColor></gpxx:TrackExtension></extensions><trkseg>
<trkpt lat="46.7401" lon="6.45746"><ele>764</ele><time>2023-10-12T16:31:34Z</time></trkpt>
<trkpt lat="46.74006" lon="6.45747"><ele>764</ele><time>2023-10-12T16:31:39Z</time></trkpt>
<trkpt lat="46.74004" lon="6.45746"><ele>764</ele><time>2023-10-12T16:31:40Z</time></trkpt>
<trkpt lat="46.73994" lon="6.45747"><ele>763.8</ele><time>2023-10-12T16:31:46Z</time></trkpt>
<trkpt lat="46.73983" lon="6.45748"><ele>764</ele><time>2023-10-12T16:31:51Z</time></trkpt>
<trkpt lat="46.73982" lon="6.45746"><ele>764</ele><time>2023-10-12T16:31:52Z</time></trkpt>
<trkpt lat="46.73985" lon="6.45728"><ele>764.4</ele><time>2023-10-12T16:31:57Z</time></trkpt>
<trkpt lat="46.73991" lon="6.45695"><ele>764.8</ele><time>2023-10-12T16:32:05Z</time></trkpt>
<trkpt lat="46.73992" lon="6.45687"><ele>765.2</ele><time>2023-10-12T16:32:07Z</time></trkpt>
<trkpt lat="46.73995" lon="6.45666"><ele>765.8</ele><time>2023-10-12T16:32:12Z</time></trkpt>
<trkpt lat="46.73996" lon="6.45663"><ele>765.8</ele><time>2023-10-12T16:32:13Z</time></trkpt>
<trkpt lat="46.73999" lon="6.4566"><ele>766.2</ele><time>2023-10-12T16:32:15Z</time></trkpt>
<trkpt lat="46.74002" lon="6.45659"><ele>766.8</ele><time>2023-10-12T16:32:18Z</time></trkpt>
<trkpt lat="46.74006" lon="6.45659"><ele>767.4</ele><time>2023-10-12T16:32:21Z</time></trkpt>
<trkpt lat="46.74016" lon="6.45656"><ele>768.2</ele><time>2023-10-12T16:32:28Z</time></trkpt>
<trkpt lat="46.74017" lon="6.45655"><ele>768.4</ele><time>2023-10-12T16:32:29Z</time></trkpt>
<trkpt lat="46.74025" lon="6.45653"><ele>769.2</ele><time>2023-10-12T16:32:35Z</time></trkpt>
<trkpt lat="46.74026" lon="6.45653"><ele>769.4</ele><time>2023-10-12T16:32:36Z</time></trkpt>
<trkpt lat="46.74032" lon="6.45651"><ele>770.2</ele><time>2023-10-12T16:32:41Z</time></trkpt>
<trkpt lat="46.74033" lon="6.45651"><ele>770.2</ele><time>2023-10-12T16:32:42Z</time></trkpt>
<trkpt lat="46.74034" lon="6.45652"><ele>770.4</ele><time>2023-10-12T16:32:43Z</time></trkpt>
<trkpt lat="46.74047" lon="6.45664"><ele>771.4</ele><time>2023-10-12T16:32:51Z</time></trkpt>
<trkpt lat="46.74049" lon="6.45664"><ele>771.6</ele><time>2023-10-12T16:32:53Z</time></trkpt>
<trkpt lat="46.74059" lon="6.45664"><ele>772.4</ele><time>2023-10-12T16:33:00Z</time></trkpt>
<trkpt lat="46.7406" lon="6.45663"><ele>772.6</ele><time>2023-10-12T16:33:01Z</time></trkpt>
<trkpt lat="46.74062" lon="6.45662"><ele>772.8</ele><time>2023-10-12T16:33:03Z</time></trkpt>
<trkpt lat="46.74063" lon="6.45662"><ele>773</ele><time>2023-10-12T16:33:04Z</time></trkpt>
<trkpt lat="46.74064" lon="6.45661"><ele>773</ele><time>2023-10-12T16:33:05Z</time></trkpt>
<trkpt lat="46.74068" lon="6.4566"><ele>773.6</ele><time>2023-10-12T16:33:08Z</time></trkpt>
<trkpt lat="46.74069" lon="6.4566"><ele>773.6</ele><time>2023-10-12T16:33:09Z</time></trkpt>
<trkpt lat="46.74074" lon="6.45658"><ele>774.4</ele><time>2023-10-12T16:33:13Z</time></trkpt>
<trkpt lat="46.74077" lon="6.45658"><ele>774.6</ele><time>2023-10-12T16:33:15Z</time></trkpt>
<trkpt lat="46.74078" lon="6.45658"><ele>774.8</ele><time>2023-10-12T16:33:16Z</time></trkpt>
<trkpt lat="46.74085" lon="6.45654"><ele>776</ele><time>2023-10-12T16:33:23Z</time></trkpt>
<trkpt lat="46.74092" lon="6.45651"><ele>776.8</ele><time>2023-10-12T16:33:30Z</time></trkpt>
<trkpt lat="46.74093" lon="6.45651"><ele>777.2</ele><time>2023-10-12T16:33:31Z</time></trkpt>
<trkpt lat="46.741" lon="6.45649"><ele>777.8</ele><time>2023-10-12T16:33:36Z</time></trkpt>
<trkpt lat="46.74102" lon="6.45648"><ele>778.2</ele><time>2023-10-12T16:33:38Z</time></trkpt>
<trkpt lat="46.74109" lon="6.45649"><ele>779</ele><time>2023-10-12T16:33:43Z</time></trkpt>
<trkpt lat="46.7411" lon="6.45649"><ele>779.2</ele><time>2023-10-12T16:33:44Z</time></trkpt>
<trkpt lat="46.74116" lon="6.45649"><ele>780.2</ele><time>2023-10-12T16:33:50Z</time></trkpt>
<trkpt lat="46.7412" lon="6.45651"><ele>781</ele><time>2023-10-12T16:33:55Z</time></trkpt>
<trkpt lat="46.74124" lon="6.45654"><ele>781.4</ele><time>2023-10-12T16:33:58Z</time></trkpt>
<trkpt lat="46.74129" lon="6.45659"><ele>782.2</ele><time>2023-10-12T16:34:02Z</time></trkpt>
<trkpt lat="46.74132" lon="6.45662"><ele>782.6</ele><time>2023-10-12T16:34:04Z</time></trkpt>
<trkpt lat="46.74136" lon="6.4567"><ele>783.4</ele><time>2023-10-12T16:34:09Z</time></trkpt>
<trkpt lat="46.74139" lon="6.45675"><ele>783.8</ele><time>2023-10-12T16:34:12Z</time></trkpt>
<trkpt lat="46.74142" lon="6.45679"><ele>784</ele><time>2023-10-12T16:34:15Z</time></trkpt>
<trkpt lat="46.74143" lon="6.4568"><ele>784</ele><time>2023-10-12T16:34:16Z</time></trkpt>
<trkpt lat="46.74146" lon="6.45685"><ele>784.8</ele><time>2023-10-12T16:34:20Z</time></trkpt>
<trkpt lat="46.7415" lon="6.45689"><ele>785.2</ele><time>2023-10-12T16:34:24Z</time></trkpt>
<trkpt lat="46.74154" lon="6.45692"><ele>786</ele><time>2023-10-12T16:34:28Z</time></trkpt>
<trkpt lat="46.74161" lon="6.45695"><ele>786.8</ele><time>2023-10-12T16:34:34Z</time></trkpt>
<trkpt lat="46.74163" lon="6.45695"><ele>787</ele><time>2023-10-12T16:34:36Z</time></trkpt>
<trkpt lat="46.74169" lon="6.45692"><ele>787.6</ele><time>2023-10-12T16:34:41Z</time></trkpt>
<trkpt lat="46.74172" lon="6.45689"><ele>788</ele><time>2023-10-12T16:34:43Z</time></trkpt>
<trkpt lat="46.74177" lon="6.45682"><ele>788.6</ele><time>2023-10-12T16:34:49Z</time></trkpt>
<trkpt lat="46.7418" lon="6.45677"><ele>789</ele><time>2023-10-12T16:34:52Z</time></trkpt>
<trkpt lat="46.74186" lon="6.45667"><ele>790</ele><time>2023-10-12T16:34:59Z</time></trkpt>
<trkpt lat="46.74187" lon="6.45666"><ele>790.2</ele><time>2023-10-12T16:35:00Z</time></trkpt>
<trkpt lat="46.74192" lon="6.45661"><ele>791</ele><time>2023-10-12T16:35:06Z</time></trkpt>
<trkpt lat="46.74193" lon="6.45661"><ele>791.2</ele><time>2023-10-12T16:35:07Z</time></trkpt>
<trkpt lat="46.74195" lon="6.45659"><ele>791.4</ele><time>2023-10-12T16:35:09Z</time></trkpt>
<trkpt lat="46.74195" lon="6.45652"><ele>791.8</ele><time>2023-10-12T16:35:12Z</time></trkpt>
<trkpt lat="46.74195" lon="6.45642"><ele>792.4</ele><time>2023-10-12T16:35:17Z</time></trkpt>
<trkpt lat="46.74195" lon="6.45639"><ele>792.6</ele><time>2023-10-12T16:35:19Z</time></trkpt>
<trkpt lat="46.74195" lon="6.45627"><ele>793.4</ele><time>2023-10-12T16:35:24Z</time></trkpt>
<trkpt lat="46.74195" lon="6.45625"><ele>793.4</ele><time>2023-10-12T16:35:25Z</time></trkpt>
<trkpt lat="46.74195" lon="6.45621"><ele>793.6</ele><time>2023-10-12T16:35:27Z</time></trkpt>
<trkpt lat="46.74197" lon="6.45605"><ele>794.4</ele><time>2023-10-12T16:35:34Z</time></trkpt>
<trkpt lat="46.74198" lon="6.45596"><ele>794.8</ele><time>2023-10-12T16:35:38Z</time></trkpt>
<trkpt lat="46.74199" lon="6.45586"><ele>795.4</ele><time>2023-10-12T16:35:43Z</time></trkpt>
<trkpt lat="46.74201" lon="6.45574"><ele>796.2</ele><time>2023-10-12T16:35:48Z</time></trkpt>
<trkpt lat="46.74201" lon="6.45566"><ele>796.4</ele><time>2023-10-12T16:35:51Z</time></trkpt>
<trkpt lat="46.74203" lon="6.45545"><ele>797.4</ele><time>2023-10-12T16:35:59Z</time></trkpt>
<trkpt lat="46.74203" lon="6.45542"><ele>797.4</ele><time>2023-10-12T16:36:00Z</time></trkpt>
<trkpt lat="46.74205" lon="6.45518"><ele>798.6</ele><time>2023-10-12T16:36:09Z</time></trkpt>
<trkpt lat="46.74208" lon="6.45496"><ele>799.6</ele><time>2023-10-12T16:36:18Z</time></trkpt>
<trkpt lat="46.74209" lon="6.45493"><ele>799.6</ele><time>2023-10-12T16:36:19Z</time></trkpt>
<trkpt lat="46.7421" lon="6.45479"><ele>800.6</ele><time>2023-10-12T16:36:25Z</time></trkpt>
<trkpt lat="46.74211" lon="6.45472"><ele>800.8</ele><time>2023-10-12T16:36:28Z</time></trkpt>
<trkpt lat="46.74212" lon="6.4546"><ele>801.6</ele><time>2023-10-12T16:36:33Z</time></trkpt>
<trkpt lat="46.74214" lon="6.45447"><ele>802.4</ele><time>2023-10-12T16:36:38Z</time></trkpt>
<trkpt lat="46.74214" lon="6.45438"><ele>802.8</ele><time>2023-10-12T16:36:42Z</time></trkpt>
<trkpt lat="46.74216" lon="6.45421"><ele>803.8</ele><time>2023-10-12T16:36:49Z</time></trkpt>
<trkpt lat="46.74216" lon="6.45418"><ele>804</ele><time>2023-10-12T16:36:50Z</time></trkpt>
<trkpt lat="46.74216" lon="6.45398"><ele>805</ele><time>2023-10-12T16:36:58Z</time></trkpt>
<trkpt lat="46.74216" lon="6.45386"><ele>805.6</ele><time>2023-10-12T16:37:03Z</time></trkpt>
<trkpt lat="46.74215" lon="6.45375"><ele>806</ele><time>2023-10-12T16:37:07Z</time></trkpt>
<trkpt lat="46.74215" lon="6.45368"><ele>806.4</ele><time>2023-10-12T16:37:10Z</time></trkpt>
<trkpt lat="46.74216" lon="6.45353"><ele>807</ele><time>2023-10-12T16:37:16Z</time></trkpt>
<trkpt lat="46.74216" lon="6.45343"><ele>807.6</ele><time>2023-10-12T16:37:20Z</time></trkpt>
<trkpt lat="46.74216" lon="6.45338"><ele>808.2</ele><time>2023-10-12T16:37:23Z</time></trkpt>
<trkpt lat="46.74217" lon="6.45325"><ele>808.8</ele><time>2023-10-12T16:37:28Z</time></trkpt>
<trkpt lat="46.74217" lon="6.45317"><ele>809.2</ele><time>2023-10-12T16:37:32Z</time></trkpt>
<trkpt lat="46.74217" lon="6.45301"><ele>810.4</ele><time>2023-10-12T16:37:39Z</time></trkpt>
<trkpt lat="46.74218" lon="6.45285"><ele>811.4</ele><time>2023-10-12T16:37:47Z</time></trkpt>
<trkpt lat="46.74218" lon="6.45271"><ele>812.4</ele><time>2023-10-12T16:37:54Z</time></trkpt>
<trkpt lat="46.74218" lon="6.45269"><ele>812.6</ele><time>2023-10-12T16:37:55Z</time></trkpt>
<trkpt lat="46.74217" lon="6.45255"><ele>813.4</ele><time>2023-10-12T16:38:02Z</time></trkpt>
<trkpt lat="46.74217" lon="6.45251"><ele>813.8</ele><time>2023-10-12T16:38:04Z</time></trkpt>
<trkpt lat="46.74217" lon="6.45239"><ele>814.6</ele><time>2023-10-12T16:38:10Z</time></trkpt>
<trkpt lat="46.74217" lon="6.45233"><ele>815</ele><time>2023-10-12T16:38:13Z</time></trkpt>
<trkpt lat="46.74217" lon="6.45224"><ele>815.6</ele><time>2023-10-12T16:38:17Z</time></trkpt>
<trkpt lat="46.74217" lon="6.4522"><ele>816</ele><time>2023-10-12T16:38:19Z</time></trkpt>
<trkpt lat="46.74216" lon="6.4521"><ele>816.6</ele><time>2023-10-12T16:38:24Z</time></trkpt>
<trkpt lat="46.74216" lon="6.45206"><ele>816.8</ele><time>2023-10-12T16:38:26Z</time></trkpt>
<trkpt lat="46.74216" lon="6.45203"><ele>817.2</ele><time>2023-10-12T16:38:28Z</time></trkpt>
<trkpt lat="46.74216" lon="6.45194"><ele>817.8</ele><time>2023-10-12T16:38:32Z</time></trkpt>
<trkpt lat="46.74215" lon="6.45184"><ele>818.4</ele><time>2023-10-12T16:38:37Z</time></trkpt>
<trkpt lat="46.74214" lon="6.45178"><ele>818.8</ele><time>2023-10-12T16:38:40Z</time></trkpt>
<trkpt lat="46.74214" lon="6.45167"><ele>819.6</ele><time>2023-10-12T16:38:45Z</time></trkpt>
<trkpt lat="46.74213" lon="6.45164"><ele>820</ele><time>2023-10-12T16:38:47Z</time></trkpt>
<trkpt lat="46.7421" lon="6.45146"><ele>821.2</ele><time>2023-10-12T16:38:56Z</time></trkpt>
<trkpt lat="46.74207" lon="6.4513"><ele>822.2</ele><time>2023-10-12T16:39:04Z</time></trkpt>
<trkpt lat="46.74206" lon="6.45124"><ele>822.6</ele><time>2023-10-12T16:39:07Z</time></trkpt>
<trkpt lat="46.74204" lon="6.45115"><ele>823.2</ele><time>2023-10-12T16:39:12Z</time></trkpt>
<trkpt lat="46.74203" lon="6.45108"><ele>823.8</ele><time>2023-10-12T16:39:15Z</time></trkpt>
<trkpt lat="46.74199" lon="6.45096"><ele>824.4</ele><time>2023-10-12T16:39:21Z</time></trkpt>
<trkpt lat="46.74199" lon="6.45092"><ele>824.6</ele><time>2023-10-12T16:39:23Z</time></trkpt>
<trkpt lat="46.74195" lon="6.45078"><ele>825.4</ele><time>2023-10-12T16:39:30Z</time></trkpt>
<trkpt lat="46.74194" lon="6.45072"><ele>826</ele><time>2023-10-12T16:39:33Z</time></trkpt>
<trkpt lat="46.74192" lon="6.45062"><ele>826.6</ele><time>2023-10-12T16:39:38Z</time></trkpt>
<trkpt lat="46.74189" lon="6.45052"><ele>827.2</ele><time>2023-10-12T16:39:43Z</time></trkpt>
<trkpt lat="46.74188" lon="6.45044"><ele>827.6</ele><time>2023-10-12T16:39:47Z</time></trkpt>
<trkpt lat="46.74185" lon="6.45034"><ele>828.4</ele><time>2023-10-12T16:39:52Z</time></trkpt>
<trkpt lat="46.74184" lon="6.45028"><ele>828.8</ele><time>2023-10-12T16:39:55Z</time></trkpt>
<trkpt lat="46.74182" lon="6.45018"><ele>829.2</ele><time>2023-10-12T16:40:00Z</time></trkpt>
<trkpt lat="46.7418" lon="6.4501"><ele>829.8</ele><time>2023-10-12T16:40:04Z</time></trkpt>
<trkpt lat="46.74177" lon="6.44995"><ele>830.8</ele><time>2023-10-12T16:40:11Z</time></trkpt>
<trkpt lat="46.74176" lon="6.44993"><ele>831</ele><time>2023-10-12T16:40:12Z</time></trkpt>
<trkpt lat="46.74174" lon="6.44981"><ele>831.6</ele><time>2023-10-12T16:40:18Z</time></trkpt>
<trkpt lat="46.74173" lon="6.44974"><ele>832</ele><time>2023-10-12T16:40:21Z</time></trkpt>
<trkpt lat="46.7417" lon="6.4496"><ele>832.8</ele><time>2023-10-12T16:40:28Z</time></trkpt>
<trkpt lat="46.7417" lon="6.44957"><ele>833</ele><time>2023-10-12T16:40:29Z</time></trkpt>
<trkpt lat="46.74166" lon="6.4494"><ele>834.2</ele><time>2023-10-12T16:40:38Z</time></trkpt>
<trkpt lat="46.74163" lon="6.44928"><ele>835.2</ele><time>2023-10-12T16:40:46Z</time></trkpt>
<trkpt lat="46.74163" lon="6.44925"><ele>835.4</ele><time>2023-10-12T16:40:47Z</time></trkpt>
<trkpt lat="46.74159" lon="6.44914"><ele>835.8</ele><time>2023-10-12T16:40:52Z</time></trkpt>
<trkpt lat="46.74155" lon="6.44906"><ele>836.4</ele><time>2023-10-12T16:40:56Z</time></trkpt>
<trkpt lat="46.74153" lon="6.449"><ele>836.8</ele><time>2023-10-12T16:40:59Z</time></trkpt>
<trkpt lat="46.7415" lon="6.44892"><ele>837.6</ele><time>2023-10-12T16:41:04Z</time></trkpt>
<trkpt lat="46.74148" lon="6.44887"><ele>838</ele><time>2023-10-12T16:41:07Z</time></trkpt>
<trkpt lat="46.74144" lon="6.44879"><ele>838.8</ele><time>2023-10-12T16:41:12Z</time></trkpt>
<trkpt lat="46.74143" lon="6.44873"><ele>839.2</ele><time>2023-10-12T16:41:15Z</time></trkpt>
<trkpt lat="46.74142" lon="6.44865"><ele>839.8</ele><time>2023-10-12T16:41:19Z</time></trkpt>
<trkpt lat="46.74142" lon="6.44859"><ele>840.4</ele><time>2023-10-12T16:41:22Z</time></trkpt>
<trkpt lat="46.74143" lon="6.44852"><ele>840.8</ele><time>2023-10-12T16:41:25Z</time></trkpt>
<trkpt lat="46.74146" lon="6.44845"><ele>841.6</ele><time>2023-10-12T16:41:29Z</time></trkpt>
<trkpt lat="46.74148" lon="6.44842"><ele>842</ele><time>2023-10-12T16:41:31Z</time></trkpt>
<trkpt lat="46.74155" lon="6.44839"><ele>842.8</ele><time>2023-10-12T16:41:36Z</time></trkpt>
<trkpt lat="46.74158" lon="6.44839"><ele>843</ele><time>2023-10-12T16:41:38Z</time></trkpt>
<trkpt lat="46.74168" lon="6.44847"><ele>843.6</ele><time>2023-10-12T16:41:44Z</time></trkpt>
<trkpt lat="46.74173" lon="6.4486"><ele>844</ele><time>2023-10-12T16:41:49Z</time></trkpt>
<trkpt lat="46.74176" lon="6.44867"><ele>844.2</ele><time>2023-10-12T16:41:52Z</time></trkpt>
<trkpt lat="46.74184" lon="6.44881"><ele>845</ele><time>2023-10-12T16:41:59Z</time></trkpt>
<trkpt lat="46.74195" lon="6.44898"><ele>846.2</ele><time>2023-10-12T16:42:08Z</time></trkpt>
<trkpt lat="46.74205" lon="6.4491"><ele>847</ele><time>2023-10-12T16:42:15Z</time></trkpt>
<trkpt lat="46.74206" lon="6.44912"><ele>847.2</ele><time>2023-10-12T16:42:16Z</time></trkpt>
<trkpt lat="46.74214" lon="6.44919"><ele>848</ele><time>2023-10-12T16:42:21Z</time></trkpt>
<trkpt lat="46.74217" lon="6.44922"><ele>848</ele><time>2023-10-12T16:42:23Z</time></trkpt>
<trkpt lat="46.74228" lon="6.44931"><ele>849</ele><time>2023-10-12T16:42:29Z</time></trkpt>
<trkpt lat="46.74234" lon="6.44936"><ele>849.6</ele><time>2023-10-12T16:42:33Z</time></trkpt>
<trkpt lat="46.74239" lon="6.4494"><ele>850.2</ele><time>2023-10-12T16:42:37Z</time></trkpt>
<trkpt lat="46.74245" lon="6.44946"><ele>850.8</ele><time>2023-10-12T16:42:41Z</time></trkpt>
<trkpt lat="46.74251" lon="6.44952"><ele>851.4</ele><time>2023-10-12T16:42:45Z</time></trkpt>
<trkpt lat="46.74255" lon="6.44958"><ele>851.8</ele><time>2023-10-12T16:42:49Z</time></trkpt>
<trkpt lat="46.74261" lon="6.44964"><ele>852.4</ele><time>2023-10-12T16:42:53Z</time></trkpt>
<trkpt lat="46.74266" lon="6.44968"><ele>853.2</ele><time>2023-10-12T16:42:57Z</time></trkpt>
<trkpt lat="46.74269" lon="6.44971"><ele>853.4</ele><time>2023-10-12T16:42:59Z</time></trkpt>
<trkpt lat="46.74277" lon="6.44977"><ele>854.2</ele><time>2023-10-12T16:43:04Z</time></trkpt>
<trkpt lat="46.74279" lon="6.44978"><ele>854.6</ele><time>2023-10-12T16:43:05Z</time></trkpt>
<trkpt lat="46.74289" lon="6.4499"><ele>855.6</ele><time>2023-10-12T16:43:12Z</time></trkpt>
<trkpt lat="46.74291" lon="6.44991"><ele>855.8</ele><time>2023-10-12T16:43:13Z</time></trkpt>
<trkpt lat="46.74301" lon="6.45001"><ele>856.8</ele><time>2023-10-12T16:43:20Z</time></trkpt>
<trkpt lat="46.74302" lon="6.45002"><ele>857</ele><time>2023-10-12T16:43:21Z</time></trkpt>
<trkpt lat="46.74312" lon="6.45009"><ele>857.8</ele><time>2023-10-12T16:43:27Z</time></trkpt>
<trkpt lat="46.74316" lon="6.45012"><ele>858.2</ele><time>2023-10-12T16:43:30Z</time></trkpt>
<trkpt lat="46.7432" lon="6.45017"><ele>858.8</ele><time>2023-10-12T16:43:33Z</time></trkpt>
<trkpt lat="46.74325" lon="6.45023"><ele>859.6</ele><time>2023-10-12T16:43:38Z</time></trkpt>
<trkpt lat="46.74329" lon="6.45027"><ele>860</ele><time>2023-10-12T16:43:41Z</time></trkpt>
<trkpt lat="46.74334" lon="6.45033"><ele>860.4</ele><time>2023-10-12T16:43:45Z</time></trkpt>
<trkpt lat="46.74338" lon="6.45038"><ele>861</ele><time>2023-10-12T16:43:48Z</time></trkpt>
<trkpt lat="46.74346" lon="6.45047"><ele>862</ele><time>2023-10-12T16:43:54Z</time></trkpt>
<trkpt lat="46.74347" lon="6.45049"><ele>862.2</ele><time>2023-10-12T16:43:55Z</time></trkpt>
<trkpt lat="46.74355" lon="6.45057"><ele>863.2</ele><time>2023-10-12T16:44:01Z</time></trkpt>
<trkpt lat="46.74359" lon="6.45058"><ele>863.6</ele><time>2023-10-12T16:44:03Z</time></trkpt>
<trkpt lat="46.74364" lon="6.45062"><ele>864.2</ele><time>2023-10-12T16:44:07Z</time></trkpt>
<trkpt lat="46.74369" lon="6.45065"><ele>864.6</ele><time>2023-10-12T16:44:11Z</time></trkpt>
<trkpt lat="46.74374" lon="6.45066"><ele>865.4</ele><time>2023-10-12T16:44:14Z</time></trkpt>
<trkpt lat="46.74381" lon="6.45068"><ele>866.4</ele><time>2023-10-12T16:44:19Z</time></trkpt>
<trkpt lat="46.74391" lon="6.45069"><ele>867.4</ele><time>2023-10-12T16:44:26Z</time></trkpt>
<trkpt lat="46.744" lon="6.4507"><ele>868.4</ele><time>2023-10-12T16:44:32Z</time></trkpt>
<trkpt lat="46.74402" lon="6.45072"><ele>868.8</ele><time>2023-10-12T16:44:34Z</time></trkpt>
<trkpt lat="46.74406" lon="6.45077"><ele>869.6</ele><time>2023-10-12T16:44:38Z</time></trkpt>
<trkpt lat="46.7441" lon="6.45081"><ele>870.2</ele><time>2023-10-12T16:44:41Z</time></trkpt>
<trkpt lat="46.74415" lon="6.45084"><ele>870.6</ele><time>2023-10-12T16:44:44Z</time></trkpt>
<trkpt lat="46.74421" lon="6.45088"><ele>871.4</ele><time>2023-10-12T16:44:49Z</time></trkpt>
<trkpt lat="46.74423" lon="6.4509"><ele>871.8</ele><time>2023-10-12T16:44:51Z</time></trkpt>
<trkpt lat="46.74428" lon="6.45099"><ele>872.6</ele><time>2023-10-12T16:44:56Z</time></trkpt>
<trkpt lat="46.7443" lon="6.45102"><ele>872.8</ele><time>2023-10-12T16:44:58Z</time></trkpt>
<trkpt lat="46.74433" lon="6.45108"><ele>873.4</ele><time>2023-10-12T16:45:01Z</time></trkpt>
<trkpt lat="46.74436" lon="6.45115"><ele>874</ele><time>2023-10-12T16:45:05Z</time></trkpt>
<trkpt lat="46.74439" lon="6.45121"><ele>874.4</ele><time>2023-10-12T16:45:08Z</time></trkpt>
<trkpt lat="46.74442" lon="6.45128"><ele>875.2</ele><time>2023-10-12T16:45:12Z</time></trkpt>
<trkpt lat="46.74449" lon="6.45136"><ele>876</ele><time>2023-10-12T16:45:18Z</time></trkpt>
<trkpt lat="46.7445" lon="6.45137"><ele>876.2</ele><time>2023-10-12T16:45:19Z</time></trkpt>
<trkpt lat="46.74457" lon="6.45141"><ele>877</ele><time>2023-10-12T16:45:24Z</time></trkpt>
<trkpt lat="46.7446" lon="6.45142"><ele>877.2</ele><time>2023-10-12T16:45:26Z</time></trkpt>
<trkpt lat="46.74466" lon="6.45143"><ele>877.8</ele><time>2023-10-12T16:45:30Z</time></trkpt>
<trkpt lat="46.74469" lon="6.45143"><ele>878.2</ele><time>2023-10-12T16:45:32Z</time></trkpt>
<trkpt lat="46.74478" lon="6.45144"><ele>879.4</ele><time>2023-10-12T16:45:38Z</time></trkpt>
<trkpt lat="46.74483" lon="6.45145"><ele>879.8</ele><time>2023-10-12T16:45:41Z</time></trkpt>
<trkpt lat="46.74487" lon="6.45147"><ele>880.4</ele><time>2023-10-12T16:45:44Z</time></trkpt>
<trkpt lat="46.74494" lon="6.45156"><ele>881</ele><time>2023-10-12T16:45:49Z</time></trkpt>
<trkpt lat="46.74496" lon="6.45159"><ele>881.6</ele><time>2023-10-12T16:45:51Z</time></trkpt>
<trkpt lat="46.745" lon="6.45166"><ele>882.2</ele><time>2023-10-12T16:45:55Z</time></trkpt>
<trkpt lat="46.74503" lon="6.4517"><ele>882.8</ele><time>2023-10-12T16:45:57Z</time></trkpt>
<trkpt lat="46.74509" lon="6.45181"><ele>883.6</ele><time>2023-10-12T16:46:03Z</time></trkpt>
<trkpt lat="46.74509" lon="6.45183"><ele>883.8</ele><time>2023-10-12T16:46:04Z</time></trkpt>
<trkpt lat="46.74513" lon="6.45191"><ele>884.6</ele><time>2023-10-12T16:46:09Z</time></trkpt>
<trkpt lat="46.74515" lon="6.45194"><ele>885</ele><time>2023-10-12T16:46:11Z</time></trkpt>
<trkpt lat="46.74519" lon="6.45199"><ele>885.6</ele><time>2023-10-12T16:46:15Z</time></trkpt>
<trkpt lat="46.74523" lon="6.45203"><ele>886</ele><time>2023-10-12T16:46:18Z</time></trkpt>
<trkpt lat="46.7453" lon="6.45209"><ele>886.8</ele><time>2023-10-12T16:46:24Z</time></trkpt>
<trkpt lat="46.74531" lon="6.45211"><ele>887.2</ele><time>2023-10-12T16:46:25Z</time></trkpt>
<trkpt lat="46.74538" lon="6.45219"><ele>888.2</ele><time>2023-10-12T16:46:32Z</time></trkpt>
<trkpt lat="46.74539" lon="6.45219"><ele>888.4</ele><time>2023-10-12T16:46:33Z</time></trkpt>
<trkpt lat="46.74544" lon="6.45224"><ele>889</ele><time>2023-10-12T16:46:38Z</time></trkpt>
<trkpt lat="46.74548" lon="6.45226"><ele>889.4</ele><time>2023-10-12T16:46:41Z</time></trkpt>
<trkpt lat="46.74556" lon="6.45232"><ele>890.4</ele><time>2023-10-12T16:46:47Z</time></trkpt>
<trkpt lat="46.74558" lon="6.45233"><ele>890.6</ele><time>2023-10-12T16:46:48Z</time></trkpt>
<trkpt lat="46.74567" lon="6.4524"><ele>891.6</ele><time>2023-10-12T16:46:55Z</time></trkpt>
<trkpt lat="46.74576" lon="6.45244"><ele>892.8</ele><time>2023-10-12T16:47:01Z</time></trkpt>
<trkpt lat="46.74577" lon="6.45245"><ele>892.8</ele><time>2023-10-12T16:47:02Z</time></trkpt>
<trkpt lat="46.74585" lon="6.45248"><ele>893.8</ele><time>2023-10-12T16:47:08Z</time></trkpt>
<trkpt lat="46.74591" lon="6.45249"><ele>894.6</ele><time>2023-10-12T16:47:13Z</time></trkpt>
<trkpt lat="46.74593" lon="6.45249"><ele>894.8</ele><time>2023-10-12T16:47:15Z</time></trkpt>
<trkpt lat="46.74604" lon="6.45251"><ele>896</ele><time>2023-10-12T16:47:22Z</time></trkpt>
<trkpt lat="46.74616" lon="6.45249"><ele>897.2</ele><time>2023-10-12T16:47:30Z</time></trkpt>
<trkpt lat="46.74617" lon="6.45249"><ele>897.4</ele><time>2023-10-12T16:47:31Z</time></trkpt>
<trkpt lat="46.74627" lon="6.4525"><ele>898.4</ele><time>2023-10-12T16:47:38Z</time></trkpt>
<trkpt lat="46.74628" lon="6.45251"><ele>898.6</ele><time>2023-10-12T16:47:39Z</time></trkpt>
<trkpt lat="46.74637" lon="6.45251"><ele>899.4</ele><time>2023-10-12T16:47:45Z</time></trkpt>
<trkpt lat="46.74639" lon="6.4525"><ele>899.8</ele><time>2023-10-12T16:47:47Z</time></trkpt>
<trkpt lat="46.74645" lon="6.4525"><ele>900.6</ele><time>2023-10-12T16:47:52Z</time></trkpt>
<trkpt lat="46.74649" lon="6.45249"><ele>901</ele><time>2023-10-12T16:47:55Z</time></trkpt>
<trkpt lat="46.74655" lon="6.45246"><ele>901.8</ele><time>2023-10-12T16:47:59Z</time></trkpt>
<trkpt lat="46.74659" lon="6.45245"><ele>902.2</ele><time>2023-10-12T16:48:02Z</time></trkpt>
<trkpt lat="46.74664" lon="6.45242"><ele>902.8</ele><time>2023-10-12T16:48:06Z</time></trkpt>
<trkpt lat="46.7467" lon="6.45239"><ele>903.6</ele><time>2023-10-12T16:48:10Z</time></trkpt>
<trkpt lat="46.74674" lon="6.45238"><ele>904</ele><time>2023-10-12T16:48:13Z</time></trkpt>
<trkpt lat="46.74677" lon="6.45238"><ele>904.2</ele><time>2023-10-12T16:48:15Z</time></trkpt>
<trkpt lat="46.74688" lon="6.45242"><ele>905.2</ele><time>2023-10-12T16:48:21Z</time></trkpt>
<trkpt lat="46.74691" lon="6.45245"><ele>905.6</ele><time>2023-10-12T16:48:23Z</time></trkpt>
<trkpt lat="46.74696" lon="6.45255"><ele>906.2</ele><time>2023-10-12T16:48:28Z</time></trkpt>
<trkpt lat="46.74698" lon="6.45262"><ele>906.8</ele><time>2023-10-12T16:48:31Z</time></trkpt>
<trkpt lat="46.74699" lon="6.4527"><ele>907.4</ele><time>2023-10-12T16:48:35Z</time></trkpt>
<trkpt lat="46.747" lon="6.45278"><ele>907.8</ele><time>2023-10-12T16:48:39Z</time></trkpt>
<trkpt lat="46.74701" lon="6.45284"><ele>908.4</ele><time>2023-10-12T16:48:43Z</time></trkpt>
<trkpt lat="46.74702" lon="6.4529"><ele>908.8</ele><time>2023-10-12T16:48:46Z</time></trkpt>
<trkpt lat="46.74702" lon="6.45302"><ele>909.4</ele><time>2023-10-12T16:48:51Z</time></trkpt>
<trkpt lat="46.74703" lon="6.45308"><ele>909.8</ele><time>2023-10-12T16:48:54Z</time></trkpt>
<trkpt lat="46.74706" lon="6.45318"><ele>910.6</ele><time>2023-10-12T16:48:59Z</time></trkpt>
<trkpt lat="46.74707" lon="6.45324"><ele>911</ele><time>2023-10-12T16:49:03Z</time></trkpt>
<trkpt lat="46.74709" lon="6.45332"><ele>911.6</ele><time>2023-10-12T16:49:07Z</time></trkpt>
<trkpt lat="46.74711" lon="6.45337"><ele>912.2</ele><time>2023-10-12T16:49:10Z</time></trkpt>
<trkpt lat="46.74714" lon="6.45344"><ele>912.8</ele><time>2023-10-12T16:49:14Z</time></trkpt>
<trkpt lat="46.74718" lon="6.4535"><ele>913.4</ele><time>2023-10-12T16:49:18Z</time></trkpt>
<trkpt lat="46.74721" lon="6.45355"><ele>914</ele><time>2023-10-12T16:49:21Z</time></trkpt>
<trkpt lat="46.74725" lon="6.4536"><ele>914.6</ele><time>2023-10-12T16:49:25Z</time></trkpt>
<trkpt lat="46.74727" lon="6.45363"><ele>915</ele><time>2023-10-12T16:49:27Z</time></trkpt>
<trkpt lat="46.74732" lon="6.45371"><ele>915.8</ele><time>2023-10-12T16:49:32Z</time></trkpt>
<trkpt lat="46.74733" lon="6.45373"><ele>916</ele><time>2023-10-12T16:49:33Z</time></trkpt>
<trkpt lat="46.74737" lon="6.45381"><ele>916.8</ele><time>2023-10-12T16:49:38Z</time></trkpt>
<trkpt lat="46.74738" lon="6.45384"><ele>917.2</ele><time>2023-10-12T16:49:40Z</time></trkpt>
<trkpt lat="46.74739" lon="6.45393"><ele>918</ele><time>2023-10-12T16:49:45Z</time></trkpt>
<trkpt lat="46.74738" lon="6.45395"><ele>918.2</ele><time>2023-10-12T16:49:46Z</time></trkpt>
<trkpt lat="46.74735" lon="6.4541"><ele>919.2</ele><time>2023-10-12T16:49:53Z</time></trkpt>
<trkpt lat="46.74731" lon="6.45421"><ele>920.4</ele><time>2023-10-12T16:49:59Z</time></trkpt>
<trkpt lat="46.7473" lon="6.45422"><ele>920.4</ele><time>2023-10-12T16:50:00Z</time></trkpt>
<trkpt lat="46.74728" lon="6.4543"><ele>921.4</ele><time>2023-10-12T16:50:05Z</time></trkpt>
<trkpt lat="46.74728" lon="6.45433"><ele>921.8</ele><time>2023-10-12T16:50:07Z</time></trkpt>
<trkpt lat="46.74729" lon="6.45442"><ele>922.6</ele><time>2023-10-12T16:50:12Z</time></trkpt>
<trkpt lat="46.74729" lon="6.45447"><ele>923</ele><time>2023-10-12T16:50:14Z</time></trkpt>
<trkpt lat="46.7473" lon="6.45451"><ele>923.8</ele><time>2023-10-12T16:50:17Z</time></trkpt>
<trkpt lat="46.74732" lon="6.45456"><ele>924.4</ele><time>2023-10-12T16:50:21Z</time></trkpt>
<trkpt lat="46.74733" lon="6.45457"><ele>924.8</ele><time>2023-10-12T16:50:22Z</time></trkpt>
<trkpt lat="46.74738" lon="6.4546"><ele>925.8</ele><time>2023-10-12T16:50:27Z</time></trkpt>
<trkpt lat="46.74739" lon="6.4546"><ele>926</ele><time>2023-10-12T16:50:28Z</time></trkpt>
<trkpt lat="46.74742" lon="6.45462"><ele>926.8</ele><time>2023-10-12T16:50:33Z</time></trkpt>
<trkpt lat="46.74743" lon="6.45461"><ele>927</ele><time>2023-10-12T16:50:34Z</time></trkpt>
<trkpt lat="46.74749" lon="6.45456"><ele>928</ele><time>2023-10-12T16:50:39Z</time></trkpt>
<trkpt lat="46.7475" lon="6.45455"><ele>928</ele><time>2023-10-12T16:50:40Z</time></trkpt>
<trkpt lat="46.74754" lon="6.45448"><ele>929</ele><time>2023-10-12T16:50:45Z</time></trkpt>
<trkpt lat="46.74755" lon="6.45446"><ele>929.2</ele><time>2023-10-12T16:50:46Z</time></trkpt>
<trkpt lat="46.7476" lon="6.45437"><ele>930.2</ele><time>2023-10-12T16:50:51Z</time></trkpt>
<trkpt lat="46.74762" lon="6.45432"><ele>930.8</ele><time>2023-10-12T16:50:54Z</time></trkpt>
<trkpt lat="46.74765" lon="6.45427"><ele>931.4</ele><time>2023-10-12T16:50:57Z</time></trkpt>
<trkpt lat="46.74771" lon="6.45415"><ele>932.2</ele><time>2023-10-12T16:51:04Z</time></trkpt>
<trkpt lat="46.74772" lon="6.45413"><ele>932.4</ele><time>2023-10-12T16:51:05Z</time></trkpt>
<trkpt lat="46.7478" lon="6.45398"><ele>933.6</ele><time>2023-10-12T16:51:13Z</time></trkpt>
<trkpt lat="46.74781" lon="6.45396"><ele>933.8</ele><time>2023-10-12T16:51:14Z</time></trkpt>
<trkpt lat="46.74784" lon="6.4538"><ele>934.6</ele><time>2023-10-12T16:51:22Z</time></trkpt>
<trkpt lat="46.7478" lon="6.45355"><ele>935.6</ele><time>2023-10-12T16:51:31Z</time></trkpt>
<trkpt lat="46.74779" lon="6.45353"><ele>935.8</ele><time>2023-10-12T16:51:32Z</time></trkpt>
<trkpt lat="46.74771" lon="6.45333"><ele>936.8</ele><time>2023-10-12T16:51:40Z</time></trkpt>
<trkpt lat="46.74764" lon="6.45318"><ele>937.8</ele><time>2023-10-12T16:51:47Z</time></trkpt>
<trkpt lat="46.74761" lon="6.45309"><ele>938.4</ele><time>2023-10-12T16:51:51Z</time></trkpt>
<trkpt lat="46.7476" lon="6.45301"><ele>938.8</ele><time>2023-10-12T16:51:54Z</time></trkpt>
<trkpt lat="46.74759" lon="6.45286"><ele>939.6</ele><time>2023-10-12T16:51:59Z</time></trkpt>
<trkpt lat="46.7476" lon="6.45281"><ele>939.8</ele><time>2023-10-12T16:52:01Z</time></trkpt>
<trkpt lat="46.74764" lon="6.45262"><ele>941</ele><time>2023-10-12T16:52:08Z</time></trkpt>
<trkpt lat="46.74764" lon="6.4526"><ele>941</ele><time>2023-10-12T16:52:09Z</time></trkpt>
<trkpt lat="46.7477" lon="6.45247"><ele>942</ele><time>2023-10-12T16:52:15Z</time></trkpt>
<trkpt lat="46.74773" lon="6.45241"><ele>942.2</ele><time>2023-10-12T16:52:18Z</time></trkpt>
<trkpt lat="46.7478" lon="6.45231"><ele>943</ele><time>2023-10-12T16:52:23Z</time></trkpt>
<trkpt lat="46.74785" lon="6.45225"><ele>943.6</ele><time>2023-10-12T16:52:27Z</time></trkpt>
<trkpt lat="46.7479" lon="6.45219"><ele>944</ele><time>2023-10-12T16:52:31Z</time></trkpt>
<trkpt lat="46.74793" lon="6.45215"><ele>944.4</ele><time>2023-10-12T16:52:34Z</time></trkpt>
<trkpt lat="46.74798" lon="6.45207"><ele>945</ele><time>2023-10-12T16:52:39Z</time></trkpt>
<trkpt lat="46.74801" lon="6.452"><ele>945.4</ele><time>2023-10-12T16:52:42Z</time></trkpt>
<trkpt lat="46.74805" lon="6.45188"><ele>946.2</ele><time>2023-10-12T16:52:47Z</time></trkpt>
<trkpt lat="46.7481" lon="6.45172"><ele>947.2</ele><time>2023-10-12T16:52:54Z</time></trkpt>
<trkpt lat="46.74811" lon="6.45169"><ele>947.2</ele><time>2023-10-12T16:52:55Z</time></trkpt>
<trkpt lat="46.74815" lon="6.45153"><ele>948.4</ele><time>2023-10-12T16:53:02Z</time></trkpt>
<trkpt lat="46.74816" lon="6.45143"><ele>948.8</ele><time>2023-10-12T16:53:06Z</time></trkpt>
<trkpt lat="46.74817" lon="6.45133"><ele>949.4</ele><time>2023-10-12T16:53:10Z</time></trkpt>
<trkpt lat="46.74817" lon="6.45125"><ele>949.8</ele><time>2023-10-12T16:53:13Z</time></trkpt>
<trkpt lat="46.74813" lon="6.45111"><ele>950.6</ele><time>2023-10-12T16:53:19Z</time></trkpt>
<trkpt lat="46.74812" lon="6.45109"><ele>950.6</ele><time>2023-10-12T16:53:20Z</time></trkpt>
<trkpt lat="46.74806" lon="6.451"><ele>951.6</ele><time>2023-10-12T16:53:25Z</time></trkpt>
<trkpt lat="46.748" lon="6.45097"><ele>952</ele><time>2023-10-12T16:53:28Z</time></trkpt>
<trkpt lat="46.74793" lon="6.45094"><ele>952.8</ele><time>2023-10-12T16:53:33Z</time></trkpt>
<trkpt lat="46.74788" lon="6.45095"><ele>953.4</ele><time>2023-10-12T16:53:36Z</time></trkpt>
<trkpt lat="46.74783" lon="6.45095"><ele>953.8</ele><time>2023-10-12T16:53:39Z</time></trkpt>
<trkpt lat="46.74773" lon="6.45096"><ele>954.6</ele><time>2023-10-12T16:53:44Z</time></trkpt>
<trkpt lat="46.74769" lon="6.45095"><ele>955</ele><time>2023-10-12T16:53:46Z</time></trkpt>
<trkpt lat="46.74761" lon="6.45093"><ele>955.8</ele><time>2023-10-12T16:53:51Z</time></trkpt>
<trkpt lat="46.7476" lon="6.45092"><ele>956</ele><time>2023-10-12T16:53:52Z</time></trkpt>
<trkpt lat="46.74751" lon="6.45088"><ele>956.8</ele><time>2023-10-12T16:53:57Z</time></trkpt>
<trkpt lat="46.74748" lon="6.45087"><ele>957</ele><time>2023-10-12T16:53:59Z</time></trkpt>
<trkpt lat="46.74738" lon="6.45083"><ele>957.6</ele><time>2023-10-12T16:54:04Z</time></trkpt>
<trkpt lat="46.74733" lon="6.4508"><ele>958.2</ele><time>2023-10-12T16:54:07Z</time></trkpt>
<trkpt lat="46.74724" lon="6.45074"><ele>958.8</ele><time>2023-10-12T16:54:13Z</time></trkpt>
<trkpt lat="46.74718" lon="6.45072"><ele>959.2</ele><time>2023-10-12T16:54:16Z</time></trkpt>
<trkpt lat="46.7471" lon="6.45067"><ele>960</ele><time>2023-10-12T16:54:21Z</time></trkpt>
<trkpt lat="46.74705" lon="6.45064"><ele>960.4</ele><time>2023-10-12T16:54:24Z</time></trkpt>
<trkpt lat="46.74701" lon="6.45057"><ele>961.4</ele><time>2023-10-12T16:54:28Z</time></trkpt>
<trkpt lat="46.747" lon="6.45055"><ele>961.4</ele><time>2023-10-12T16:54:29Z</time></trkpt>
<trkpt lat="46.74697" lon="6.45039"><ele>962</ele><time>2023-10-12T16:54:36Z</time></trkpt>
<trkpt lat="46.74698" lon="6.45032"><ele>962.6</ele><time>2023-10-12T16:54:39Z</time></trkpt>
<trkpt lat="46.74698" lon="6.45017"><ele>963.6</ele><time>2023-10-12T16:54:46Z</time></trkpt>
<trkpt lat="46.74698" lon="6.45014"><ele>963.6</ele><time>2023-10-12T16:54:47Z</time></trkpt>
<trkpt lat="46.74697" lon="6.44997"><ele>964.8</ele><time>2023-10-12T16:54:55Z</time></trkpt>
<trkpt lat="46.74694" lon="6.44982"><ele>965.8</ele><time>2023-10-12T16:55:02Z</time></trkpt>
<trkpt lat="46.74692" lon="6.44974"><ele>966.6</ele><time>2023-10-12T16:55:06Z</time></trkpt>
<trkpt lat="46.74691" lon="6.44969"><ele>966.8</ele><time>2023-10-12T16:55:08Z</time></trkpt>
<trkpt lat="46.74686" lon="6.44955"><ele>967.8</ele><time>2023-10-12T16:55:15Z</time></trkpt>
<trkpt lat="46.74685" lon="6.44951"><ele>968.2</ele><time>2023-10-12T16:55:17Z</time></trkpt>
<trkpt lat="46.74681" lon="6.44938"><ele>968.8</ele><time>2023-10-12T16:55:23Z</time></trkpt>
<trkpt lat="46.74677" lon="6.44926"><ele>969.8</ele><time>2023-10-12T16:55:29Z</time></trkpt>
<trkpt lat="46.74675" lon="6.44923"><ele>970.2</ele><time>2023-10-12T16:55:31Z</time></trkpt>
<trkpt lat="46.74667" lon="6.44912"><ele>971</ele><time>2023-10-12T16:55:38Z</time></trkpt>
<trkpt lat="46.74666" lon="6.44911"><ele>971.2</ele><time>2023-10-12T16:55:39Z</time></trkpt>
<trkpt lat="46.74655" lon="6.44899"><ele>972.2</ele><time>2023-10-12T16:55:47Z</time></trkpt>
<trkpt lat="46.74654" lon="6.44897"><ele>972.4</ele><time>2023-10-12T16:55:48Z</time></trkpt>
<trkpt lat="46.74648" lon="6.44889"><ele>973.2</ele><time>2023-10-12T16:55:54Z</time></trkpt>
<trkpt lat="46.74646" lon="6.44886"><ele>973.6</ele><time>2023-10-12T16:55:56Z</time></trkpt>
<trkpt lat="46.74639" lon="6.44874"><ele>974.4</ele><time>2023-10-12T16:56:03Z</time></trkpt>
<trkpt lat="46.74637" lon="6.44868"><ele>974.8</ele><time>2023-10-12T16:56:06Z</time></trkpt>
<trkpt lat="46.74636" lon="6.44858"><ele>975.4</ele><time>2023-10-12T16:56:10Z</time></trkpt>
<trkpt lat="46.74635" lon="6.44845"><ele>976.2</ele><time>2023-10-12T16:56:16Z</time></trkpt>
<trkpt lat="46.74635" lon="6.44843"><ele>976.4</ele><time>2023-10-12T16:56:17Z</time></trkpt>
<trkpt lat="46.74635" lon="6.44828"><ele>977.4</ele><time>2023-10-12T16:56:24Z</time></trkpt>
<trkpt lat="46.74634" lon="6.44813"><ele>978.4</ele><time>2023-10-12T16:56:31Z</time></trkpt>
<trkpt lat="46.74633" lon="6.44811"><ele>978.6</ele><time>2023-10-12T16:56:32Z</time></trkpt>
<trkpt lat="46.74628" lon="6.44801"><ele>979.4</ele><time>2023-10-12T16:56:38Z</time></trkpt>
<trkpt lat="46.74627" lon="6.448"><ele>979.6</ele><time>2023-10-12T16:56:39Z</time></trkpt>
<trkpt lat="46.7462" lon="6.44793"><ele>980.6</ele><time>2023-10-12T16:56:45Z</time></trkpt>
<trkpt lat="46.74617" lon="6.44791"><ele>981</ele><time>2023-10-12T16:56:47Z</time></trkpt>
<trkpt lat="46.74612" lon="6.44789"><ele>981.6</ele><time>2023-10-12T16:56:51Z</time></trkpt>
<trkpt lat="46.74608" lon="6.44788"><ele>982</ele><time>2023-10-12T16:56:54Z</time></trkpt>
<trkpt lat="46.74602" lon="6.44785"><ele>982.8</ele><time>2023-10-12T16:56:58Z</time></trkpt>
<trkpt lat="46.74592" lon="6.44779"><ele>983.8</ele><time>2023-10-12T16:57:05Z</time></trkpt>
<trkpt lat="46.74591" lon="6.44778"><ele>984</ele><time>2023-10-12T16:57:06Z</time></trkpt>
<trkpt lat="46.74581" lon="6.44769"><ele>985.2</ele><time>2023-10-12T16:57:14Z</time></trkpt>
<trkpt lat="46.74572" lon="6.44761"><ele>986.2</ele><time>2023-10-12T16:57:21Z</time></trkpt>
<trkpt lat="46.7457" lon="6.44759"><ele>986.4</ele><time>2023-10-12T16:57:23Z</time></trkpt>
<trkpt lat="46.74562" lon="6.44752"><ele>987.4</ele><time>2023-10-12T16:57:29Z</time></trkpt>
<trkpt lat="46.74553" lon="6.44743"><ele>988.4</ele><time>2023-10-12T16:57:36Z</time></trkpt>
<trkpt lat="46.74548" lon="6.4474"><ele>988.8</ele><time>2023-10-12T16:57:39Z</time></trkpt>
<trkpt lat="46.74543" lon="6.44735"><ele>989.4</ele><time>2023-10-12T16:57:43Z</time></trkpt>
<trkpt lat="46.74536" lon="6.44729"><ele>990.2</ele><time>2023-10-12T16:57:49Z</time></trkpt>
<trkpt lat="46.74533" lon="6.44726"><ele>990.6</ele><time>2023-10-12T16:57:51Z</time></trkpt>
<trkpt lat="46.74527" lon="6.44717"><ele>991.4</ele><time>2023-10-12T16:57:57Z</time></trkpt>
<trkpt lat="46.74524" lon="6.44714"><ele>991.6</ele><time>2023-10-12T16:57:59Z</time></trkpt>
<trkpt lat="46.74519" lon="6.44706"><ele>992.4</ele><time>2023-10-12T16:58:04Z</time></trkpt>
<trkpt lat="46.74517" lon="6.44703"><ele>992.8</ele><time>2023-10-12T16:58:06Z</time></trkpt>
<trkpt lat="46.74509" lon="6.44693"><ele>993.8</ele><time>2023-10-12T16:58:13Z</time></trkpt>
<trkpt lat="46.74508" lon="6.44691"><ele>994</ele><time>2023-10-12T16:58:14Z</time></trkpt>
<trkpt lat="46.745" lon="6.44682"><ele>994.8</ele><time>2023-10-12T16:58:20Z</time></trkpt>
<trkpt lat="46.74497" lon="6.44679"><ele>995.2</ele><time>2023-10-12T16:58:23Z</time></trkpt>
<trkpt lat="46.74491" lon="6.44672"><ele>996</ele><time>2023-10-12T16:58:28Z</time></trkpt>
<trkpt lat="46.74488" lon="6.44669"><ele>996.4</ele><time>2023-10-12T16:58:30Z</time></trkpt>
<trkpt lat="46.74481" lon="6.44663"><ele>997</ele><time>2023-10-12T16:58:35Z</time></trkpt>
<trkpt lat="46.74477" lon="6.44659"><ele>997.2</ele><time>2023-10-12T16:58:38Z</time></trkpt>
<trkpt lat="46.74463" lon="6.44645"><ele>997.8</ele><time>2023-10-12T16:58:47Z</time></trkpt>
<trkpt lat="46.74458" lon="6.44639"><ele>998</ele><time>2023-10-12T16:58:50Z</time></trkpt>
<trkpt lat="46.74447" lon="6.44627"><ele>998.8</ele><time>2023-10-12T16:58:57Z</time></trkpt>
<trkpt lat="46.74442" lon="6.44621"><ele>999.2</ele><time>2023-10-12T16:59:00Z</time></trkpt>
<trkpt lat="46.74434" lon="6.44612"><ele>999.8</ele><time>2023-10-12T16:59:05Z</time></trkpt>
<trkpt lat="46.7442" lon="6.446"><ele>1000.2</ele><time>2023-10-12T16:59:13Z</time></trkpt>
<trkpt lat="46.74409" lon="6.44585"><ele>1000.8</ele><time>2023-10-12T16:59:20Z</time></trkpt>
<trkpt lat="46.744" lon="6.44575"><ele>1001.4</ele><time>2023-10-12T16:59:25Z</time></trkpt>
<trkpt lat="46.74396" lon="6.44571"><ele>1001.4</ele><time>2023-10-12T16:59:27Z</time></trkpt>
<trkpt lat="46.74386" lon="6.44559"><ele>1002.4</ele><time>2023-10-12T16:59:33Z</time></trkpt>
<trkpt lat="46.7438" lon="6.44553"><ele>1002.6</ele><time>2023-10-12T16:59:36Z</time></trkpt>
<trkpt lat="46.74363" lon="6.44535"><ele>1003.4</ele><time>2023-10-12T16:59:45Z</time></trkpt>
<trkpt lat="46.74358" lon="6.44528"><ele>1003.6</ele><time>2023-10-12T16:59:48Z</time></trkpt>
<trkpt lat="46.74349" lon="6.44516"><ele>1004.2</ele><time>2023-10-12T16:59:55Z</time></trkpt>
<trkpt lat="46.74341" lon="6.44507"><ele>1004.4</ele><time>2023-10-12T17:00:00Z</time></trkpt>
<trkpt lat="46.74333" lon="6.44498"><ele>1004.8</ele><time>2023-10-12T17:00:05Z</time></trkpt>
<trkpt lat="46.74322" lon="6.44485"><ele>1005</ele><time>2023-10-12T17:00:11Z</time></trkpt>
<trkpt lat="46.74313" lon="6.4447"><ele>1005.4</ele><time>2023-10-12T17:00:17Z</time></trkpt>
<trkpt lat="46.74311" lon="6.44468"><ele>1005.6</ele><time>2023-10-12T17:00:18Z</time></trkpt>
<trkpt lat="46.74304" lon="6.44452"><ele>1006.6</ele><time>2023-10-12T17:00:25Z</time></trkpt>
<trkpt lat="46.74303" lon="6.4445"><ele>1006.8</ele><time>2023-10-12T17:00:26Z</time></trkpt>
<trkpt lat="46.74299" lon="6.44438"><ele>1007.6</ele><time>2023-10-12T17:00:31Z</time></trkpt>
<trkpt lat="46.74296" lon="6.44428"><ele>1008.2</ele><time>2023-10-12T17:00:35Z</time></trkpt>
<trkpt lat="46.74294" lon="6.44422"><ele>1008.8</ele><time>2023-10-12T17:00:38Z</time></trkpt>
<trkpt lat="46.7429" lon="6.44407"><ele>1009.6</ele><time>2023-10-12T17:00:44Z</time></trkpt>
<trkpt lat="46.74289" lon="6.44403"><ele>1009.8</ele><time>2023-10-12T17:00:46Z</time></trkpt>
<trkpt lat="46.74286" lon="6.44392"><ele>1010.6</ele><time>2023-10-12T17:00:51Z</time></trkpt>
<trkpt lat="46.74284" lon="6.44387"><ele>1010.8</ele><time>2023-10-12T17:00:53Z</time></trkpt>
<trkpt lat="46.74279" lon="6.44375"><ele>1011.6</ele><time>2023-10-12T17:00:59Z</time></trkpt>
<trkpt lat="46.74278" lon="6.44372"><ele>1011.8</ele><time>2023-10-12T17:01:00Z</time></trkpt>
<trkpt lat="46.74275" lon="6.44359"><ele>1012.4</ele><time>2023-10-12T17:01:06Z</time></trkpt>
<trkpt lat="46.74273" lon="6.44353"><ele>1013</ele><time>2023-10-12T17:01:09Z</time></trkpt>
<trkpt lat="46.74272" lon="6.44348"><ele>1013.2</ele><time>2023-10-12T17:01:11Z</time></trkpt>
<trkpt lat="46.74271" lon="6.44343"><ele>1013.6</ele><time>2023-10-12T17:01:13Z</time></trkpt>
<trkpt lat="46.7427" lon="6.44338"><ele>1013.8</ele><time>2023-10-12T17:01:15Z</time></trkpt>
<trkpt lat="46.74269" lon="6.44333"><ele>1014.2</ele><time>2023-10-12T17:01:17Z</time></trkpt>
<trkpt lat="46.74267" lon="6.44319"><ele>1015</ele><time>2023-10-12T17:01:23Z</time></trkpt>
<trkpt lat="46.74266" lon="6.44314"><ele>1015.2</ele><time>2023-10-12T17:01:25Z</time></trkpt>
<trkpt lat="46.74263" lon="6.44302"><ele>1016.2</ele><time>2023-10-12T17:01:31Z</time></trkpt>
<trkpt lat="46.74263" lon="6.443"><ele>1016.4</ele><time>2023-10-12T17:01:32Z</time></trkpt>
<trkpt lat="46.74261" lon="6.44285"><ele>1017.2</ele><time>2023-10-12T17:01:38Z</time></trkpt>
<trkpt lat="46.7426" lon="6.44283"><ele>1017.4</ele><time>2023-10-12T17:01:39Z</time></trkpt>
<trkpt lat="46.74255" lon="6.44264"><ele>1018.6</ele><time>2023-10-12T17:01:47Z</time></trkpt>
<trkpt lat="46.74251" lon="6.44247"><ele>1019.6</ele><time>2023-10-12T17:01:54Z</time></trkpt>
<trkpt lat="46.7425" lon="6.4424"><ele>1020</ele><time>2023-10-12T17:01:57Z</time></trkpt>
<trkpt lat="46.74246" lon="6.44232"><ele>1020.6</ele><time>2023-10-12T17:02:01Z</time></trkpt>
<trkpt lat="46.74244" lon="6.4422"><ele>1021.6</ele><time>2023-10-12T17:02:06Z</time></trkpt>
<trkpt lat="46.74243" lon="6.44216"><ele>1021.8</ele><time>2023-10-12T17:02:08Z</time></trkpt>
<trkpt lat="46.7424" lon="6.44203"><ele>1022.8</ele><time>2023-10-12T17:02:14Z</time></trkpt>
<trkpt lat="46.7424" lon="6.442"><ele>1023</ele><time>2023-10-12T17:02:15Z</time></trkpt>
<trkpt lat="46.74236" lon="6.44186"><ele>1023.8</ele><time>2023-10-12T17:02:22Z</time></trkpt>
<trkpt lat="46.74235" lon="6.44183"><ele>1024</ele><time>2023-10-12T17:02:23Z</time></trkpt>
<trkpt lat="46.74232" lon="6.44167"><ele>1024.8</ele><time>2023-10-12T17:02:30Z</time></trkpt>
<trkpt lat="46.74228" lon="6.44147"><ele>1026</ele><time>2023-10-12T17:02:38Z</time></trkpt>
<trkpt lat="46.74226" lon="6.44138"><ele>1026.6</ele><time>2023-10-12T17:02:42Z</time></trkpt>
<trkpt lat="46.74224" lon="6.44129"><ele>1027</ele><time>2023-10-12T17:02:46Z</time></trkpt>
<trkpt lat="46.74223" lon="6.44123"><ele>1027.6</ele><time>2023-10-12T17:02:49Z</time></trkpt>
<trkpt lat="46.74221" lon="6.44113"><ele>1028</ele><time>2023-10-12T17:02:53Z</time></trkpt>
<trkpt lat="46.7422" lon="6.44109"><ele>1028.2</ele><time>2023-10-12T17:02:55Z</time></trkpt>
<trkpt lat="46.74218" lon="6.44096"><ele>1029.2</ele><time>2023-10-12T17:03:01Z</time></trkpt>
<trkpt lat="46.74217" lon="6.44092"><ele>1029.4</ele><time>2023-10-12T17:03:03Z</time></trkpt>
<trkpt lat="46.74214" lon="6.44076"><ele>1030.4</ele><time>2023-10-12T17:03:09Z</time></trkpt>
<trkpt lat="46.74213" lon="6.4406"><ele>1031.4</ele><time>2023-10-12T17:03:17Z</time></trkpt>
<trkpt lat="46.74213" lon="6.44058"><ele>1031.6</ele><time>2023-10-12T17:03:18Z</time></trkpt>
<trkpt lat="46.74213" lon="6.4404"><ele>1032.6</ele><time>2023-10-12T17:03:25Z</time></trkpt>
<trkpt lat="46.74213" lon="6.44033"><ele>1033</ele><time>2023-10-12T17:03:28Z</time></trkpt>
<trkpt lat="46.74213" lon="6.44024"><ele>1033.6</ele><time>2023-10-12T17:03:32Z</time></trkpt>
<trkpt lat="46.74213" lon="6.44014"><ele>1034.2</ele><time>2023-10-12T17:03:37Z</time></trkpt>
<trkpt lat="46.74213" lon="6.44007"><ele>1034.8</ele><time>2023-10-12T17:03:40Z</time></trkpt>
<trkpt lat="46.74215" lon="6.43992"><ele>1035.6</ele><time>2023-10-12T17:03:46Z</time></trkpt>
<trkpt lat="46.74215" lon="6.43986"><ele>1036</ele><time>2023-10-12T17:03:48Z</time></trkpt>
<trkpt lat="46.74215" lon="6.43971"><ele>1037</ele><time>2023-10-12T17:03:55Z</time></trkpt>
<trkpt lat="46.74216" lon="6.43955"><ele>1038.2</ele><time>2023-10-12T17:04:02Z</time></trkpt>
<trkpt lat="46.74216" lon="6.43938"><ele>1039.2</ele><time>2023-10-12T17:04:09Z</time></trkpt>
<trkpt lat="46.74217" lon="6.4393"><ele>1039.8</ele><time>2023-10-12T17:04:12Z</time></trkpt>
<trkpt lat="46.7422" lon="6.4392"><ele>1040.6</ele><time>2023-10-12T17:04:17Z</time></trkpt>
<trkpt lat="46.74221" lon="6.43915"><ele>1040.8</ele><time>2023-10-12T17:04:19Z</time></trkpt>
<trkpt lat="46.74224" lon="6.439"><ele>1041.6</ele><time>2023-10-12T17:04:25Z</time></trkpt>
<trkpt lat="46.74227" lon="6.43888"><ele>1042.4</ele><time>2023-10-12T17:04:31Z</time></trkpt>
<trkpt lat="46.74228" lon="6.43883"><ele>1042.6</ele><time>2023-10-12T17:04:34Z</time></trkpt>
<trkpt lat="46.7423" lon="6.43868"><ele>1043.6</ele><time>2023-10-12T17:04:41Z</time></trkpt>
<trkpt lat="46.7423" lon="6.43866"><ele>1043.8</ele><time>2023-10-12T17:04:42Z</time></trkpt>
<trkpt lat="46.7423" lon="6.43854"><ele>1044.8</ele><time>2023-10-12T17:04:48Z</time></trkpt>
<trkpt lat="46.7423" lon="6.43849"><ele>1045</ele><time>2023-10-12T17:04:50Z</time></trkpt>
<trkpt lat="46.74228" lon="6.43835"><ele>1046</ele><time>2023-10-12T17:04:57Z</time></trkpt>
<trkpt lat="46.74228" lon="6.43831"><ele>1046.2</ele><time>2023-10-12T17:04:59Z</time></trkpt>
<trkpt lat="46.74225" lon="6.4382"><ele>1047</ele><time>2023-10-12T17:05:04Z</time></trkpt>
<trkpt lat="46.74223" lon="6.43811"><ele>1047.4</ele><time>2023-10-12T17:05:08Z</time></trkpt>
<trkpt lat="46.74221" lon="6.43804"><ele>1048.2</ele><time>2023-10-12T17:05:12Z</time></trkpt>
<trkpt lat="46.7422" lon="6.43788"><ele>1049</ele><time>2023-10-12T17:05:19Z</time></trkpt>
<trkpt lat="46.7422" lon="6.43784"><ele>1049.4</ele><time>2023-10-12T17:05:21Z</time></trkpt>
<trkpt lat="46.74217" lon="6.43767"><ele>1050.6</ele><time>2023-10-12T17:05:29Z</time></trkpt>
<trkpt lat="46.74217" lon="6.43748"><ele>1052</ele><time>2023-10-12T17:05:37Z</time></trkpt>
<trkpt lat="46.74217" lon="6.43746"><ele>1052</ele><time>2023-10-12T17:05:38Z</time></trkpt>
<trkpt lat="46.7422" lon="6.43729"><ele>1052.8</ele><time>2023-10-12T17:05:45Z</time></trkpt>
<trkpt lat="46.7422" lon="6.43726"><ele>1053</ele><time>2023-10-12T17:05:46Z</time></trkpt>
<trkpt lat="46.74225" lon="6.43711"><ele>1054</ele><time>2023-10-12T17:05:53Z</time></trkpt>
<trkpt lat="46.74226" lon="6.43707"><ele>1054.2</ele><time>2023-10-12T17:05:55Z</time></trkpt>
<trkpt lat="46.74231" lon="6.43692"><ele>1055</ele><time>2023-10-12T17:06:02Z</time></trkpt>
<trkpt lat="46.74233" lon="6.43688"><ele>1055.4</ele><time>2023-10-12T17:06:04Z</time></trkpt>
<trkpt lat="46.74235" lon="6.43676"><ele>1056.2</ele><time>2023-10-12T17:06:09Z</time></trkpt>
<trkpt lat="46.74237" lon="6.43672"><ele>1056.4</ele><time>2023-10-12T17:06:11Z</time></trkpt>
<trkpt lat="46.7424" lon="6.4366"><ele>1057.2</ele><time>2023-10-12T17:06:17Z</time></trkpt>
<trkpt lat="46.74242" lon="6.43655"><ele>1057.6</ele><time>2023-10-12T17:06:19Z</time></trkpt>
<trkpt lat="46.74244" lon="6.43642"><ele>1058.4</ele><time>2023-10-12T17:06:25Z</time></trkpt>
<trkpt lat="46.74245" lon="6.43638"><ele>1058.8</ele><time>2023-10-12T17:06:27Z</time></trkpt>
<trkpt lat="46.7425" lon="6.43625"><ele>1059.6</ele><time>2023-10-12T17:06:33Z</time></trkpt>
<trkpt lat="46.74252" lon="6.43617"><ele>1060</ele><time>2023-10-12T17:06:37Z</time></trkpt>
<trkpt lat="46.74255" lon="6.43608"><ele>1060.6</ele><time>2023-10-12T17:06:41Z</time></trkpt>
<trkpt lat="46.74259" lon="6.43601"><ele>1061.2</ele><time>2023-10-12T17:06:45Z</time></trkpt>
<trkpt lat="46.74261" lon="6.43595"><ele>1061.6</ele><time>2023-10-12T17:06:48Z</time></trkpt>
<trkpt lat="46.74264" lon="6.43586"><ele>1062.2</ele><time>2023-10-12T17:06:52Z</time></trkpt>
<trkpt lat="46.74267" lon="6.43581"><ele>1062.6</ele><time>2023-10-12T17:06:55Z</time></trkpt>
<trkpt lat="46.74272" lon="6.43571"><ele>1063.2</ele><time>2023-10-12T17:07:00Z</time></trkpt>
<trkpt lat="46.74275" lon="6.43562"><ele>1063.8</ele><time>2023-10-12T17:07:04Z</time></trkpt>
<trkpt lat="46.74278" lon="6.43555"><ele>1064.2</ele><time>2023-10-12T17:07:08Z</time></trkpt>
<trkpt lat="46.74282" lon="6.43549"><ele>1064.8</ele><time>2023-10-12T17:07:12Z</time></trkpt>
<trkpt lat="46.74285" lon="6.43543"><ele>1065.4</ele><time>2023-10-12T17:07:15Z</time></trkpt>
<trkpt lat="46.74288" lon="6.43536"><ele>1065.8</ele><time>2023-10-12T17:07:19Z</time></trkpt>
<trkpt lat="46.74291" lon="6.4353"><ele>1066.4</ele><time>2023-10-12T17:07:22Z</time></trkpt>
<trkpt lat="46.74295" lon="6.43523"><ele>1067</ele><time>2023-10-12T17:07:26Z</time></trkpt>
<trkpt lat="46.74298" lon="6.43518"><ele>1067.4</ele><time>2023-10-12T17:07:29Z</time></trkpt>
<trkpt lat="46.74304" lon="6.43507"><ele>1068.2</ele><time>2023-10-12T17:07:35Z</time></trkpt>
<trkpt lat="46.74305" lon="6.43503"><ele>1068.4</ele><time>2023-10-12T17:07:37Z</time></trkpt>
<trkpt lat="46.74309" lon="6.43491"><ele>1069.2</ele><time>2023-10-12T17:07:42Z</time></trkpt>
<trkpt lat="46.74313" lon="6.43484"><ele>1069.8</ele><time>2023-10-12T17:07:46Z</time></trkpt>
<trkpt lat="46.74316" lon="6.4348"><ele>1070.2</ele><time>2023-10-12T17:07:49Z</time></trkpt>
<trkpt lat="46.74323" lon="6.43467"><ele>1071.2</ele><time>2023-10-12T17:07:56Z</time></trkpt>
<trkpt lat="46.74329" lon="6.43454"><ele>1072.4</ele><time>2023-10-12T17:08:03Z</time></trkpt>
<trkpt lat="46.74331" lon="6.43451"><ele>1072.6</ele><time>2023-10-12T17:08:05Z</time></trkpt>
<trkpt lat="46.74338" lon="6.4344"><ele>1073.4</ele><time>2023-10-12T17:08:11Z</time></trkpt>
<trkpt lat="46.74344" lon="6.4343"><ele>1074</ele><time>2023-10-12T17:08:16Z</time></trkpt>
<trkpt lat="46.74347" lon="6.43425"><ele>1074.4</ele><time>2023-10-12T17:08:19Z</time></trkpt>
<trkpt lat="46.74352" lon="6.43416"><ele>1075</ele><time>2023-10-12T17:08:24Z</time></trkpt>
<trkpt lat="46.74356" lon="6.43411"><ele>1075.4</ele><time>2023-10-12T17:08:27Z</time></trkpt>
<trkpt lat="46.74361" lon="6.43405"><ele>1076</ele><time>2023-10-12T17:08:31Z</time></trkpt>
<trkpt lat="46.74364" lon="6.43399"><ele>1076.6</ele><time>2023-10-12T17:08:34Z</time></trkpt>
<trkpt lat="46.74369" lon="6.43393"><ele>1076.8</ele><time>2023-10-12T17:08:37Z</time></trkpt>
<trkpt lat="46.74374" lon="6.43383"><ele>1077.6</ele><time>2023-10-12T17:08:42Z</time></trkpt>
<trkpt lat="46.74377" lon="6.43381"><ele>1077.8</ele><time>2023-10-12T17:08:44Z</time></trkpt>
<trkpt lat="46.74385" lon="6.43377"><ele>1078.6</ele><time>2023-10-12T17:08:49Z</time></trkpt>
<trkpt lat="46.74391" lon="6.43377"><ele>1079</ele><time>2023-10-12T17:08:52Z</time></trkpt>
<trkpt lat="46.744" lon="6.4338"><ele>1079.8</ele><time>2023-10-12T17:08:57Z</time></trkpt>
<trkpt lat="46.74405" lon="6.43382"><ele>1080.2</ele><time>2023-10-12T17:09:00Z</time></trkpt>
<trkpt lat="46.74414" lon="6.43388"><ele>1080.8</ele><time>2023-10-12T17:09:05Z</time></trkpt>
<trkpt lat="46.74422" lon="6.43395"><ele>1081.4</ele><time>2023-10-12T17:09:10Z</time></trkpt>
<trkpt lat="46.74425" lon="6.43397"><ele>1081.8</ele><time>2023-10-12T17:09:12Z</time></trkpt>
<trkpt lat="46.74432" lon="6.43403"><ele>1082.4</ele><time>2023-10-12T17:09:17Z</time></trkpt>
<trkpt lat="46.74436" lon="6.43405"><ele>1082.8</ele><time>2023-10-12T17:09:19Z</time></trkpt>
<trkpt lat="46.74448" lon="6.43412"><ele>1083.6</ele><time>2023-10-12T17:09:25Z</time></trkpt>
<trkpt lat="46.74453" lon="6.43416"><ele>1083.8</ele><time>2023-10-12T17:09:28Z</time></trkpt>
<trkpt lat="46.7446" lon="6.4342"><ele>1084.4</ele><time>2023-10-12T17:09:32Z</time></trkpt>
<trkpt lat="46.74469" lon="6.43423"><ele>1085</ele><time>2023-10-12T17:09:37Z</time></trkpt>
<trkpt lat="46.74473" lon="6.43424"><ele>1085</ele><time>2023-10-12T17:09:39Z</time></trkpt>
<trkpt lat="46.7449" lon="6.43419"><ele>1085.8</ele><time>2023-10-12T17:09:48Z</time></trkpt>
<trkpt lat="46.74493" lon="6.43417"><ele>1086</ele><time>2023-10-12T17:09:50Z</time></trkpt>
<trkpt lat="46.74502" lon="6.4341"><ele>1086.4</ele><time>2023-10-12T17:09:55Z</time></trkpt>
<trkpt lat="46.74517" lon="6.43392"><ele>1086.8</ele><time>2023-10-12T17:10:03Z</time></trkpt>
<trkpt lat="46.74531" lon="6.43369"><ele>1087</ele><time>2023-10-12T17:10:11Z</time></trkpt>
<trkpt lat="46.74533" lon="6.43365"><ele>1087.2</ele><time>2023-10-12T17:10:12Z</time></trkpt>
<trkpt lat="46.74539" lon="6.43354"><ele>1087.4</ele><time>2023-10-12T17:10:16Z</time></trkpt>
<trkpt lat="46.74543" lon="6.43346"><ele>1087.4</ele><time>2023-10-12T17:10:19Z</time></trkpt>
<trkpt lat="46.74554" lon="6.43318"><ele>1087.6</ele><time>2023-10-12T17:10:27Z</time></trkpt>
<trkpt lat="46.74555" lon="6.43283"><ele>1087.6</ele><time>2023-10-12T17:10:35Z</time></trkpt>
<trkpt lat="46.74549" lon="6.43241"><ele>1088</ele><time>2023-10-12T17:10:45Z</time></trkpt>
<trkpt lat="46.74547" lon="6.43207"><ele>1088</ele><time>2023-10-12T17:10:52Z</time></trkpt>
<trkpt lat="46.74546" lon="6.43193"><ele>1088.2</ele><time>2023-10-12T17:10:55Z</time></trkpt>
<trkpt lat="46.74546" lon="6.43162"><ele>1088.4</ele><time>2023-10-12T17:11:02Z</time></trkpt>
<trkpt lat="46.74551" lon="6.43129"><ele>1088.6</ele><time>2023-10-12T17:11:09Z</time></trkpt>
<trkpt lat="46.7455" lon="6.43089"><ele>1088.8</ele><time>2023-10-12T17:11:17Z</time></trkpt>
<trkpt lat="46.74547" lon="6.43077"><ele>1089.2</ele><time>2023-10-12T17:11:20Z</time></trkpt>
<trkpt lat="46.74541" lon="6.43059"><ele>1089.4</ele><time>2023-10-12T17:11:24Z</time></trkpt>
<trkpt lat="46.74521" lon="6.4301"><ele>1089.6</ele><time>2023-10-12T17:11:35Z</time></trkpt>
<trkpt lat="46.7452" lon="6.43005"><ele>1089.6</ele><time>2023-10-12T17:11:36Z</time></trkpt>
<trkpt lat="46.74501" lon="6.42957"><ele>1090</ele><time>2023-10-12T17:11:47Z</time></trkpt>
<trkpt lat="46.74496" lon="6.42945"><ele>1090.2</ele><time>2023-10-12T17:11:50Z</time></trkpt>
<trkpt lat="46.74486" lon="6.42921"><ele>1090.6</ele><time>2023-10-12T17:11:56Z</time></trkpt>
<trkpt lat="46.74487" lon="6.42903"><ele>1091</ele><time>2023-10-12T17:12:01Z</time></trkpt>
<trkpt lat="46.74489" lon="6.429"><ele>1091.2</ele><time>2023-10-12T17:12:02Z</time></trkpt>
<trkpt lat="46.74491" lon="6.42899"><ele>1091.4</ele><time>2023-10-12T17:12:03Z</time></trkpt>
<trkpt lat="46.74495" lon="6.429"><ele>1091.8</ele><time>2023-10-12T17:12:05Z</time></trkpt>
<trkpt lat="46.74504" lon="6.42915"><ele>1092.2</ele><time>2023-10-12T17:12:11Z</time></trkpt>
<trkpt lat="46.74507" lon="6.42921"><ele>1092.2</ele><time>2023-10-12T17:12:13Z</time></trkpt>
<trkpt lat="46.74517" lon="6.4294"><ele>1093</ele><time>2023-10-12T17:12:20Z</time></trkpt>
<trkpt lat="46.7452" lon="6.42952"><ele>1093.4</ele><time>2023-10-12T17:12:24Z</time></trkpt>
<trkpt lat="46.74523" lon="6.42957"><ele>1093.8</ele><time>2023-10-12T17:12:26Z</time></trkpt>
<trkpt lat="46.74529" lon="6.42969"><ele>1094.6</ele><time>2023-10-12T17:12:31Z</time></trkpt>
<trkpt lat="46.74531" lon="6.42973"><ele>1094.8</ele><time>2023-10-12T17:12:33Z</time></trkpt>
<trkpt lat="46.74542" lon="6.42993"><ele>1095.6</ele><time>2023-10-12T17:12:41Z</time></trkpt>
<trkpt lat="46.74547" lon="6.43002"><ele>1096.4</ele><time>2023-10-12T17:12:45Z</time></trkpt>
<trkpt lat="46.74551" lon="6.43008"><ele>1096.8</ele><time>2023-10-12T17:12:48Z</time></trkpt>
<trkpt lat="46.74557" lon="6.43016"><ele>1097.2</ele><time>2023-10-12T17:12:52Z</time></trkpt>
<trkpt lat="46.7456" lon="6.43021"><ele>1097.8</ele><time>2023-10-12T17:12:55Z</time></trkpt>
<trkpt lat="46.74565" lon="6.43029"><ele>1098.2</ele><time>2023-10-12T17:12:59Z</time></trkpt>
<trkpt lat="46.74571" lon="6.43037"><ele>1098.8</ele><time>2023-10-12T17:13:03Z</time></trkpt>
<trkpt lat="46.74576" lon="6.43045"><ele>1099.2</ele><time>2023-10-12T17:13:07Z</time></trkpt>
<trkpt lat="46.74582" lon="6.43051"><ele>1099.8</ele><time>2023-10-12T17:13:11Z</time></trkpt>
<trkpt lat="46.74585" lon="6.43054"><ele>1100</ele><time>2023-10-12T17:13:13Z</time></trkpt>
<trkpt lat="46.74592" lon="6.43063"><ele>1101</ele><time>2023-10-12T17:13:19Z</time></trkpt>
<trkpt lat="46.74594" lon="6.43064"><ele>1101</ele><time>2023-10-12T17:13:20Z</time></trkpt>
<trkpt lat="46.74602" lon="6.43077"><ele>1102</ele><time>2023-10-12T17:13:27Z</time></trkpt>
<trkpt lat="46.74611" lon="6.43088"><ele>1103</ele><time>2023-10-12T17:13:34Z</time></trkpt>
<trkpt lat="46.74621" lon="6.431"><ele>1104</ele><time>2023-10-12T17:13:41Z</time></trkpt>
<trkpt lat="46.74622" lon="6.43102"><ele>1104</ele><time>2023-10-12T17:13:42Z</time></trkpt>
<trkpt lat="46.74623" lon="6.43103"><ele>1104.2</ele><time>2023-10-12T17:13:43Z</time></trkpt>
<trkpt lat="46.74632" lon="6.43118"><ele>1105.4</ele><time>2023-10-12T17:13:50Z</time></trkpt>
<trkpt lat="46.74638" lon="6.43131"><ele>1106.4</ele><time>2023-10-12T17:13:56Z</time></trkpt>
<trkpt lat="46.7464" lon="6.43135"><ele>1106.6</ele><time>2023-10-12T17:13:58Z</time></trkpt>
<trkpt lat="46.74644" lon="6.43144"><ele>1107.6</ele><time>2023-10-12T17:14:03Z</time></trkpt>
<trkpt lat="46.74646" lon="6.43149"><ele>1108</ele><time>2023-10-12T17:14:05Z</time></trkpt>
<trkpt lat="46.74649" lon="6.43159"><ele>1108.8</ele><time>2023-10-12T17:14:10Z</time></trkpt>
<trkpt lat="46.74651" lon="6.43165"><ele>1109.4</ele><time>2023-10-12T17:14:13Z</time></trkpt>
<trkpt lat="46.74654" lon="6.43171"><ele>1109.8</ele><time>2023-10-12T17:14:16Z</time></trkpt>
<trkpt lat="46.74657" lon="6.43181"><ele>1110.4</ele><time>2023-10-12T17:14:20Z</time></trkpt>
<trkpt lat="46.74659" lon="6.43185"><ele>1110.8</ele><time>2023-10-12T17:14:22Z</time></trkpt>
<trkpt lat="46.74663" lon="6.43199"><ele>1112</ele><time>2023-10-12T17:14:29Z</time></trkpt>
<trkpt lat="46.74667" lon="6.43214"><ele>1113</ele><time>2023-10-12T17:14:36Z</time></trkpt>
<trkpt lat="46.74668" lon="6.43216"><ele>1113.2</ele><time>2023-10-12T17:14:37Z</time></trkpt>
<trkpt lat="46.74668" lon="6.43219"><ele>1113.6</ele><time>2023-10-12T17:14:39Z</time></trkpt>
<trkpt lat="46.74669" lon="6.43227"><ele>1114</ele><time>2023-10-12T17:14:43Z</time></trkpt>
<trkpt lat="46.7467" lon="6.43231"><ele>1114</ele><time>2023-10-12T17:14:45Z</time></trkpt>
<trkpt lat="46.74675" lon="6.43245"><ele>1115.2</ele><time>2023-10-12T17:14:51Z</time></trkpt>
<trkpt lat="46.74683" lon="6.43259"><ele>1116</ele><time>2023-10-12T17:14:58Z</time></trkpt>
<trkpt lat="46.74683" lon="6.43261"><ele>1116.4</ele><time>2023-10-12T17:14:59Z</time></trkpt>
<trkpt lat="46.74689" lon="6.43276"><ele>1117.2</ele><time>2023-10-12T17:15:05Z</time></trkpt>
<trkpt lat="46.74691" lon="6.43281"><ele>1117.4</ele><time>2023-10-12T17:15:07Z</time></trkpt>
<trkpt lat="46.74694" lon="6.43291"><ele>1118.2</ele><time>2023-10-12T17:15:12Z</time></trkpt>
<trkpt lat="46.74695" lon="6.43296"><ele>1118.4</ele><time>2023-10-12T17:15:14Z</time></trkpt>
<trkpt lat="46.74701" lon="6.43308"><ele>1119.4</ele><time>2023-10-12T17:15:20Z</time></trkpt>
<trkpt lat="46.74702" lon="6.4331"><ele>1119.6</ele><time>2023-10-12T17:15:21Z</time></trkpt>
<trkpt lat="46.74709" lon="6.43325"><ele>1120.6</ele><time>2023-10-12T17:15:28Z</time></trkpt>
<trkpt lat="46.7471" lon="6.43328"><ele>1120.8</ele><time>2023-10-12T17:15:29Z</time></trkpt>
<trkpt lat="46.74715" lon="6.4334"><ele>1121.6</ele><time>2023-10-12T17:15:35Z</time></trkpt>
<trkpt lat="46.74721" lon="6.43355"><ele>1122.8</ele><time>2023-10-12T17:15:42Z</time></trkpt>
<trkpt lat="46.74722" lon="6.43359"><ele>1123</ele><time>2023-10-12T17:15:44Z</time></trkpt>
<trkpt lat="46.74725" lon="6.4337"><ele>1123.8</ele><time>2023-10-12T17:15:49Z</time></trkpt>
<trkpt lat="46.74726" lon="6.43377"><ele>1124.2</ele><time>2023-10-12T17:15:52Z</time></trkpt>
<trkpt lat="46.74729" lon="6.43388"><ele>1124.8</ele><time>2023-10-12T17:15:56Z</time></trkpt>
<trkpt lat="46.7473" lon="6.43397"><ele>1125.6</ele><time>2023-10-12T17:16:00Z</time></trkpt>
<trkpt lat="46.74732" lon="6.43403"><ele>1126</ele><time>2023-10-12T17:16:03Z</time></trkpt>
<trkpt lat="46.74735" lon="6.43419"><ele>1126.8</ele><time>2023-10-12T17:16:09Z</time></trkpt>
<trkpt lat="46.74735" lon="6.43421"><ele>1127</ele><time>2023-10-12T17:16:10Z</time></trkpt>
<trkpt lat="46.74736" lon="6.43426"><ele>1127.2</ele><time>2023-10-12T17:16:12Z</time></trkpt>
<trkpt lat="46.74737" lon="6.43435"><ele>1127.8</ele><time>2023-10-12T17:16:15Z</time></trkpt>
<trkpt lat="46.74738" lon="6.4344"><ele>1128</ele><time>2023-10-12T17:16:17Z</time></trkpt>
<trkpt lat="46.74739" lon="6.4345"><ele>1128.8</ele><time>2023-10-12T17:16:21Z</time></trkpt>
<trkpt lat="46.7474" lon="6.43457"><ele>1129</ele><time>2023-10-12T17:16:24Z</time></trkpt>
<trkpt lat="46.74743" lon="6.43469"><ele>1129.8</ele><time>2023-10-12T17:16:29Z</time></trkpt>
<trkpt lat="46.74747" lon="6.43478"><ele>1130.2</ele><time>2023-10-12T17:16:33Z</time></trkpt>
<trkpt lat="46.7475" lon="6.43489"><ele>1130.6</ele><time>2023-10-12T17:16:37Z</time></trkpt>
<trkpt lat="46.74756" lon="6.43505"><ele>1131.2</ele><time>2023-10-12T17:16:44Z</time></trkpt>
<trkpt lat="46.74763" lon="6.43527"><ele>1132.2</ele><time>2023-10-12T17:16:52Z</time></trkpt>
<trkpt lat="46.74764" lon="6.4353"><ele>1132.4</ele><time>2023-10-12T17:16:53Z</time></trkpt>
<trkpt lat="46.74767" lon="6.43546"><ele>1133</ele><time>2023-10-12T17:16:59Z</time></trkpt>
<trkpt lat="46.74768" lon="6.43549"><ele>1133.2</ele><time>2023-10-12T17:17:02Z</time></trkpt>
<trkpt lat="46.74769" lon="6.43554"><ele>1133.4</ele><time>2023-10-12T17:17:04Z</time></trkpt>
<trkpt lat="46.74771" lon="6.4356"><ele>1133.4</ele><time>2023-10-12T17:17:06Z</time></trkpt>
<trkpt lat="46.74777" lon="6.43577"><ele>1133.8</ele><time>2023-10-12T17:17:12Z</time></trkpt>
<trkpt lat="46.74779" lon="6.4359"><ele>1134.6</ele><time>2023-10-12T17:17:17Z</time></trkpt>
<trkpt lat="46.7478" lon="6.43598"><ele>1134.8</ele><time>2023-10-12T17:17:20Z</time></trkpt>
<trkpt lat="46.74781" lon="6.4362"><ele>1135.4</ele><time>2023-10-12T17:17:27Z</time></trkpt>
<trkpt lat="46.74781" lon="6.43623"><ele>1135.4</ele><time>2023-10-12T17:17:28Z</time></trkpt>
<trkpt lat="46.74781" lon="6.43632"><ele>1135.6</ele><time>2023-10-12T17:17:31Z</time></trkpt>
<trkpt lat="46.7478" lon="6.43646"><ele>1136</ele><time>2023-10-12T17:17:35Z</time></trkpt>
<trkpt lat="46.74779" lon="6.43665"><ele>1136.6</ele><time>2023-10-12T17:17:40Z</time></trkpt>
<trkpt lat="46.74779" lon="6.43679"><ele>1137</ele><time>2023-10-12T17:17:44Z</time></trkpt>
<trkpt lat="46.74778" lon="6.43701"><ele>1137.6</ele><time>2023-10-12T17:17:50Z</time></trkpt>
<trkpt lat="46.74777" lon="6.43708"><ele>1138</ele><time>2023-10-12T17:17:52Z</time></trkpt>
<trkpt lat="46.74778" lon="6.4373"><ele>1138.6</ele><time>2023-10-12T17:17:59Z</time></trkpt>
<trkpt lat="46.74779" lon="6.43742"><ele>1139.2</ele><time>2023-10-12T17:18:03Z</time></trkpt>
<trkpt lat="46.74782" lon="6.43754"><ele>1139.8</ele><time>2023-10-12T17:18:07Z</time></trkpt>
<trkpt lat="46.74785" lon="6.43769"><ele>1140.4</ele><time>2023-10-12T17:18:12Z</time></trkpt>
<trkpt lat="46.74787" lon="6.43781"><ele>1141</ele><time>2023-10-12T17:18:16Z</time></trkpt>
<trkpt lat="46.74791" lon="6.43795"><ele>1141.6</ele><time>2023-10-12T17:18:21Z</time></trkpt>
<trkpt lat="46.74792" lon="6.43801"><ele>1142</ele><time>2023-10-12T17:18:23Z</time></trkpt>
<trkpt lat="46.74794" lon="6.43816"><ele>1142.6</ele><time>2023-10-12T17:18:28Z</time></trkpt>
<trkpt lat="46.74795" lon="6.43824"><ele>1143</ele><time>2023-10-12T17:18:31Z</time></trkpt>
<trkpt lat="46.74798" lon="6.43843"><ele>1144.2</ele><time>2023-10-12T17:18:38Z</time></trkpt>
<trkpt lat="46.74801" lon="6.43862"><ele>1145.2</ele><time>2023-10-12T17:18:45Z</time></trkpt>
<trkpt lat="46.74802" lon="6.43873"><ele>1145.8</ele><time>2023-10-12T17:18:49Z</time></trkpt>
<trkpt lat="46.74804" lon="6.43884"><ele>1146.2</ele><time>2023-10-12T17:18:53Z</time></trkpt>
<trkpt lat="46.74807" lon="6.43902"><ele>1147.2</ele><time>2023-10-12T17:19:00Z</time></trkpt>
<trkpt lat="46.74807" lon="6.43904"><ele>1147.4</ele><time>2023-10-12T17:19:01Z</time></trkpt>
<trkpt lat="46.7481" lon="6.4392"><ele>1148.4</ele><time>2023-10-12T17:19:07Z</time></trkpt>
<trkpt lat="46.74812" lon="6.43934"><ele>1149</ele><time>2023-10-12T17:19:12Z</time></trkpt>
<trkpt lat="46.74814" lon="6.43941"><ele>1149.6</ele><time>2023-10-12T17:19:15Z</time></trkpt>
<trkpt lat="46.74815" lon="6.43955"><ele>1150.4</ele><time>2023-10-12T17:19:21Z</time></trkpt>
<trkpt lat="46.74815" lon="6.43959"><ele>1150.6</ele><time>2023-10-12T17:19:23Z</time></trkpt>
<trkpt lat="46.74818" lon="6.43977"><ele>1151.8</ele><time>2023-10-12T17:19:31Z</time></trkpt>
<trkpt lat="46.74818" lon="6.4398"><ele>1151.8</ele><time>2023-10-12T17:19:32Z</time></trkpt>
<trkpt lat="46.74822" lon="6.43998"><ele>1152.8</ele><time>2023-10-12T17:19:38Z</time></trkpt>
<trkpt lat="46.74823" lon="6.44003"><ele>1153</ele><time>2023-10-12T17:19:40Z</time></trkpt>
<trkpt lat="46.74828" lon="6.44015"><ele>1154</ele><time>2023-10-12T17:19:45Z</time></trkpt>
<trkpt lat="46.7483" lon="6.44023"><ele>1154.2</ele><time>2023-10-12T17:19:48Z</time></trkpt>
<trkpt lat="46.74836" lon="6.44034"><ele>1155.2</ele><time>2023-10-12T17:19:53Z</time></trkpt>
<trkpt lat="46.7484" lon="6.44044"><ele>1155.6</ele><time>2023-10-12T17:19:57Z</time></trkpt>
<trkpt lat="46.74847" lon="6.44055"><ele>1156.2</ele><time>2023-10-12T17:20:02Z</time></trkpt>
<trkpt lat="46.7485" lon="6.44062"><ele>1156.8</ele><time>2023-10-12T17:20:05Z</time></trkpt>
<trkpt lat="46.74855" lon="6.4407"><ele>1157.4</ele><time>2023-10-12T17:20:09Z</time></trkpt>
<trkpt lat="46.74864" lon="6.44085"><ele>1158.4</ele><time>2023-10-12T17:20:16Z</time></trkpt>
<trkpt lat="46.74874" lon="6.44101"><ele>1159.4</ele><time>2023-10-12T17:20:24Z</time></trkpt>
<trkpt lat="46.74877" lon="6.44105"><ele>1159.8</ele><time>2023-10-12T17:20:26Z</time></trkpt>
<trkpt lat="46.74881" lon="6.44114"><ele>1160.4</ele><time>2023-10-12T17:20:30Z</time></trkpt>
<trkpt lat="46.74887" lon="6.44125"><ele>1161</ele><time>2023-10-12T17:20:35Z</time></trkpt>
<trkpt lat="46.74889" lon="6.44129"><ele>1161.4</ele><time>2023-10-12T17:20:37Z</time></trkpt>
<trkpt lat="46.74899" lon="6.44146"><ele>1162.4</ele><time>2023-10-12T17:20:45Z</time></trkpt>
<trkpt lat="46.749" lon="6.44148"><ele>1162.6</ele><time>2023-10-12T17:20:46Z</time></trkpt>
<trkpt lat="46.74909" lon="6.44164"><ele>1163.6</ele><time>2023-10-12T17:20:54Z</time></trkpt>
<trkpt lat="46.7491" lon="6.44167"><ele>1164</ele><time>2023-10-12T17:20:56Z</time></trkpt>
<trkpt lat="46.74915" lon="6.44183"><ele>1164.6</ele><time>2023-10-12T17:21:03Z</time></trkpt>
<trkpt lat="46.74915" lon="6.44185"><ele>1164.6</ele><time>2023-10-12T17:21:04Z</time></trkpt>
<trkpt lat="46.7492" lon="6.44199"><ele>1165.8</ele><time>2023-10-12T17:21:10Z</time></trkpt>
<trkpt lat="46.74923" lon="6.44207"><ele>1166.2</ele><time>2023-10-12T17:21:13Z</time></trkpt>
<trkpt lat="46.74928" lon="6.44217"><ele>1166.8</ele><time>2023-10-12T17:21:17Z</time></trkpt>
<trkpt lat="46.74933" lon="6.44229"><ele>1167.4</ele><time>2023-10-12T17:21:22Z</time></trkpt>
<trkpt lat="46.74935" lon="6.44235"><ele>1167.8</ele><time>2023-10-12T17:21:24Z</time></trkpt>
<trkpt lat="46.74941" lon="6.44253"><ele>1168.8</ele><time>2023-10-12T17:21:32Z</time></trkpt>
<trkpt lat="46.74942" lon="6.44255"><ele>1169</ele><time>2023-10-12T17:21:33Z</time></trkpt>
<trkpt lat="46.74945" lon="6.44268"><ele>1170</ele><time>2023-10-12T17:21:38Z</time></trkpt>
<trkpt lat="46.74947" lon="6.44277"><ele>1170.6</ele><time>2023-10-12T17:21:42Z</time></trkpt>
<trkpt lat="46.7495" lon="6.44284"><ele>1171</ele><time>2023-10-12T17:21:45Z</time></trkpt>
<trkpt lat="46.74954" lon="6.44296"><ele>1171.8</ele><time>2023-10-12T17:21:50Z</time></trkpt>
<trkpt lat="46.74956" lon="6.44303"><ele>1172</ele><time>2023-10-12T17:21:53Z</time></trkpt>
<trkpt lat="46.74961" lon="6.44318"><ele>1172.8</ele><time>2023-10-12T17:21:59Z</time></trkpt>
<trkpt lat="46.74963" lon="6.44322"><ele>1173</ele><time>2023-10-12T17:22:01Z</time></trkpt>
<trkpt lat="46.74967" lon="6.44335"><ele>1174.2</ele><time>2023-10-12T17:22:07Z</time></trkpt>
<trkpt lat="46.74969" lon="6.44342"><ele>1174.6</ele><time>2023-10-12T17:22:10Z</time></trkpt>
<trkpt lat="46.74973" lon="6.44354"><ele>1175.2</ele><time>2023-10-12T17:22:15Z</time></trkpt>
<trkpt lat="46.74975" lon="6.4436"><ele>1175.6</ele><time>2023-10-12T17:22:18Z</time></trkpt>
<trkpt lat="46.7498" lon="6.44372"><ele>1176.4</ele><time>2023-10-12T17:22:23Z</time></trkpt>
<trkpt lat="46.74987" lon="6.44384"><ele>1177.2</ele><time>2023-10-12T17:22:29Z</time></trkpt>
<trkpt lat="46.7499" lon="6.44388"><ele>1177.4</ele><time>2023-10-12T17:22:31Z</time></trkpt>
<trkpt lat="46.74999" lon="6.44397"><ele>1178.4</ele><time>2023-10-12T17:22:37Z</time></trkpt>
<trkpt lat="46.75" lon="6.44398"><ele>1178.6</ele><time>2023-10-12T17:22:38Z</time></trkpt>
<trkpt lat="46.75009" lon="6.44407"><ele>1179.6</ele><time>2023-10-12T17:22:44Z</time></trkpt>
<trkpt lat="46.75012" lon="6.44408"><ele>1179.8</ele><time>2023-10-12T17:22:46Z</time></trkpt>
<trkpt lat="46.7502" lon="6.44414"><ele>1180.6</ele><time>2023-10-12T17:22:51Z</time></trkpt>
<trkpt lat="46.75029" lon="6.44421"><ele>1181.6</ele><time>2023-10-12T17:22:57Z</time></trkpt>
<trkpt lat="46.75041" lon="6.44433"><ele>1182.6</ele><time>2023-10-12T17:23:05Z</time></trkpt>
<trkpt lat="46.75043" lon="6.44434"><ele>1182.8</ele><time>2023-10-12T17:23:06Z</time></trkpt>
<trkpt lat="46.75051" lon="6.44444"><ele>1183.6</ele><time>2023-10-12T17:23:12Z</time></trkpt>
<trkpt lat="46.75057" lon="6.4445"><ele>1184.2</ele><time>2023-10-12T17:23:16Z</time></trkpt>
<trkpt lat="46.75063" lon="6.44457"><ele>1184.8</ele><time>2023-10-12T17:23:20Z</time></trkpt>
<trkpt lat="46.75069" lon="6.44465"><ele>1185.4</ele><time>2023-10-12T17:23:25Z</time></trkpt>
<trkpt lat="46.75073" lon="6.4447"><ele>1185.8</ele><time>2023-10-12T17:23:28Z</time></trkpt>
<trkpt lat="46.7508" lon="6.44478"><ele>1186.6</ele><time>2023-10-12T17:23:33Z</time></trkpt>
<trkpt lat="46.75081" lon="6.4448"><ele>1186.8</ele><time>2023-10-12T17:23:34Z</time></trkpt>
<trkpt lat="46.75093" lon="6.4449"><ele>1187.8</ele><time>2023-10-12T17:23:42Z</time></trkpt>
<trkpt lat="46.75096" lon="6.44492"><ele>1188.2</ele><time>2023-10-12T17:23:44Z</time></trkpt>
<trkpt lat="46.75104" lon="6.44498"><ele>1188.8</ele><time>2023-10-12T17:23:49Z</time></trkpt>
<trkpt lat="46.75111" lon="6.44501"><ele>1189.4</ele><time>2023-10-12T17:23:53Z</time></trkpt>
<trkpt lat="46.75116" lon="6.44503"><ele>1190</ele><time>2023-10-12T17:23:56Z</time></trkpt>
<trkpt lat="46.75128" lon="6.44509"><ele>1190.8</ele><time>2023-10-12T17:24:03Z</time></trkpt>
<trkpt lat="46.7513" lon="6.4451"><ele>1191</ele><time>2023-10-12T17:24:04Z</time></trkpt>
<trkpt lat="46.75142" lon="6.44514"><ele>1192</ele><time>2023-10-12T17:24:11Z</time></trkpt>
<trkpt lat="46.75144" lon="6.44515"><ele>1192.2</ele><time>2023-10-12T17:24:12Z</time></trkpt>
<trkpt lat="46.75155" lon="6.4452"><ele>1193.2</ele><time>2023-10-12T17:24:19Z</time></trkpt>
<trkpt lat="46.75156" lon="6.44521"><ele>1193.4</ele><time>2023-10-12T17:24:20Z</time></trkpt>
<trkpt lat="46.75167" lon="6.44526"><ele>1194.2</ele><time>2023-10-12T17:24:26Z</time></trkpt>
<trkpt lat="46.75169" lon="6.44526"><ele>1194.4</ele><time>2023-10-12T17:24:27Z</time></trkpt>
<trkpt lat="46.7518" lon="6.44535"><ele>1195.2</ele><time>2023-10-12T17:24:34Z</time></trkpt>
<trkpt lat="46.75181" lon="6.44536"><ele>1195.6</ele><time>2023-10-12T17:24:35Z</time></trkpt>
<trkpt lat="46.75188" lon="6.44544"><ele>1196.4</ele><time>2023-10-12T17:24:40Z</time></trkpt>
<trkpt lat="46.75194" lon="6.44551"><ele>1197</ele><time>2023-10-12T17:24:44Z</time></trkpt>
<trkpt lat="46.75198" lon="6.44556"><ele>1197.4</ele><time>2023-10-12T17:24:47Z</time></trkpt>
<trkpt lat="46.75205" lon="6.44566"><ele>1198.4</ele><time>2023-10-12T17:24:53Z</time></trkpt>
<trkpt lat="46.75206" lon="6.44567"><ele>1198.4</ele><time>2023-10-12T17:24:54Z</time></trkpt>
<trkpt lat="46.75214" lon="6.4458"><ele>1199.6</ele><time>2023-10-12T17:25:01Z</time></trkpt>
<trkpt lat="46.75215" lon="6.44582"><ele>1199.8</ele><time>2023-10-12T17:25:02Z</time></trkpt>
<trkpt lat="46.75222" lon="6.44593"><ele>1200.8</ele><time>2023-10-12T17:25:08Z</time></trkpt>
<trkpt lat="46.75227" lon="6.44602"><ele>1201.6</ele><time>2023-10-12T17:25:13Z</time></trkpt>
<trkpt lat="46.75228" lon="6.44603"><ele>1201.8</ele><time>2023-10-12T17:25:14Z</time></trkpt>
<trkpt lat="46.75237" lon="6.44614"><ele>1203</ele><time>2023-10-12T17:25:21Z</time></trkpt>
<trkpt lat="46.75241" lon="6.44618"><ele>1203.4</ele><time>2023-10-12T17:25:24Z</time></trkpt>
<trkpt lat="46.75246" lon="6.44624"><ele>1204</ele><time>2023-10-12T17:25:28Z</time></trkpt>
<trkpt lat="46.75252" lon="6.44632"><ele>1205</ele><time>2023-10-12T17:25:33Z</time></trkpt>
<trkpt lat="46.75254" lon="6.44634"><ele>1205.2</ele><time>2023-10-12T17:25:34Z</time></trkpt>
<trkpt lat="46.75264" lon="6.44641"><ele>1206.4</ele><time>2023-10-12T17:25:42Z</time></trkpt>
<trkpt lat="46.75277" lon="6.44645"><ele>1207.6</ele><time>2023-10-12T17:25:50Z</time></trkpt>
<trkpt lat="46.75287" lon="6.44649"><ele>1208.6</ele><time>2023-10-12T17:25:57Z</time></trkpt>
<trkpt lat="46.75293" lon="6.44651"><ele>1208.6</ele><time>2023-10-12T17:26:00Z</time></trkpt>
<trkpt lat="46.75305" lon="6.44659"><ele>1209.4</ele><time>2023-10-12T17:26:08Z</time></trkpt>
<trkpt lat="46.75311" lon="6.44663"><ele>1209.6</ele><time>2023-10-12T17:26:11Z</time></trkpt>
<trkpt lat="46.75318" lon="6.44671"><ele>1210.2</ele><time>2023-10-12T17:26:15Z</time></trkpt>
<trkpt lat="46.75324" lon="6.44679"><ele>1210.8</ele><time>2023-10-12T17:26:19Z</time></trkpt>
<trkpt lat="46.75327" lon="6.44685"><ele>1211.2</ele><time>2023-10-12T17:26:22Z</time></trkpt>
<trkpt lat="46.75333" lon="6.44698"><ele>1211.8</ele><time>2023-10-12T17:26:28Z</time></trkpt>
<trkpt lat="46.75339" lon="6.44707"><ele>1212.2</ele><time>2023-10-12T17:26:32Z</time></trkpt>
<trkpt lat="46.75345" lon="6.44726"><ele>1212.4</ele><time>2023-10-12T17:26:38Z</time></trkpt>
<trkpt lat="46.75343" lon="6.44736"><ele>1212.8</ele><time>2023-10-12T17:26:42Z</time></trkpt>
<trkpt lat="46.75341" lon="6.4474"><ele>1213.4</ele><time>2023-10-12T17:26:44Z</time></trkpt>
<trkpt lat="46.75337" lon="6.44745"><ele>1214</ele><time>2023-10-12T17:26:47Z</time></trkpt>
<trkpt lat="46.75331" lon="6.4475"><ele>1215</ele><time>2023-10-12T17:26:51Z</time></trkpt>
<trkpt lat="46.75329" lon="6.44752"><ele>1215.2</ele><time>2023-10-12T17:26:52Z</time></trkpt>
<trkpt lat="46.75321" lon="6.4476"><ele>1216.2</ele><time>2023-10-12T17:26:58Z</time></trkpt>
<trkpt lat="46.75319" lon="6.44763"><ele>1216.6</ele><time>2023-10-12T17:27:00Z</time></trkpt>
<trkpt lat="46.75313" lon="6.4477"><ele>1217.2</ele><time>2023-10-12T17:27:04Z</time></trkpt>
<trkpt lat="46.75309" lon="6.44778"><ele>1218.2</ele><time>2023-10-12T17:27:08Z</time></trkpt>
<trkpt lat="46.75309" lon="6.44781"><ele>1218.2</ele><time>2023-10-12T17:27:09Z</time></trkpt>
<trkpt lat="46.75303" lon="6.44794"><ele>1219.4</ele><time>2023-10-12T17:27:16Z</time></trkpt>
<trkpt lat="46.75301" lon="6.44796"><ele>1219.6</ele><time>2023-10-12T17:27:17Z</time></trkpt>
<trkpt lat="46.75296" lon="6.4481"><ele>1220.4</ele><time>2023-10-12T17:27:23Z</time></trkpt>
<trkpt lat="46.75295" lon="6.44812"><ele>1220.6</ele><time>2023-10-12T17:27:24Z</time></trkpt>
<trkpt lat="46.7529" lon="6.44825"><ele>1221.4</ele><time>2023-10-12T17:27:30Z</time></trkpt>
<trkpt lat="46.75289" lon="6.44827"><ele>1221.6</ele><time>2023-10-12T17:27:31Z</time></trkpt>
<trkpt lat="46.75283" lon="6.44839"><ele>1222.6</ele><time>2023-10-12T17:27:37Z</time></trkpt>
<trkpt lat="46.75282" lon="6.44844"><ele>1222.8</ele><time>2023-10-12T17:27:39Z</time></trkpt>
<trkpt lat="46.75279" lon="6.44853"><ele>1223.8</ele><time>2023-10-12T17:27:43Z</time></trkpt>
<trkpt lat="46.75275" lon="6.44863"><ele>1224.4</ele><time>2023-10-12T17:27:48Z</time></trkpt>
<trkpt lat="46.75274" lon="6.44868"><ele>1224.8</ele><time>2023-10-12T17:27:50Z</time></trkpt>
<trkpt lat="46.75269" lon="6.44885"><ele>1225.8</ele><time>2023-10-12T17:27:57Z</time></trkpt>
<trkpt lat="46.75268" lon="6.44887"><ele>1226</ele><time>2023-10-12T17:27:58Z</time></trkpt>
<trkpt lat="46.75266" lon="6.44903"><ele>1227</ele><time>2023-10-12T17:28:05Z</time></trkpt>
<trkpt lat="46.75264" lon="6.44923"><ele>1228.2</ele><time>2023-10-12T17:28:13Z</time></trkpt>
<trkpt lat="46.75264" lon="6.44931"><ele>1228.6</ele><time>2023-10-12T17:28:16Z</time></trkpt>
<trkpt lat="46.75264" lon="6.44944"><ele>1229.4</ele><time>2023-10-12T17:28:21Z</time></trkpt>
<trkpt lat="46.75265" lon="6.44955"><ele>1229.8</ele><time>2023-10-12T17:28:25Z</time></trkpt>
<trkpt lat="46.75265" lon="6.44962"><ele>1230.4</ele><time>2023-10-12T17:28:28Z</time></trkpt>
<trkpt lat="46.75266" lon="6.44973"><ele>1230.8</ele><time>2023-10-12T17:28:32Z</time></trkpt>
<trkpt lat="46.75267" lon="6.44983"><ele>1231.4</ele><time>2023-10-12T17:28:36Z</time></trkpt>
<trkpt lat="46.75268" lon="6.44991"><ele>1231.8</ele><time>2023-10-12T17:28:39Z</time></trkpt>
<trkpt lat="46.7527" lon="6.45001"><ele>1232.4</ele><time>2023-10-12T17:28:43Z</time></trkpt>
<trkpt lat="46.75274" lon="6.45011"><ele>1233.2</ele><time>2023-10-12T17:28:48Z</time></trkpt>
<trkpt lat="46.75276" lon="6.45018"><ele>1233.6</ele><time>2023-10-12T17:28:51Z</time></trkpt>
<trkpt lat="46.7528" lon="6.45027"><ele>1234.2</ele><time>2023-10-12T17:28:55Z</time></trkpt>
<trkpt lat="46.75282" lon="6.45034"><ele>1234.6</ele><time>2023-10-12T17:28:58Z</time></trkpt>
<trkpt lat="46.75286" lon="6.45042"><ele>1235.2</ele><time>2023-10-12T17:29:02Z</time></trkpt>
<trkpt lat="46.75291" lon="6.45051"><ele>1235.6</ele><time>2023-10-12T17:29:06Z</time></trkpt>
<trkpt lat="46.75297" lon="6.45064"><ele>1236.6</ele><time>2023-10-12T17:29:12Z</time></trkpt>
<trkpt lat="46.75298" lon="6.45066"><ele>1236.8</ele><time>2023-10-12T17:29:13Z</time></trkpt>
<trkpt lat="46.75305" lon="6.45079"><ele>1237.8</ele><time>2023-10-12T17:29:20Z</time></trkpt>
<trkpt lat="46.75306" lon="6.4508"><ele>1238</ele><time>2023-10-12T17:29:21Z</time></trkpt>
<trkpt lat="46.75313" lon="6.45094"><ele>1239</ele><time>2023-10-12T17:29:28Z</time></trkpt>
<trkpt lat="46.75314" lon="6.45095"><ele>1239.2</ele><time>2023-10-12T17:29:29Z</time></trkpt>
<trkpt lat="46.7532" lon="6.45107"><ele>1240.2</ele><time>2023-10-12T17:29:35Z</time></trkpt>
<trkpt lat="46.75322" lon="6.45109"><ele>1240.4</ele><time>2023-10-12T17:29:36Z</time></trkpt>
<trkpt lat="46.7533" lon="6.45117"><ele>1241.2</ele><time>2023-10-12T17:29:42Z</time></trkpt>
<trkpt lat="46.75333" lon="6.45119"><ele>1241.4</ele><time>2023-10-12T17:29:44Z</time></trkpt>
<trkpt lat="46.75341" lon="6.45126"><ele>1242.4</ele><time>2023-10-12T17:29:49Z</time></trkpt>
<trkpt lat="46.75348" lon="6.45132"><ele>1243</ele><time>2023-10-12T17:29:54Z</time></trkpt>
<trkpt lat="46.75351" lon="6.45134"><ele>1243.4</ele><time>2023-10-12T17:29:56Z</time></trkpt>
<trkpt lat="46.75362" lon="6.4514"><ele>1244.4</ele><time>2023-10-12T17:30:03Z</time></trkpt>
<trkpt lat="46.75371" lon="6.45144"><ele>1245.4</ele><time>2023-10-12T17:30:10Z</time></trkpt>
<trkpt lat="46.75383" lon="6.45149"><ele>1246.6</ele><time>2023-10-12T17:30:17Z</time></trkpt>
<trkpt lat="46.75384" lon="6.45151"><ele>1246.8</ele><time>2023-10-12T17:30:18Z</time></trkpt>
<trkpt lat="46.75397" lon="6.45159"><ele>1247.6</ele><time>2023-10-12T17:30:25Z</time></trkpt>
<trkpt lat="46.75407" lon="6.45166"><ele>1248.6</ele><time>2023-10-12T17:30:32Z</time></trkpt>
<trkpt lat="46.75409" lon="6.45166"><ele>1249</ele><time>2023-10-12T17:30:33Z</time></trkpt>
<trkpt lat="46.75421" lon="6.45173"><ele>1250</ele><time>2023-10-12T17:30:40Z</time></trkpt>
<trkpt lat="46.75423" lon="6.45173"><ele>1250.2</ele><time>2023-10-12T17:30:41Z</time></trkpt>
<trkpt lat="46.75434" lon="6.45179"><ele>1251.2</ele><time>2023-10-12T17:30:48Z</time></trkpt>
<trkpt lat="46.75448" lon="6.45188"><ele>1252.4</ele><time>2023-10-12T17:30:56Z</time></trkpt>
<trkpt lat="46.75449" lon="6.45189"><ele>1252.4</ele><time>2023-10-12T17:30:57Z</time></trkpt>
<trkpt lat="46.75458" lon="6.45194"><ele>1253.4</ele><time>2023-10-12T17:31:03Z</time></trkpt>
<trkpt lat="46.75468" lon="6.452"><ele>1254.4</ele><time>2023-10-12T17:31:09Z</time></trkpt>
<trkpt lat="46.75469" lon="6.452"><ele>1254.6</ele><time>2023-10-12T17:31:10Z</time></trkpt>
<trkpt lat="46.7548" lon="6.45205"><ele>1255.6</ele><time>2023-10-12T17:31:17Z</time></trkpt>
<trkpt lat="46.75482" lon="6.45205"><ele>1255.8</ele><time>2023-10-12T17:31:18Z</time></trkpt>
<trkpt lat="46.7549" lon="6.45206"><ele>1256.6</ele><time>2023-10-12T17:31:23Z</time></trkpt>
<trkpt lat="46.75498" lon="6.45209"><ele>1257.2</ele><time>2023-10-12T17:31:27Z</time></trkpt>
<trkpt lat="46.75507" lon="6.4521"><ele>1257.8</ele><time>2023-10-12T17:31:32Z</time></trkpt>
<trkpt lat="46.75514" lon="6.45212"><ele>1258.4</ele><time>2023-10-12T17:31:36Z</time></trkpt>
<trkpt lat="46.7552" lon="6.45214"><ele>1258.8</ele><time>2023-10-12T17:31:39Z</time></trkpt>
<trkpt lat="46.7553" lon="6.45218"><ele>1259.6</ele><time>2023-10-12T17:31:45Z</time></trkpt>
<trkpt lat="46.75533" lon="6.45219"><ele>1260</ele><time>2023-10-12T17:31:47Z</time></trkpt>
<trkpt lat="46.75542" lon="6.45222"><ele>1260.8</ele><time>2023-10-12T17:31:53Z</time></trkpt>
<trkpt lat="46.75546" lon="6.45223"><ele>1261.2</ele><time>2023-10-12T17:31:55Z</time></trkpt>
<trkpt lat="46.75559" lon="6.45224"><ele>1262.2</ele><time>2023-10-12T17:32:02Z</time></trkpt>
<trkpt lat="46.75571" lon="6.45227"><ele>1263.2</ele><time>2023-10-12T17:32:09Z</time></trkpt>
<trkpt lat="46.75572" lon="6.45227"><ele>1263.2</ele><time>2023-10-12T17:32:10Z</time></trkpt>
<trkpt lat="46.75585" lon="6.45229"><ele>1264.4</ele><time>2023-10-12T17:32:18Z</time></trkpt>
<trkpt lat="46.75598" lon="6.4523"><ele>1265.6</ele><time>2023-10-12T17:32:25Z</time></trkpt>
<trkpt lat="46.75599" lon="6.4523"><ele>1265.6</ele><time>2023-10-12T17:32:26Z</time></trkpt>
<trkpt lat="46.75607" lon="6.45229"><ele>1266.6</ele><time>2023-10-12T17:32:31Z</time></trkpt>
<trkpt lat="46.75611" lon="6.45229"><ele>1267</ele><time>2023-10-12T17:32:33Z</time></trkpt>
<trkpt lat="46.75614" lon="6.4523"><ele>1267.4</ele><time>2023-10-12T17:32:35Z</time></trkpt>
<trkpt lat="46.75619" lon="6.45231"><ele>1267.6</ele><time>2023-10-12T17:32:37Z</time></trkpt>
<trkpt lat="46.75628" lon="6.45231"><ele>1268.4</ele><time>2023-10-12T17:32:42Z</time></trkpt>
<trkpt lat="46.75632" lon="6.45231"><ele>1268.6</ele><time>2023-10-12T17:32:44Z</time></trkpt>
<trkpt lat="46.75639" lon="6.45232"><ele>1269.4</ele><time>2023-10-12T17:32:48Z</time></trkpt>
<trkpt lat="46.75645" lon="6.45234"><ele>1269.8</ele><time>2023-10-12T17:32:51Z</time></trkpt>
<trkpt lat="46.75653" lon="6.45234"><ele>1270.6</ele><time>2023-10-12T17:32:56Z</time></trkpt>
<trkpt lat="46.75657" lon="6.45235"><ele>1271</ele><time>2023-10-12T17:32:59Z</time></trkpt>
<trkpt lat="46.75664" lon="6.45236"><ele>1271.6</ele><time>2023-10-12T17:33:03Z</time></trkpt>
<trkpt lat="46.7567" lon="6.45235"><ele>1272</ele><time>2023-10-12T17:33:07Z</time></trkpt>
<trkpt lat="46.75675" lon="6.45236"><ele>1272.6</ele><time>2023-10-12T17:33:10Z</time></trkpt>
<trkpt lat="46.75684" lon="6.45237"><ele>1273.2</ele><time>2023-10-12T17:33:15Z</time></trkpt>
<trkpt lat="46.7569" lon="6.45238"><ele>1273.6</ele><time>2023-10-12T17:33:18Z</time></trkpt>
<trkpt lat="46.75696" lon="6.45239"><ele>1274.2</ele><time>2023-10-12T17:33:22Z</time></trkpt>
<trkpt lat="46.75699" lon="6.45239"><ele>1274.6</ele><time>2023-10-12T17:33:24Z</time></trkpt>
<trkpt lat="46.75709" lon="6.45239"><ele>1275.4</ele><time>2023-10-12T17:33:31Z</time></trkpt>
<trkpt lat="46.75711" lon="6.4524"><ele>1275.4</ele><time>2023-10-12T17:33:32Z</time></trkpt>
<trkpt lat="46.75719" lon="6.4524"><ele>1276</ele><time>2023-10-12T17:33:38Z</time></trkpt>
<trkpt lat="46.75721" lon="6.4524"><ele>1276.2</ele><time>2023-10-12T17:33:39Z</time></trkpt>
<trkpt lat="46.75726" lon="6.45237"><ele>1276.4</ele><time>2023-10-12T17:33:43Z</time></trkpt>
<trkpt lat="46.75731" lon="6.45232"><ele>1276.8</ele><time>2023-10-12T17:33:47Z</time></trkpt>
<trkpt lat="46.75734" lon="6.45229"><ele>1277.4</ele><time>2023-10-12T17:33:51Z</time></trkpt>
<trkpt lat="46.75736" lon="6.45226"><ele>1277.6</ele><time>2023-10-12T17:33:53Z</time></trkpt>
<trkpt lat="46.75744" lon="6.45217"><ele>1278.4</ele><time>2023-10-12T17:34:00Z</time></trkpt>
<trkpt lat="46.75745" lon="6.45215"><ele>1278.6</ele><time>2023-10-12T17:34:01Z</time></trkpt>
<trkpt lat="46.75751" lon="6.45205"><ele>1279.4</ele><time>2023-10-12T17:34:07Z</time></trkpt>
<trkpt lat="46.75752" lon="6.45201"><ele>1279.6</ele><time>2023-10-12T17:34:09Z</time></trkpt>
<trkpt lat="46.75756" lon="6.45188"><ele>1280.6</ele><time>2023-10-12T17:34:15Z</time></trkpt>
<trkpt lat="46.75757" lon="6.45185"><ele>1280.8</ele><time>2023-10-12T17:34:16Z</time></trkpt>
<trkpt lat="46.75759" lon="6.45165"><ele>1281.8</ele><time>2023-10-12T17:34:24Z</time></trkpt>
<trkpt lat="46.75758" lon="6.45149"><ele>1282.4</ele><time>2023-10-12T17:34:31Z</time></trkpt>
<trkpt lat="46.75757" lon="6.45144"><ele>1282.8</ele><time>2023-10-12T17:34:33Z</time></trkpt>
<trkpt lat="46.75753" lon="6.45126"><ele>1283.8</ele><time>2023-10-12T17:34:41Z</time></trkpt>
<trkpt lat="46.75752" lon="6.45122"><ele>1284.2</ele><time>2023-10-12T17:34:43Z</time></trkpt>
<trkpt lat="46.75749" lon="6.45114"><ele>1284.8</ele><time>2023-10-12T17:34:47Z</time></trkpt>
<trkpt lat="46.75748" lon="6.45107"><ele>1285.2</ele><time>2023-10-12T17:34:50Z</time></trkpt>
<trkpt lat="46.75745" lon="6.45093"><ele>1286</ele><time>2023-10-12T17:34:56Z</time></trkpt>
<trkpt lat="46.75745" lon="6.4509"><ele>1286</ele><time>2023-10-12T17:34:57Z</time></trkpt>
<trkpt lat="46.75741" lon="6.45075"><ele>1287</ele><time>2023-10-12T17:35:04Z</time></trkpt>
<trkpt lat="46.75739" lon="6.45068"><ele>1287.4</ele><time>2023-10-12T17:35:07Z</time></trkpt>
<trkpt lat="46.75736" lon="6.4506"><ele>1288</ele><time>2023-10-12T17:35:11Z</time></trkpt>
<trkpt lat="46.75733" lon="6.45048"><ele>1288.6</ele><time>2023-10-12T17:35:16Z</time></trkpt>
<trkpt lat="46.75732" lon="6.45044"><ele>1289.2</ele><time>2023-10-12T17:35:18Z</time></trkpt>
<trkpt lat="46.75729" lon="6.45032"><ele>1290.2</ele><time>2023-10-12T17:35:24Z</time></trkpt>
<trkpt lat="46.75727" lon="6.45025"><ele>1290.6</ele><time>2023-10-12T17:35:27Z</time></trkpt>
<trkpt lat="46.75725" lon="6.45016"><ele>1291.2</ele><time>2023-10-12T17:35:31Z</time></trkpt>
<trkpt lat="46.75723" lon="6.45007"><ele>1291.8</ele><time>2023-10-12T17:35:35Z</time></trkpt>
<trkpt lat="46.75721" lon="6.44999"><ele>1292.4</ele><time>2023-10-12T17:35:39Z</time></trkpt>
<trkpt lat="46.75718" lon="6.44986"><ele>1293.2</ele><time>2023-10-12T17:35:45Z</time></trkpt>
<trkpt lat="46.75718" lon="6.44983"><ele>1293.4</ele><time>2023-10-12T17:35:46Z</time></trkpt>
<trkpt lat="46.75716" lon="6.44969"><ele>1294.6</ele><time>2023-10-12T17:35:53Z</time></trkpt>
<trkpt lat="46.75715" lon="6.4495"><ele>1295.6</ele><time>2023-10-12T17:36:01Z</time></trkpt>
<trkpt lat="46.75715" lon="6.44947"><ele>1295.8</ele><time>2023-10-12T17:36:02Z</time></trkpt>
<trkpt lat="46.75715" lon="6.44936"><ele>1296.8</ele><time>2023-10-12T17:36:07Z</time></trkpt>
<trkpt lat="46.75716" lon="6.44928"><ele>1297.2</ele><time>2023-10-12T17:36:10Z</time></trkpt>
<trkpt lat="46.75719" lon="6.44919"><ele>1297.8</ele><time>2023-10-12T17:36:14Z</time></trkpt>
<trkpt lat="46.7572" lon="6.44915"><ele>1298.2</ele><time>2023-10-12T17:36:16Z</time></trkpt>
<trkpt lat="46.75724" lon="6.44904"><ele>1298.8</ele><time>2023-10-12T17:36:21Z</time></trkpt>
<trkpt lat="46.75726" lon="6.44902"><ele>1299.2</ele><time>2023-10-12T17:36:23Z</time></trkpt>
<trkpt lat="46.75735" lon="6.44898"><ele>1299.8</ele><time>2023-10-12T17:36:28Z</time></trkpt>
<trkpt lat="46.75739" lon="6.44894"><ele>1300.4</ele><time>2023-10-12T17:36:31Z</time></trkpt>
<trkpt lat="46.75746" lon="6.4489"><ele>1301</ele><time>2023-10-12T17:36:35Z</time></trkpt>
<trkpt lat="46.75751" lon="6.44888"><ele>1301.2</ele><time>2023-10-12T17:36:38Z</time></trkpt>
<trkpt lat="46.75758" lon="6.44886"><ele>1302.2</ele><time>2023-10-12T17:36:42Z</time></trkpt>
<trkpt lat="46.75766" lon="6.44885"><ele>1303</ele><time>2023-10-12T17:36:47Z</time></trkpt>
<trkpt lat="46.75769" lon="6.44886"><ele>1303.4</ele><time>2023-10-12T17:36:49Z</time></trkpt>
<trkpt lat="46.75777" lon="6.44884"><ele>1304.2</ele><time>2023-10-12T17:36:54Z</time></trkpt>
<trkpt lat="46.7578" lon="6.44884"><ele>1304.4</ele><time>2023-10-12T17:36:56Z</time></trkpt>
<trkpt lat="46.75788" lon="6.44885"><ele>1305.2</ele><time>2023-10-12T17:37:00Z</time></trkpt>
<trkpt lat="46.75793" lon="6.44885"><ele>1305.6</ele><time>2023-10-12T17:37:03Z</time></trkpt>
<trkpt lat="46.758" lon="6.44884"><ele>1306.4</ele><time>2023-10-12T17:37:07Z</time></trkpt>
<trkpt lat="46.75805" lon="6.44883"><ele>1306.6</ele><time>2023-10-12T17:37:10Z</time></trkpt>
<trkpt lat="46.75816" lon="6.44881"><ele>1307.8</ele><time>2023-10-12T17:37:16Z</time></trkpt>
<trkpt lat="46.75818" lon="6.44881"><ele>1308</ele><time>2023-10-12T17:37:17Z</time></trkpt>
<trkpt lat="46.75827" lon="6.44881"><ele>1309</ele><time>2023-10-12T17:37:22Z</time></trkpt>
<trkpt lat="46.75832" lon="6.44879"><ele>1309.4</ele><time>2023-10-12T17:37:25Z</time></trkpt>
<trkpt lat="46.75843" lon="6.44876"><ele>1310</ele><time>2023-10-12T17:37:31Z</time></trkpt>
<trkpt lat="46.75847" lon="6.44873"><ele>1310.2</ele><time>2023-10-12T17:37:33Z</time></trkpt>
<trkpt lat="46.75861" lon="6.44865"><ele>1311.2</ele><time>2023-10-12T17:37:40Z</time></trkpt>
<trkpt lat="46.75863" lon="6.44863"><ele>1311.2</ele><time>2023-10-12T17:37:41Z</time></trkpt>
<trkpt lat="46.75877" lon="6.4484"><ele>1311.8</ele><time>2023-10-12T17:37:50Z</time></trkpt>
<trkpt lat="46.75883" lon="6.4483"><ele>1312.2</ele><time>2023-10-12T17:37:54Z</time></trkpt>
<trkpt lat="46.75888" lon="6.44814"><ele>1312.8</ele><time>2023-10-12T17:37:59Z</time></trkpt>
<trkpt lat="46.75897" lon="6.44791"><ele>1313.4</ele><time>2023-10-12T17:38:07Z</time></trkpt>
<trkpt lat="46.75899" lon="6.44784"><ele>1313.4</ele><time>2023-10-12T17:38:09Z</time></trkpt>
<trkpt lat="46.75908" lon="6.44759"><ele>1314</ele><time>2023-10-12T17:38:17Z</time></trkpt>
<trkpt lat="46.75913" lon="6.44744"><ele>1314.4</ele><time>2023-10-12T17:38:22Z</time></trkpt>
<trkpt lat="46.75915" lon="6.44736"><ele>1315</ele><time>2023-10-12T17:38:25Z</time></trkpt>
<trkpt lat="46.75917" lon="6.4473"><ele>1315.6</ele><time>2023-10-12T17:38:28Z</time></trkpt>
<trkpt lat="46.75923" lon="6.44718"><ele>1316.6</ele><time>2023-10-12T17:38:34Z</time></trkpt>
<trkpt lat="46.75932" lon="6.44707"><ele>1317.6</ele><time>2023-10-12T17:38:41Z</time></trkpt>
<trkpt lat="46.75941" lon="6.44703"><ele>1318.8</ele><time>2023-10-12T17:38:47Z</time></trkpt>
<trkpt lat="46.75944" lon="6.44703"><ele>1319</ele><time>2023-10-12T17:38:49Z</time></trkpt>
<trkpt lat="46.75955" lon="6.44702"><ele>1320</ele><time>2023-10-12T17:38:55Z</time></trkpt>
<trkpt lat="46.7596" lon="6.44702"><ele>1320.6</ele><time>2023-10-12T17:38:58Z</time></trkpt>
<trkpt lat="46.75964" lon="6.44703"><ele>1321</ele><time>2023-10-12T17:39:01Z</time></trkpt>
<trkpt lat="46.7597" lon="6.44705"><ele>1321.4</ele><time>2023-10-12T17:39:05Z</time></trkpt>
<trkpt lat="46.75975" lon="6.44705"><ele>1322</ele><time>2023-10-12T17:39:08Z</time></trkpt>
<trkpt lat="46.75984" lon="6.44705"><ele>1323.2</ele><time>2023-10-12T17:39:14Z</time></trkpt>
<trkpt lat="46.75995" lon="6.44704"><ele>1324.2</ele><time>2023-10-12T17:39:21Z</time></trkpt>
<trkpt lat="46.75996" lon="6.44704"><ele>1324.4</ele><time>2023-10-12T17:39:22Z</time></trkpt>
<trkpt lat="46.76006" lon="6.44704"><ele>1325.4</ele><time>2023-10-12T17:39:28Z</time></trkpt>
<trkpt lat="46.76011" lon="6.44704"><ele>1325.8</ele><time>2023-10-12T17:39:31Z</time></trkpt>
<trkpt lat="46.76017" lon="6.44702"><ele>1326.4</ele><time>2023-10-12T17:39:35Z</time></trkpt>
<trkpt lat="46.76023" lon="6.44699"><ele>1327.2</ele><time>2023-10-12T17:39:39Z</time></trkpt>
<trkpt lat="46.76027" lon="6.44695"><ele>1327.6</ele><time>2023-10-12T17:39:42Z</time></trkpt>
<trkpt lat="46.7603" lon="6.44687"><ele>1328.2</ele><time>2023-10-12T17:39:46Z</time></trkpt>
<trkpt lat="46.7603" lon="6.44682"><ele>1328.6</ele><time>2023-10-12T17:39:48Z</time></trkpt>
<trkpt lat="46.7603" lon="6.44679"><ele>1328.8</ele><time>2023-10-12T17:39:49Z</time></trkpt>
<trkpt lat="46.7603" lon="6.44677"><ele>1328.8</ele><time>2023-10-12T17:39:50Z</time></trkpt>
<trkpt lat="46.76029" lon="6.44671"><ele>1329.4</ele><time>2023-10-12T17:39:53Z</time></trkpt>
<trkpt lat="46.76028" lon="6.44668"><ele>1329.8</ele><time>2023-10-12T17:39:55Z</time></trkpt>
<trkpt lat="46.76026" lon="6.44655"><ele>1330.8</ele><time>2023-10-12T17:40:01Z</time></trkpt>
<trkpt lat="46.76026" lon="6.44653"><ele>1331</ele><time>2023-10-12T17:40:02Z</time></trkpt>
<trkpt lat="46.76025" lon="6.44635"><ele>1332</ele><time>2023-10-12T17:40:09Z</time></trkpt>
<trkpt lat="46.76024" lon="6.44633"><ele>1332.2</ele><time>2023-10-12T17:40:10Z</time></trkpt>
<trkpt lat="46.76022" lon="6.44623"><ele>1333.2</ele><time>2023-10-12T17:40:15Z</time></trkpt>
<trkpt lat="46.7602" lon="6.44621"><ele>1333.6</ele><time>2023-10-12T17:40:17Z</time></trkpt>
<trkpt lat="46.76013" lon="6.44619"><ele>1334.4</ele><time>2023-10-12T17:40:22Z</time></trkpt>
<trkpt lat="46.76008" lon="6.44617"><ele>1335</ele><time>2023-10-12T17:40:26Z</time></trkpt>
<trkpt lat="46.76004" lon="6.44612"><ele>1335.6</ele><time>2023-10-12T17:40:30Z</time></trkpt>
<trkpt lat="46.76001" lon="6.44611"><ele>1335.6</ele><time>2023-10-12T17:40:32Z</time></trkpt>
<trkpt lat="46.75991" lon="6.4461"><ele>1336.4</ele><time>2023-10-12T17:40:39Z</time></trkpt>
<trkpt lat="46.75989" lon="6.4461"><ele>1336.6</ele><time>2023-10-12T17:40:40Z</time></trkpt>
<trkpt lat="46.75978" lon="6.44615"><ele>1337.4</ele><time>2023-10-12T17:40:47Z</time></trkpt>
<trkpt lat="46.75977" lon="6.44616"><ele>1337.6</ele><time>2023-10-12T17:40:48Z</time></trkpt>
<trkpt lat="46.75967" lon="6.44622"><ele>1338.6</ele><time>2023-10-12T17:40:54Z</time></trkpt>
<trkpt lat="46.75964" lon="6.44624"><ele>1338.8</ele><time>2023-10-12T17:40:56Z</time></trkpt>
<trkpt lat="46.75956" lon="6.44628"><ele>1339.6</ele><time>2023-10-12T17:41:01Z</time></trkpt>
<trkpt lat="46.75953" lon="6.44629"><ele>1340</ele><time>2023-10-12T17:41:03Z</time></trkpt>
<trkpt lat="46.75948" lon="6.44632"><ele>1340.6</ele><time>2023-10-12T17:41:07Z</time></trkpt>
<trkpt lat="46.75944" lon="6.44632"><ele>1341</ele><time>2023-10-12T17:41:10Z</time></trkpt>
<trkpt lat="46.75936" lon="6.44633"><ele>1341.6</ele><time>2023-10-12T17:41:14Z</time></trkpt>
<trkpt lat="46.75931" lon="6.44632"><ele>1342.4</ele><time>2023-10-12T17:41:17Z</time></trkpt>
<trkpt lat="46.75921" lon="6.44629"><ele>1343</ele><time>2023-10-12T17:41:22Z</time></trkpt>
<trkpt lat="46.75917" lon="6.44625"><ele>1343.6</ele><time>2023-10-12T17:41:25Z</time></trkpt>
<trkpt lat="46.7591" lon="6.44616"><ele>1344.4</ele><time>2023-10-12T17:41:30Z</time></trkpt>
<trkpt lat="46.75909" lon="6.44614"><ele>1344.6</ele><time>2023-10-12T17:41:31Z</time></trkpt>
<trkpt lat="46.75903" lon="6.44601"><ele>1345.6</ele><time>2023-10-12T17:41:37Z</time></trkpt>
<trkpt lat="46.75902" lon="6.44599"><ele>1345.8</ele><time>2023-10-12T17:41:38Z</time></trkpt>
<trkpt lat="46.75894" lon="6.44587"><ele>1346.6</ele><time>2023-10-12T17:41:45Z</time></trkpt>
<trkpt lat="46.75892" lon="6.44585"><ele>1346.8</ele><time>2023-10-12T17:41:46Z</time></trkpt>
<trkpt lat="46.75887" lon="6.44576"><ele>1347.6</ele><time>2023-10-12T17:41:51Z</time></trkpt>
<trkpt lat="46.75885" lon="6.44573"><ele>1347.8</ele><time>2023-10-12T17:41:53Z</time></trkpt>
<trkpt lat="46.75884" lon="6.44571"><ele>1347.8</ele><time>2023-10-12T17:41:54Z</time></trkpt>
<trkpt lat="46.75877" lon="6.44563"><ele>1348.8</ele><time>2023-10-12T17:41:59Z</time></trkpt>
<trkpt lat="46.75873" lon="6.44557"><ele>1349.6</ele><time>2023-10-12T17:42:03Z</time></trkpt>
<trkpt lat="46.7587" lon="6.44552"><ele>1350</ele><time>2023-10-12T17:42:06Z</time></trkpt>
<trkpt lat="46.75865" lon="6.44546"><ele>1350.8</ele><time>2023-10-12T17:42:10Z</time></trkpt>
<trkpt lat="46.75862" lon="6.44539"><ele>1351.2</ele><time>2023-10-12T17:42:13Z</time></trkpt>
<trkpt lat="46.75856" lon="6.44528"><ele>1352</ele><time>2023-10-12T17:42:19Z</time></trkpt>
<trkpt lat="46.75854" lon="6.44525"><ele>1352.4</ele><time>2023-10-12T17:42:21Z</time></trkpt>
<trkpt lat="46.75849" lon="6.44514"><ele>1353.2</ele><time>2023-10-12T17:42:26Z</time></trkpt>
<trkpt lat="46.75848" lon="6.4451"><ele>1353.4</ele><time>2023-10-12T17:42:28Z</time></trkpt>
<trkpt lat="46.75841" lon="6.44498"><ele>1354.2</ele><time>2023-10-12T17:42:34Z</time></trkpt>
<trkpt lat="46.7584" lon="6.44494"><ele>1354.6</ele><time>2023-10-12T17:42:36Z</time></trkpt>
<trkpt lat="46.7584" lon="6.4448"><ele>1355.4</ele><time>2023-10-12T17:42:41Z</time></trkpt>
<trkpt lat="46.75841" lon="6.44472"><ele>1355.6</ele><time>2023-10-12T17:42:44Z</time></trkpt>
<trkpt lat="46.75844" lon="6.44464"><ele>1356.2</ele><time>2023-10-12T17:42:48Z</time></trkpt>
<trkpt lat="46.75849" lon="6.44455"><ele>1356.8</ele><time>2023-10-12T17:42:53Z</time></trkpt>
<trkpt lat="46.75855" lon="6.4444"><ele>1357.8</ele><time>2023-10-12T17:43:00Z</time></trkpt>
<trkpt lat="46.75857" lon="6.44438"><ele>1358</ele><time>2023-10-12T17:43:01Z</time></trkpt>
<trkpt lat="46.75862" lon="6.44427"><ele>1359</ele><time>2023-10-12T17:43:07Z</time></trkpt>
<trkpt lat="46.75863" lon="6.44425"><ele>1359.2</ele><time>2023-10-12T17:43:08Z</time></trkpt>
<trkpt lat="46.75871" lon="6.44413"><ele>1360.4</ele><time>2023-10-12T17:43:15Z</time></trkpt>
<trkpt lat="46.75872" lon="6.44412"><ele>1360.4</ele><time>2023-10-12T17:43:16Z</time></trkpt>
<trkpt lat="46.75879" lon="6.44399"><ele>1361.4</ele><time>2023-10-12T17:43:23Z</time></trkpt>
<trkpt lat="46.7588" lon="6.44397"><ele>1361.6</ele><time>2023-10-12T17:43:24Z</time></trkpt>
<trkpt lat="46.75886" lon="6.44378"><ele>1362.6</ele><time>2023-10-12T17:43:32Z</time></trkpt>
<trkpt lat="46.75886" lon="6.44375"><ele>1362.8</ele><time>2023-10-12T17:43:33Z</time></trkpt>
<trkpt lat="46.75887" lon="6.44362"><ele>1363.6</ele><time>2023-10-12T17:43:38Z</time></trkpt>
<trkpt lat="46.75886" lon="6.44354"><ele>1364</ele><time>2023-10-12T17:43:41Z</time></trkpt>
<trkpt lat="46.7588" lon="6.44334"><ele>1364.8</ele><time>2023-10-12T17:43:48Z</time></trkpt>
<trkpt lat="46.75879" lon="6.44332"><ele>1364.8</ele><time>2023-10-12T17:43:49Z</time></trkpt>
<trkpt lat="46.75868" lon="6.4432"><ele>1365.8</ele><time>2023-10-12T17:43:57Z</time></trkpt>
<trkpt lat="46.75855" lon="6.4432"><ele>1366.8</ele><time>2023-10-12T17:44:04Z</time></trkpt>
<trkpt lat="46.75841" lon="6.44326"><ele>1367.8</ele><time>2023-10-12T17:44:11Z</time></trkpt>
<trkpt lat="46.75832" lon="6.44329"><ele>1368.2</ele><time>2023-10-12T17:44:15Z</time></trkpt>
<trkpt lat="46.75824" lon="6.44331"><ele>1368.8</ele><time>2023-10-12T17:44:19Z</time></trkpt>
<trkpt lat="46.75815" lon="6.44333"><ele>1369.4</ele><time>2023-10-12T17:44:24Z</time></trkpt>
<trkpt lat="46.75812" lon="6.44334"><ele>1369.8</ele><time>2023-10-12T17:44:26Z</time></trkpt>
<trkpt lat="46.75796" lon="6.44336"><ele>1370.8</ele><time>2023-10-12T17:44:34Z</time></trkpt>
<trkpt lat="46.75795" lon="6.44335"><ele>1371</ele><time>2023-10-12T17:44:35Z</time></trkpt>
<trkpt lat="46.75785" lon="6.44328"><ele>1372</ele><time>2023-10-12T17:44:41Z</time></trkpt>
<trkpt lat="46.75784" lon="6.44326"><ele>1372</ele><time>2023-10-12T17:44:42Z</time></trkpt>
<trkpt lat="46.75779" lon="6.44309"><ele>1373</ele><time>2023-10-12T17:44:49Z</time></trkpt>
<trkpt lat="46.75779" lon="6.44307"><ele>1373.6</ele><time>2023-10-12T17:44:50Z</time></trkpt>
<trkpt lat="46.75778" lon="6.44297"><ele>1374.2</ele><time>2023-10-12T17:44:54Z</time></trkpt>
<trkpt lat="46.75778" lon="6.44289"><ele>1375</ele><time>2023-10-12T17:44:57Z</time></trkpt>
<trkpt lat="46.75777" lon="6.44277"><ele>1375.4</ele><time>2023-10-12T17:45:02Z</time></trkpt>
<trkpt lat="46.75777" lon="6.4427"><ele>1376</ele><time>2023-10-12T17:45:05Z</time></trkpt>
<trkpt lat="46.75776" lon="6.44263"><ele>1376.6</ele><time>2023-10-12T17:45:08Z</time></trkpt>
<trkpt lat="46.75776" lon="6.44252"><ele>1377.2</ele><time>2023-10-12T17:45:12Z</time></trkpt>
<trkpt lat="46.75776" lon="6.44244"><ele>1377.8</ele><time>2023-10-12T17:45:15Z</time></trkpt>
<trkpt lat="46.75776" lon="6.44238"><ele>1379</ele><time>2023-10-12T17:45:18Z</time></trkpt>
<trkpt lat="46.75776" lon="6.44236"><ele>1379</ele><time>2023-10-12T17:45:19Z</time></trkpt>
<trkpt lat="46.75775" lon="6.44226"><ele>1379.2</ele><time>2023-10-12T17:45:23Z</time></trkpt>
<trkpt lat="46.75773" lon="6.44217"><ele>1379.4</ele><time>2023-10-12T17:45:27Z</time></trkpt>
<trkpt lat="46.7577" lon="6.4421"><ele>1380</ele><time>2023-10-12T17:45:30Z</time></trkpt>
<trkpt lat="46.75766" lon="6.44202"><ele>1380.4</ele><time>2023-10-12T17:45:33Z</time></trkpt>
<trkpt lat="46.7576" lon="6.44195"><ele>1381</ele><time>2023-10-12T17:45:37Z</time></trkpt>
<trkpt lat="46.75756" lon="6.44194"><ele>1381.2</ele><time>2023-10-12T17:45:39Z</time></trkpt>
<trkpt lat="46.75748" lon="6.44188"><ele>1381.6</ele><time>2023-10-12T17:45:45Z</time></trkpt>
<trkpt lat="46.75741" lon="6.44183"><ele>1382</ele><time>2023-10-12T17:45:51Z</time></trkpt>
<trkpt lat="46.75737" lon="6.4418"><ele>1382.2</ele><time>2023-10-12T17:45:55Z</time></trkpt>
<trkpt lat="46.75729" lon="6.44173"><ele>1382.4</ele><time>2023-10-12T17:46:01Z</time></trkpt>
<trkpt lat="46.75728" lon="6.44171"><ele>1382.6</ele><time>2023-10-12T17:46:02Z</time></trkpt>
<trkpt lat="46.7572" lon="6.44158"><ele>1382.8</ele><time>2023-10-12T17:46:09Z</time></trkpt>
<trkpt lat="46.75715" lon="6.44145"><ele>1383.2</ele><time>2023-10-12T17:46:14Z</time></trkpt>
<trkpt lat="46.75715" lon="6.44142"><ele>1383.4</ele><time>2023-10-12T17:46:15Z</time></trkpt>
<trkpt lat="46.75709" lon="6.44122"><ele>1384.2</ele><time>2023-10-12T17:46:22Z</time></trkpt>
<trkpt lat="46.75708" lon="6.44118"><ele>1384.4</ele><time>2023-10-12T17:46:23Z</time></trkpt>
<trkpt lat="46.75702" lon="6.44097"><ele>1385</ele><time>2023-10-12T17:46:30Z</time></trkpt>
<trkpt lat="46.75699" lon="6.44087"><ele>1385.4</ele><time>2023-10-12T17:46:33Z</time></trkpt>
<trkpt lat="46.75696" lon="6.44073"><ele>1385.8</ele><time>2023-10-12T17:46:37Z</time></trkpt>
<trkpt lat="46.75693" lon="6.44056"><ele>1385.8</ele><time>2023-10-12T17:46:44Z</time></trkpt>
<trkpt lat="46.75692" lon="6.44043"><ele>1386.2</ele><time>2023-10-12T17:46:51Z</time></trkpt>
<trkpt lat="46.75693" lon="6.4404"><ele>1386.2</ele><time>2023-10-12T17:46:55Z</time></trkpt>
<trkpt lat="46.75695" lon="6.44035"><ele>1386.6</ele><time>2023-10-12T17:47:00Z</time></trkpt>
<trkpt lat="46.75695" lon="6.44036"><ele>1386.8</ele><time>2023-10-12T17:47:03Z</time></trkpt>
<trkpt lat="46.75695" lon="6.44035"><ele>1386.6</ele><time>2023-10-12T17:47:08Z</time></trkpt>
<trkpt lat="46.75695" lon="6.44035"><ele>1386.6</ele><time>2023-10-12T17:47:11Z</time></trkpt>
<trkpt lat="46.75694" lon="6.44035"><ele>1386.6</ele><time>2023-10-12T17:47:14Z</time></trkpt>
<trkpt lat="46.75697" lon="6.44038"><ele>1386.6</ele><time>2023-10-12T17:47:20Z</time></trkpt>
<trkpt lat="46.75695" lon="6.44039"><ele>1386.8</ele><time>2023-10-12T17:47:28Z</time></trkpt>
<trkpt lat="46.75695" lon="6.44039"><ele>1387</ele><time>2023-10-12T17:47:29Z</time></trkpt>
<trkpt lat="46.75695" lon="6.44042"><ele>1387</ele><time>2023-10-12T17:47:35Z</time></trkpt>
<trkpt lat="46.75695" lon="6.44042"><ele>1387</ele><time>2023-10-12T17:47:37Z</time></trkpt>
<trkpt lat="46.75695" lon="6.44042"><ele>1386.8</ele><time>2023-10-12T17:47:44Z</time></trkpt>
<trkpt lat="46.75696" lon="6.44044"><ele>1386.8</ele><time>2023-10-12T17:47:54Z</time></trkpt>
<trkpt lat="46.75696" lon="6.44043"><ele>1386.8</ele><time>2023-10-12T17:48:01Z</time></trkpt>
<trkpt lat="46.75696" lon="6.44043"><ele>1386.6</ele><time>2023-10-12T17:48:08Z</time></trkpt>
<trkpt lat="46.75697" lon="6.44044"><ele>1386.6</ele><time>2023-10-12T17:48:15Z</time></trkpt>
<trkpt lat="46.75696" lon="6.44043"><ele>1386.6</ele><time>2023-10-12T17:48:16Z</time></trkpt>
<trkpt lat="46.75698" lon="6.44042"><ele>1386.6</ele><time>2023-10-12T17:48:23Z</time></trkpt>
<trkpt lat="46.75698" lon="6.44041"><ele>1386.6</ele><time>2023-10-12T17:48:33Z</time></trkpt>
<trkpt lat="46.75697" lon="6.44042"><ele>1386.8</ele><time>2023-10-12T17:48:39Z</time></trkpt>
<trkpt lat="46.75697" lon="6.44042"><ele>1386.8</ele><time>2023-10-12T17:48:41Z</time></trkpt>
<trkpt lat="46.75697" lon="6.44042"><ele>1386.8</ele><time>2023-10-12T17:48:44Z</time></trkpt>
<trkpt lat="46.75696" lon="6.44039"><ele>1386.8</ele><time>2023-10-12T17:48:49Z</time></trkpt>
<trkpt lat="46.75694" lon="6.44036"><ele>1386.8</ele><time>2023-10-12T17:48:53Z</time></trkpt>
<trkpt lat="46.75695" lon="6.44037"><ele>1386.4</ele><time>2023-10-12T17:48:56Z</time></trkpt>
<trkpt lat="46.75695" lon="6.44037"><ele>1386.4</ele><time>2023-10-12T17:49:01Z</time></trkpt>
<trkpt lat="46.75695" lon="6.44038"><ele>1386.4</ele><time>2023-10-12T17:49:03Z</time></trkpt>
<trkpt lat="46.75694" lon="6.44036"><ele>1386.4</ele><time>2023-10-12T17:49:10Z</time></trkpt>
<trkpt lat="46.75691" lon="6.44037"><ele>1386.4</ele><time>2023-10-12T17:49:17Z</time></trkpt>
<trkpt lat="46.7569" lon="6.44035"><ele>1386.4</ele><time>2023-10-12T17:49:23Z</time></trkpt>
<trkpt lat="46.7569" lon="6.44033"><ele>1386.4</ele><time>2023-10-12T17:49:29Z</time></trkpt>
<trkpt lat="46.7569" lon="6.44033"><ele>1386.4</ele><time>2023-10-12T17:49:30Z</time></trkpt>
<trkpt lat="46.7569" lon="6.44033"><ele>1386.4</ele><time>2023-10-12T17:49:37Z</time></trkpt>
<trkpt lat="46.75691" lon="6.44034"><ele>1386.4</ele><time>2023-10-12T17:49:40Z</time></trkpt>
<trkpt lat="46.75694" lon="6.44036"><ele>1386.4</ele><time>2023-10-12T17:49:45Z</time></trkpt>
<trkpt lat="46.75693" lon="6.44036"><ele>1386.4</ele><time>2023-10-12T17:49:51Z</time></trkpt>
<trkpt lat="46.75693" lon="6.44036"><ele>1386.4</ele><time>2023-10-12T17:49:53Z</time></trkpt>
<trkpt lat="46.75694" lon="6.44036"><ele>1386.4</ele><time>2023-10-12T17:50:00Z</time></trkpt>
<trkpt lat="46.75694" lon="6.44037"><ele>1386.4</ele><time>2023-10-12T17:50:03Z</time></trkpt>
<trkpt lat="46.75694" lon="6.44037"><ele>1386.4</ele><time>2023-10-12T17:50:08Z</time></trkpt>
<trkpt lat="46.75694" lon="6.44038"><ele>1386.4</ele><time>2023-10-12T17:50:14Z</time></trkpt>
<trkpt lat="46.75694" lon="6.44037"><ele>1386.4</ele><time>2023-10-12T17:50:16Z</time></trkpt>
<trkpt lat="46.75695" lon="6.44036"><ele>1386.4</ele><time>2023-10-12T17:50:17Z</time></trkpt>
<trkpt lat="46.75696" lon="6.44036"><ele>1386.2</ele><time>2023-10-12T17:50:19Z</time></trkpt>
<trkpt lat="46.75694" lon="6.44037"><ele>1386.4</ele><time>2023-10-12T17:50:23Z</time></trkpt>
<trkpt lat="46.75692" lon="6.44036"><ele>1386.4</ele><time>2023-10-12T17:50:26Z</time></trkpt>
<trkpt lat="46.75691" lon="6.44034"><ele>1386.2</ele><time>2023-10-12T17:50:29Z</time></trkpt>
<trkpt lat="46.75691" lon="6.44032"><ele>1386.2</ele><time>2023-10-12T17:50:30Z</time></trkpt>
<trkpt lat="46.75691" lon="6.44027"><ele>1386.4</ele><time>2023-10-12T17:50:33Z</time></trkpt>
<trkpt lat="46.75691" lon="6.44024"><ele>1386.4</ele><time>2023-10-12T17:50:34Z</time></trkpt>
<trkpt lat="46.75691" lon="6.44022"><ele>1386.4</ele><time>2023-10-12T17:50:35Z</time></trkpt>
<trkpt lat="46.75693" lon="6.44002"><ele>1386.4</ele><time>2023-10-12T17:50:42Z</time></trkpt>
<trkpt lat="46.757" lon="6.43981"><ele>1386.2</ele><time>2023-10-12T17:50:49Z</time></trkpt>
<trkpt lat="46.75709" lon="6.43961"><ele>1386.2</ele><time>2023-10-12T17:50:55Z</time></trkpt>
<trkpt lat="46.75713" lon="6.4395"><ele>1386.4</ele><time>2023-10-12T17:50:58Z</time></trkpt>
<trkpt lat="46.75718" lon="6.43931"><ele>1386.8</ele><time>2023-10-12T17:51:03Z</time></trkpt>
<trkpt lat="46.75715" lon="6.43906"><ele>1387.4</ele><time>2023-10-12T17:51:09Z</time></trkpt>
<trkpt lat="46.75713" lon="6.43892"><ele>1387.6</ele><time>2023-10-12T17:51:12Z</time></trkpt>
<trkpt lat="46.75711" lon="6.43869"><ele>1387.8</ele><time>2023-10-12T17:51:16Z</time></trkpt>
<trkpt lat="46.75714" lon="6.43823"><ele>1387.8</ele><time>2023-10-12T17:51:23Z</time></trkpt>
<trkpt lat="46.7572" lon="6.43805"><ele>1387.8</ele><time>2023-10-12T17:51:26Z</time></trkpt>
<trkpt lat="46.75727" lon="6.43795"><ele>1387.8</ele><time>2023-10-12T17:51:28Z</time></trkpt>
<trkpt lat="46.7573" lon="6.43791"><ele>1388</ele><time>2023-10-12T17:51:29Z</time></trkpt>
<trkpt lat="46.75744" lon="6.43777"><ele>1388.8</ele><time>2023-10-12T17:51:33Z</time></trkpt>
<trkpt lat="46.75747" lon="6.43774"><ele>1389</ele><time>2023-10-12T17:51:34Z</time></trkpt>
<trkpt lat="46.75754" lon="6.43749"><ele>1389.8</ele><time>2023-10-12T17:51:39Z</time></trkpt>
<trkpt lat="46.75755" lon="6.43745"><ele>1390.4</ele><time>2023-10-12T17:51:40Z</time></trkpt>
<trkpt lat="46.75758" lon="6.43733"><ele>1391.2</ele><time>2023-10-12T17:51:43Z</time></trkpt>
<trkpt lat="46.75758" lon="6.43729"><ele>1391.4</ele><time>2023-10-12T17:51:44Z</time></trkpt>
<trkpt lat="46.75758" lon="6.43724"><ele>1392</ele><time>2023-10-12T17:51:45Z</time></trkpt>
<trkpt lat="46.75763" lon="6.43693"><ele>1392.2</ele><time>2023-10-12T17:51:51Z</time></trkpt>
<trkpt lat="46.7577" lon="6.4367"><ele>1391.8</ele><time>2023-10-12T17:51:55Z</time></trkpt>
<trkpt lat="46.7577" lon="6.43657"><ele>1391.6</ele><time>2023-10-12T17:51:57Z</time></trkpt>
<trkpt lat="46.75764" lon="6.43646"><ele>1391.2</ele><time>2023-10-12T17:51:59Z</time></trkpt>
<trkpt lat="46.75759" lon="6.43642"><ele>1391</ele><time>2023-10-12T17:52:00Z</time></trkpt>
<trkpt lat="46.75744" lon="6.43629"><ele>1390</ele><time>2023-10-12T17:52:03Z</time></trkpt>
<trkpt lat="46.75734" lon="6.43617"><ele>1389</ele><time>2023-10-12T17:52:05Z</time></trkpt>
<trkpt lat="46.75728" lon="6.4361"><ele>1388.6</ele><time>2023-10-12T17:52:06Z</time></trkpt>
<trkpt lat="46.75717" lon="6.43596"><ele>1386.8</ele><time>2023-10-12T17:52:08Z</time></trkpt>
<trkpt lat="46.75711" lon="6.43589"><ele>1385.6</ele><time>2023-10-12T17:52:09Z</time></trkpt>
<trkpt lat="46.75703" lon="6.43586"><ele>1384.4</ele><time>2023-10-12T17:52:10Z</time></trkpt>
<trkpt lat="46.75694" lon="6.43585"><ele>1383.6</ele><time>2023-10-12T17:52:11Z</time></trkpt>
<trkpt lat="46.75686" lon="6.43585"><ele>1382.4</ele><time>2023-10-12T17:52:12Z</time></trkpt>
<trkpt lat="46.75679" lon="6.43585"><ele>1382</ele><time>2023-10-12T17:52:13Z</time></trkpt>
<trkpt lat="46.75672" lon="6.43584"><ele>1381</ele><time>2023-10-12T17:52:14Z</time></trkpt>
<trkpt lat="46.75665" lon="6.43581"><ele>1379.8</ele><time>2023-10-12T17:52:15Z</time></trkpt>
<trkpt lat="46.75658" lon="6.43576"><ele>1379.4</ele><time>2023-10-12T17:52:16Z</time></trkpt>
<trkpt lat="46.75651" lon="6.43571"><ele>1378.6</ele><time>2023-10-12T17:52:17Z</time></trkpt>
<trkpt lat="46.75645" lon="6.43564"><ele>1378</ele><time>2023-10-12T17:52:18Z</time></trkpt>
<trkpt lat="46.75639" lon="6.43555"><ele>1376.6</ele><time>2023-10-12T17:52:19Z</time></trkpt>
<trkpt lat="46.75635" lon="6.43546"><ele>1375.8</ele><time>2023-10-12T17:52:20Z</time></trkpt>
<trkpt lat="46.7563" lon="6.43537"><ele>1375.4</ele><time>2023-10-12T17:52:21Z</time></trkpt>
<trkpt lat="46.75627" lon="6.43525"><ele>1374.6</ele><time>2023-10-12T17:52:22Z</time></trkpt>
<trkpt lat="46.75624" lon="6.43514"><ele>1372.8</ele><time>2023-10-12T17:52:23Z</time></trkpt>
<trkpt lat="46.75618" lon="6.43489"><ele>1371</ele><time>2023-10-12T17:52:25Z</time></trkpt>
<trkpt lat="46.75615" lon="6.43477"><ele>1369.4</ele><time>2023-10-12T17:52:26Z</time></trkpt>
<trkpt lat="46.75608" lon="6.43451"><ele>1366.4</ele><time>2023-10-12T17:52:28Z</time></trkpt>
<trkpt lat="46.75605" lon="6.43437"><ele>1365.2</ele><time>2023-10-12T17:52:29Z</time></trkpt>
<trkpt lat="46.75602" lon="6.43423"><ele>1364.8</ele><time>2023-10-12T17:52:30Z</time></trkpt>
<trkpt lat="46.75598" lon="6.43411"><ele>1363.4</ele><time>2023-10-12T17:52:31Z</time></trkpt>
<trkpt lat="46.75592" lon="6.43386"><ele>1361.4</ele><time>2023-10-12T17:52:33Z</time></trkpt>
<trkpt lat="46.75589" lon="6.43362"><ele>1359.8</ele><time>2023-10-12T17:52:35Z</time></trkpt>
<trkpt lat="46.75588" lon="6.43339"><ele>1358.4</ele><time>2023-10-12T17:52:37Z</time></trkpt>
<trkpt lat="46.75587" lon="6.43327"><ele>1357</ele><time>2023-10-12T17:52:38Z</time></trkpt>
<trkpt lat="46.75585" lon="6.43305"><ele>1355.8</ele><time>2023-10-12T17:52:40Z</time></trkpt>
<trkpt lat="46.75582" lon="6.43293"><ele>1355.4</ele><time>2023-10-12T17:52:41Z</time></trkpt>
<trkpt lat="46.75577" lon="6.43283"><ele>1354.6</ele><time>2023-10-12T17:52:42Z</time></trkpt>
<trkpt lat="46.75571" lon="6.43274"><ele>1353.4</ele><time>2023-10-12T17:52:43Z</time></trkpt>
<trkpt lat="46.75565" lon="6.43265"><ele>1352.4</ele><time>2023-10-12T17:52:44Z</time></trkpt>
<trkpt lat="46.75558" lon="6.43256"><ele>1350.4</ele><time>2023-10-12T17:52:45Z</time></trkpt>
<trkpt lat="46.75544" lon="6.43239"><ele>1349</ele><time>2023-10-12T17:52:47Z</time></trkpt>
<trkpt lat="46.75535" lon="6.43225"><ele>1347.2</ele><time>2023-10-12T17:52:49Z</time></trkpt>
<trkpt lat="46.75529" lon="6.4322"><ele>1346.8</ele><time>2023-10-12T17:52:50Z</time></trkpt>
<trkpt lat="46.75516" lon="6.43219"><ele>1346.2</ele><time>2023-10-12T17:52:52Z</time></trkpt>
<trkpt lat="46.75509" lon="6.43218"><ele>1344.8</ele><time>2023-10-12T17:52:53Z</time></trkpt>
<trkpt lat="46.75496" lon="6.43215"><ele>1343.8</ele><time>2023-10-12T17:52:55Z</time></trkpt>
<trkpt lat="46.7549" lon="6.43211"><ele>1342.6</ele><time>2023-10-12T17:52:56Z</time></trkpt>
<trkpt lat="46.75485" lon="6.43205"><ele>1341.8</ele><time>2023-10-12T17:52:57Z</time></trkpt>
<trkpt lat="46.7548" lon="6.43197"><ele>1341.4</ele><time>2023-10-12T17:52:58Z</time></trkpt>
<trkpt lat="46.75475" lon="6.43187"><ele>1340.4</ele><time>2023-10-12T17:52:59Z</time></trkpt>
<trkpt lat="46.75471" lon="6.43177"><ele>1338.6</ele><time>2023-10-12T17:53:00Z</time></trkpt>
<trkpt lat="46.75468" lon="6.43165"><ele>1338</ele><time>2023-10-12T17:53:01Z</time></trkpt>
<trkpt lat="46.75466" lon="6.43152"><ele>1336.6</ele><time>2023-10-12T17:53:02Z</time></trkpt>
<trkpt lat="46.75465" lon="6.43139"><ele>1335.4</ele><time>2023-10-12T17:53:03Z</time></trkpt>
<trkpt lat="46.75463" lon="6.43125"><ele>1334.2</ele><time>2023-10-12T17:53:04Z</time></trkpt>
<trkpt lat="46.7546" lon="6.43099"><ele>1331.8</ele><time>2023-10-12T17:53:06Z</time></trkpt>
<trkpt lat="46.75457" lon="6.43077"><ele>1330</ele><time>2023-10-12T17:53:08Z</time></trkpt>
<trkpt lat="46.75456" lon="6.43067"><ele>1329.2</ele><time>2023-10-12T17:53:09Z</time></trkpt>
<trkpt lat="46.75453" lon="6.43058"><ele>1328.8</ele><time>2023-10-12T17:53:10Z</time></trkpt>
<trkpt lat="46.75444" lon="6.43044"><ele>1328.2</ele><time>2023-10-12T17:53:12Z</time></trkpt>
<trkpt lat="46.75438" lon="6.43041"><ele>1326.6</ele><time>2023-10-12T17:53:13Z</time></trkpt>
<trkpt lat="46.75425" lon="6.43035"><ele>1325.2</ele><time>2023-10-12T17:53:15Z</time></trkpt>
<trkpt lat="46.7542" lon="6.43031"><ele>1324.8</ele><time>2023-10-12T17:53:16Z</time></trkpt>
<trkpt lat="46.75415" lon="6.43017"><ele>1324.2</ele><time>2023-10-12T17:53:18Z</time></trkpt>
<trkpt lat="46.75414" lon="6.43008"><ele>1323.8</ele><time>2023-10-12T17:53:19Z</time></trkpt>
<trkpt lat="46.75413" lon="6.42998"><ele>1323.4</ele><time>2023-10-12T17:53:20Z</time></trkpt>
<trkpt lat="46.75413" lon="6.42986"><ele>1323</ele><time>2023-10-12T17:53:21Z</time></trkpt>
<trkpt lat="46.75412" lon="6.42974"><ele>1321.6</ele><time>2023-10-12T17:53:22Z</time></trkpt>
<trkpt lat="46.75408" lon="6.42948"><ele>1319.2</ele><time>2023-10-12T17:53:24Z</time></trkpt>
<trkpt lat="46.75407" lon="6.42934"><ele>1317.2</ele><time>2023-10-12T17:53:25Z</time></trkpt>
<trkpt lat="46.75406" lon="6.42922"><ele>1316.4</ele><time>2023-10-12T17:53:26Z</time></trkpt>
<trkpt lat="46.75405" lon="6.42909"><ele>1315.6</ele><time>2023-10-12T17:53:27Z</time></trkpt>
<trkpt lat="46.754" lon="6.42885"><ele>1314.8</ele><time>2023-10-12T17:53:29Z</time></trkpt>
<trkpt lat="46.75396" lon="6.42872"><ele>1312.6</ele><time>2023-10-12T17:53:30Z</time></trkpt>
<trkpt lat="46.75391" lon="6.42862"><ele>1312</ele><time>2023-10-12T17:53:31Z</time></trkpt>
<trkpt lat="46.75385" lon="6.42851"><ele>1311</ele><time>2023-10-12T17:53:32Z</time></trkpt>
<trkpt lat="46.75378" lon="6.42839"><ele>1309.2</ele><time>2023-10-12T17:53:33Z</time></trkpt>
<trkpt lat="46.75371" lon="6.42828"><ele>1308</ele><time>2023-10-12T17:53:34Z</time></trkpt>
<trkpt lat="46.75364" lon="6.42816"><ele>1306.8</ele><time>2023-10-12T17:53:35Z</time></trkpt>
<trkpt lat="46.75348" lon="6.42792"><ele>1304.4</ele><time>2023-10-12T17:53:37Z</time></trkpt>
<trkpt lat="46.7534" lon="6.4278"><ele>1303.8</ele><time>2023-10-12T17:53:38Z</time></trkpt>
<trkpt lat="46.75332" lon="6.42768"><ele>1302.8</ele><time>2023-10-12T17:53:39Z</time></trkpt>
<trkpt lat="46.75325" lon="6.42756"><ele>1300.6</ele><time>2023-10-12T17:53:40Z</time></trkpt>
<trkpt lat="46.75317" lon="6.42745"><ele>1298.8</ele><time>2023-10-12T17:53:41Z</time></trkpt>
<trkpt lat="46.75303" lon="6.42726"><ele>1297.4</ele><time>2023-10-12T17:53:43Z</time></trkpt>
<trkpt lat="46.75292" lon="6.42708"><ele>1295.4</ele><time>2023-10-12T17:53:45Z</time></trkpt>
<trkpt lat="46.75287" lon="6.42699"><ele>1294.8</ele><time>2023-10-12T17:53:46Z</time></trkpt>
<trkpt lat="46.75282" lon="6.42689"><ele>1294.2</ele><time>2023-10-12T17:53:47Z</time></trkpt>
<trkpt lat="46.75278" lon="6.42679"><ele>1294</ele><time>2023-10-12T17:53:48Z</time></trkpt>
<trkpt lat="46.75272" lon="6.42659"><ele>1293</ele><time>2023-10-12T17:53:50Z</time></trkpt>
<trkpt lat="46.75269" lon="6.42637"><ele>1290.6</ele><time>2023-10-12T17:53:52Z</time></trkpt>
<trkpt lat="46.75269" lon="6.42612"><ele>1289.8</ele><time>2023-10-12T17:53:54Z</time></trkpt>
<trkpt lat="46.75269" lon="6.42599"><ele>1289</ele><time>2023-10-12T17:53:55Z</time></trkpt>
<trkpt lat="46.75269" lon="6.42587"><ele>1287.2</ele><time>2023-10-12T17:53:56Z</time></trkpt>
<trkpt lat="46.7527" lon="6.42575"><ele>1285.6</ele><time>2023-10-12T17:53:57Z</time></trkpt>
<trkpt lat="46.7527" lon="6.42551"><ele>1283.6</ele><time>2023-10-12T17:53:59Z</time></trkpt>
<trkpt lat="46.75273" lon="6.42526"><ele>1282</ele><time>2023-10-12T17:54:01Z</time></trkpt>
<trkpt lat="46.75275" lon="6.42514"><ele>1280.8</ele><time>2023-10-12T17:54:02Z</time></trkpt>
<trkpt lat="46.75277" lon="6.42503"><ele>1280.2</ele><time>2023-10-12T17:54:03Z</time></trkpt>
<trkpt lat="46.75286" lon="6.42483"><ele>1279.8</ele><time>2023-10-12T17:54:05Z</time></trkpt>
<trkpt lat="46.75295" lon="6.42466"><ele>1279.6</ele><time>2023-10-12T17:54:07Z</time></trkpt>
<trkpt lat="46.75305" lon="6.42447"><ele>1279</ele><time>2023-10-12T17:54:09Z</time></trkpt>
<trkpt lat="46.75316" lon="6.42428"><ele>1278.2</ele><time>2023-10-12T17:54:11Z</time></trkpt>
<trkpt lat="46.75327" lon="6.42407"><ele>1276.8</ele><time>2023-10-12T17:54:13Z</time></trkpt>
<trkpt lat="46.75333" lon="6.42397"><ele>1275.6</ele><time>2023-10-12T17:54:14Z</time></trkpt>
<trkpt lat="46.7534" lon="6.42386"><ele>1274.4</ele><time>2023-10-12T17:54:15Z</time></trkpt>
<trkpt lat="46.75346" lon="6.42374"><ele>1273</ele><time>2023-10-12T17:54:16Z</time></trkpt>
<trkpt lat="46.75357" lon="6.4235"><ele>1272.2</ele><time>2023-10-12T17:54:18Z</time></trkpt>
<trkpt lat="46.75359" lon="6.42337"><ele>1271.8</ele><time>2023-10-12T17:54:19Z</time></trkpt>
<trkpt lat="46.7536" lon="6.42325"><ele>1270.6</ele><time>2023-10-12T17:54:20Z</time></trkpt>
<trkpt lat="46.75359" lon="6.42313"><ele>1269</ele><time>2023-10-12T17:54:21Z</time></trkpt>
<trkpt lat="46.75357" lon="6.42301"><ele>1268.4</ele><time>2023-10-12T17:54:22Z</time></trkpt>
<trkpt lat="46.75354" lon="6.4229"><ele>1268</ele><time>2023-10-12T17:54:23Z</time></trkpt>
<trkpt lat="46.75351" lon="6.42279"><ele>1267.4</ele><time>2023-10-12T17:54:24Z</time></trkpt>
<trkpt lat="46.75347" lon="6.42268"><ele>1266.2</ele><time>2023-10-12T17:54:25Z</time></trkpt>
<trkpt lat="46.75341" lon="6.42231"><ele>1264.8</ele><time>2023-10-12T17:54:28Z</time></trkpt>
<trkpt lat="46.75341" lon="6.4222"><ele>1264</ele><time>2023-10-12T17:54:29Z</time></trkpt>
<trkpt lat="46.75342" lon="6.42209"><ele>1263.2</ele><time>2023-10-12T17:54:30Z</time></trkpt>
<trkpt lat="46.75344" lon="6.42188"><ele>1261.8</ele><time>2023-10-12T17:54:32Z</time></trkpt>
<trkpt lat="46.75345" lon="6.42168"><ele>1260.8</ele><time>2023-10-12T17:54:34Z</time></trkpt>
<trkpt lat="46.75346" lon="6.42159"><ele>1260</ele><time>2023-10-12T17:54:35Z</time></trkpt>
<trkpt lat="46.75345" lon="6.42152"><ele>1258.8</ele><time>2023-10-12T17:54:36Z</time></trkpt>
<trkpt lat="46.75342" lon="6.42145"><ele>1258.6</ele><time>2023-10-12T17:54:37Z</time></trkpt>
<trkpt lat="46.75338" lon="6.42138"><ele>1258.4</ele><time>2023-10-12T17:54:38Z</time></trkpt>
<trkpt lat="46.75333" lon="6.42132"><ele>1257.8</ele><time>2023-10-12T17:54:39Z</time></trkpt>
<trkpt lat="46.75327" lon="6.42125"><ele>1257.6</ele><time>2023-10-12T17:54:40Z</time></trkpt>
<trkpt lat="46.7532" lon="6.42119"><ele>1256.8</ele><time>2023-10-12T17:54:41Z</time></trkpt>
<trkpt lat="46.75307" lon="6.42106"><ele>1255</ele><time>2023-10-12T17:54:43Z</time></trkpt>
<trkpt lat="46.75303" lon="6.42099"><ele>1253.6</ele><time>2023-10-12T17:54:44Z</time></trkpt>
<trkpt lat="46.75303" lon="6.42081"><ele>1252.8</ele><time>2023-10-12T17:54:46Z</time></trkpt>
<trkpt lat="46.75309" lon="6.42075"><ele>1252.4</ele><time>2023-10-12T17:54:47Z</time></trkpt>
<trkpt lat="46.75315" lon="6.4207"><ele>1251.6</ele><time>2023-10-12T17:54:48Z</time></trkpt>
<trkpt lat="46.75322" lon="6.42065"><ele>1251.2</ele><time>2023-10-12T17:54:49Z</time></trkpt>
<trkpt lat="46.75328" lon="6.42061"><ele>1250.2</ele><time>2023-10-12T17:54:50Z</time></trkpt>
<trkpt lat="46.75333" lon="6.42055"><ele>1249.2</ele><time>2023-10-12T17:54:51Z</time></trkpt>
<trkpt lat="46.75335" lon="6.42047"><ele>1248.8</ele><time>2023-10-12T17:54:52Z</time></trkpt>
<trkpt lat="46.75333" lon="6.42038"><ele>1248.2</ele><time>2023-10-12T17:54:53Z</time></trkpt>
<trkpt lat="46.75329" lon="6.4203"><ele>1247.8</ele><time>2023-10-12T17:54:54Z</time></trkpt>
<trkpt lat="46.75323" lon="6.42023"><ele>1247</ele><time>2023-10-12T17:54:55Z</time></trkpt>
<trkpt lat="46.75315" lon="6.42014"><ele>1246.6</ele><time>2023-10-12T17:54:56Z</time></trkpt>
<trkpt lat="46.75308" lon="6.42004"><ele>1245.4</ele><time>2023-10-12T17:54:57Z</time></trkpt>
<trkpt lat="46.75302" lon="6.41994"><ele>1243.4</ele><time>2023-10-12T17:54:58Z</time></trkpt>
<trkpt lat="46.75297" lon="6.41983"><ele>1242.8</ele><time>2023-10-12T17:54:59Z</time></trkpt>
<trkpt lat="46.75294" lon="6.4197"><ele>1242</ele><time>2023-10-12T17:55:00Z</time></trkpt>
<trkpt lat="46.75292" lon="6.41957"><ele>1241</ele><time>2023-10-12T17:55:01Z</time></trkpt>
<trkpt lat="46.75293" lon="6.41942"><ele>1240.4</ele><time>2023-10-12T17:55:02Z</time></trkpt>
<trkpt lat="46.75293" lon="6.41928"><ele>1239.2</ele><time>2023-10-12T17:55:03Z</time></trkpt>
<trkpt lat="46.75294" lon="6.41913"><ele>1238.4</ele><time>2023-10-12T17:55:04Z</time></trkpt>
<trkpt lat="46.75295" lon="6.41899"><ele>1237</ele><time>2023-10-12T17:55:05Z</time></trkpt>
<trkpt lat="46.75295" lon="6.41872"><ele>1235.6</ele><time>2023-10-12T17:55:07Z</time></trkpt>
<trkpt lat="46.75293" lon="6.4186"><ele>1235.2</ele><time>2023-10-12T17:55:08Z</time></trkpt>
<trkpt lat="46.75291" lon="6.41851"><ele>1234.6</ele><time>2023-10-12T17:55:09Z</time></trkpt>
<trkpt lat="46.75282" lon="6.41839"><ele>1233</ele><time>2023-10-12T17:55:11Z</time></trkpt>
<trkpt lat="46.7526" lon="6.41829"><ele>1231.8</ele><time>2023-10-12T17:55:14Z</time></trkpt>
<trkpt lat="46.75251" lon="6.41825"><ele>1230.6</ele><time>2023-10-12T17:55:15Z</time></trkpt>
<trkpt lat="46.75241" lon="6.41819"><ele>1229</ele><time>2023-10-12T17:55:16Z</time></trkpt>
<trkpt lat="46.75232" lon="6.41813"><ele>1227.6</ele><time>2023-10-12T17:55:17Z</time></trkpt>
<trkpt lat="46.75223" lon="6.41807"><ele>1226.8</ele><time>2023-10-12T17:55:18Z</time></trkpt>
<trkpt lat="46.75216" lon="6.418"><ele>1225.8</ele><time>2023-10-12T17:55:19Z</time></trkpt>
<trkpt lat="46.7521" lon="6.41781"><ele>1224.8</ele><time>2023-10-12T17:55:21Z</time></trkpt>
<trkpt lat="46.75203" lon="6.41762"><ele>1224.4</ele><time>2023-10-12T17:55:23Z</time></trkpt>
<trkpt lat="46.75191" lon="6.41747"><ele>1223.2</ele><time>2023-10-12T17:55:25Z</time></trkpt>
<trkpt lat="46.7518" lon="6.41739"><ele>1221.6</ele><time>2023-10-12T17:55:27Z</time></trkpt>
<trkpt lat="46.75175" lon="6.41739"><ele>1221.4</ele><time>2023-10-12T17:55:28Z</time></trkpt>
<trkpt lat="46.7517" lon="6.41741"><ele>1221</ele><time>2023-10-12T17:55:29Z</time></trkpt>
<trkpt lat="46.75161" lon="6.41755"><ele>1220</ele><time>2023-10-12T17:55:31Z</time></trkpt>
<trkpt lat="46.75154" lon="6.41762"><ele>1219</ele><time>2023-10-12T17:55:32Z</time></trkpt>
<trkpt lat="46.75146" lon="6.41767"><ele>1218.6</ele><time>2023-10-12T17:55:33Z</time></trkpt>
<trkpt lat="46.75137" lon="6.4177"><ele>1217.4</ele><time>2023-10-12T17:55:34Z</time></trkpt>
<trkpt lat="46.75128" lon="6.41772"><ele>1216.2</ele><time>2023-10-12T17:55:35Z</time></trkpt>
<trkpt lat="46.7512" lon="6.41776"><ele>1215.2</ele><time>2023-10-12T17:55:36Z</time></trkpt>
<trkpt lat="46.75102" lon="6.41785"><ele>1213.6</ele><time>2023-10-12T17:55:38Z</time></trkpt>
<trkpt lat="46.75093" lon="6.41786"><ele>1213</ele><time>2023-10-12T17:55:39Z</time></trkpt>
<trkpt lat="46.75084" lon="6.41786"><ele>1212.4</ele><time>2023-10-12T17:55:40Z</time></trkpt>
<trkpt lat="46.75076" lon="6.41784"><ele>1211.8</ele><time>2023-10-12T17:55:41Z</time></trkpt>
<trkpt lat="46.75063" lon="6.4177"><ele>1210.8</ele><time>2023-10-12T17:55:43Z</time></trkpt>
<trkpt lat="46.75057" lon="6.41748"><ele>1209.6</ele><time>2023-10-12T17:55:45Z</time></trkpt>
<trkpt lat="46.75054" lon="6.41736"><ele>1208.8</ele><time>2023-10-12T17:55:46Z</time></trkpt>
<trkpt lat="46.75051" lon="6.41726"><ele>1208.2</ele><time>2023-10-12T17:55:47Z</time></trkpt>
<trkpt lat="46.75047" lon="6.41716"><ele>1207</ele><time>2023-10-12T17:55:48Z</time></trkpt>
<trkpt lat="46.75043" lon="6.41706"><ele>1206.4</ele><time>2023-10-12T17:55:49Z</time></trkpt>
<trkpt lat="46.75038" lon="6.41698"><ele>1205.6</ele><time>2023-10-12T17:55:50Z</time></trkpt>
<trkpt lat="46.75031" lon="6.41692"><ele>1205.2</ele><time>2023-10-12T17:55:51Z</time></trkpt>
<trkpt lat="46.75017" lon="6.41686"><ele>1204.4</ele><time>2023-10-12T17:55:53Z</time></trkpt>
<trkpt lat="46.74987" lon="6.4168"><ele>1203.2</ele><time>2023-10-12T17:55:57Z</time></trkpt>
<trkpt lat="46.74971" lon="6.41677"><ele>1202.4</ele><time>2023-10-12T17:55:59Z</time></trkpt>
<trkpt lat="46.74962" lon="6.41675"><ele>1202.2</ele><time>2023-10-12T17:56:00Z</time></trkpt>
<trkpt lat="46.74915" lon="6.4167"><ele>1201</ele><time>2023-10-12T17:56:06Z</time></trkpt>
<trkpt lat="46.74901" lon="6.4166"><ele>1200.4</ele><time>2023-10-12T17:56:08Z</time></trkpt>
<trkpt lat="46.74887" lon="6.41649"><ele>1199.4</ele><time>2023-10-12T17:56:10Z</time></trkpt>
<trkpt lat="46.74872" lon="6.41649"><ele>1198.6</ele><time>2023-10-12T17:56:12Z</time></trkpt>
<trkpt lat="46.74865" lon="6.41652"><ele>1198</ele><time>2023-10-12T17:56:13Z</time></trkpt>
<trkpt lat="46.74859" lon="6.41657"><ele>1197.4</ele><time>2023-10-12T17:56:14Z</time></trkpt>
<trkpt lat="46.74852" lon="6.41664"><ele>1196.8</ele><time>2023-10-12T17:56:15Z</time></trkpt>
<trkpt lat="46.74846" lon="6.41674"><ele>1196.4</ele><time>2023-10-12T17:56:16Z</time></trkpt>
<trkpt lat="46.74841" lon="6.41684"><ele>1195.8</ele><time>2023-10-12T17:56:17Z</time></trkpt>
<trkpt lat="46.74837" lon="6.41696"><ele>1195</ele><time>2023-10-12T17:56:18Z</time></trkpt>
<trkpt lat="46.74835" lon="6.4171"><ele>1194.2</ele><time>2023-10-12T17:56:19Z</time></trkpt>
<trkpt lat="46.74835" lon="6.41724"><ele>1193.6</ele><time>2023-10-12T17:56:20Z</time></trkpt>
<trkpt lat="46.74835" lon="6.41753"><ele>1191.6</ele><time>2023-10-12T17:56:22Z</time></trkpt>
<trkpt lat="46.74835" lon="6.41767"><ele>1190.4</ele><time>2023-10-12T17:56:23Z</time></trkpt>
<trkpt lat="46.74837" lon="6.41791"><ele>1189.2</ele><time>2023-10-12T17:56:25Z</time></trkpt>
<trkpt lat="46.74839" lon="6.41801"><ele>1188.4</ele><time>2023-10-12T17:56:26Z</time></trkpt>
<trkpt lat="46.74842" lon="6.41811"><ele>1187.2</ele><time>2023-10-12T17:56:27Z</time></trkpt>
<trkpt lat="46.74844" lon="6.41821"><ele>1186.8</ele><time>2023-10-12T17:56:28Z</time></trkpt>
<trkpt lat="46.74843" lon="6.41842"><ele>1186</ele><time>2023-10-12T17:56:30Z</time></trkpt>
<trkpt lat="46.74836" lon="6.41859"><ele>1184.6</ele><time>2023-10-12T17:56:32Z</time></trkpt>
<trkpt lat="46.74829" lon="6.41865"><ele>1184</ele><time>2023-10-12T17:56:33Z</time></trkpt>
<trkpt lat="46.74816" lon="6.41876"><ele>1183</ele><time>2023-10-12T17:56:35Z</time></trkpt>
<trkpt lat="46.74811" lon="6.41884"><ele>1182.4</ele><time>2023-10-12T17:56:36Z</time></trkpt>
<trkpt lat="46.74805" lon="6.41895"><ele>1181.6</ele><time>2023-10-12T17:56:37Z</time></trkpt>
<trkpt lat="46.74802" lon="6.41907"><ele>1180.8</ele><time>2023-10-12T17:56:38Z</time></trkpt>
<trkpt lat="46.74798" lon="6.41919"><ele>1179.4</ele><time>2023-10-12T17:56:39Z</time></trkpt>
<trkpt lat="46.74795" lon="6.41931"><ele>1178</ele><time>2023-10-12T17:56:40Z</time></trkpt>
<trkpt lat="46.74794" lon="6.41944"><ele>1177.4</ele><time>2023-10-12T17:56:41Z</time></trkpt>
<trkpt lat="46.74794" lon="6.41958"><ele>1176.4</ele><time>2023-10-12T17:56:42Z</time></trkpt>
<trkpt lat="46.74791" lon="6.41987"><ele>1174.6</ele><time>2023-10-12T17:56:44Z</time></trkpt>
<trkpt lat="46.74788" lon="6.42001"><ele>1174</ele><time>2023-10-12T17:56:45Z</time></trkpt>
<trkpt lat="46.74785" lon="6.42016"><ele>1173.2</ele><time>2023-10-12T17:56:46Z</time></trkpt>
<trkpt lat="46.74781" lon="6.42029"><ele>1171.8</ele><time>2023-10-12T17:56:47Z</time></trkpt>
<trkpt lat="46.74772" lon="6.42056"><ele>1169.4</ele><time>2023-10-12T17:56:49Z</time></trkpt>
<trkpt lat="46.74764" lon="6.421"><ele>1168</ele><time>2023-10-12T17:56:52Z</time></trkpt>
<trkpt lat="46.74762" lon="6.42115"><ele>1166.4</ele><time>2023-10-12T17:56:53Z</time></trkpt>
<trkpt lat="46.7476" lon="6.4213"><ele>1165.4</ele><time>2023-10-12T17:56:54Z</time></trkpt>
<trkpt lat="46.74755" lon="6.42159"><ele>1163.6</ele><time>2023-10-12T17:56:56Z</time></trkpt>
<trkpt lat="46.74753" lon="6.42173"><ele>1162.6</ele><time>2023-10-12T17:56:57Z</time></trkpt>
<trkpt lat="46.74749" lon="6.42203"><ele>1160</ele><time>2023-10-12T17:56:59Z</time></trkpt>
<trkpt lat="46.74747" lon="6.42217"><ele>1158.8</ele><time>2023-10-12T17:57:00Z</time></trkpt>
<trkpt lat="46.74744" lon="6.4223"><ele>1157.4</ele><time>2023-10-12T17:57:01Z</time></trkpt>
<trkpt lat="46.74741" lon="6.42243"><ele>1156.4</ele><time>2023-10-12T17:57:02Z</time></trkpt>
<trkpt lat="46.74736" lon="6.42255"><ele>1156</ele><time>2023-10-12T17:57:03Z</time></trkpt>
<trkpt lat="46.74722" lon="6.42273"><ele>1154.6</ele><time>2023-10-12T17:57:05Z</time></trkpt>
<trkpt lat="46.74715" lon="6.42281"><ele>1154.2</ele><time>2023-10-12T17:57:06Z</time></trkpt>
<trkpt lat="46.74709" lon="6.42291"><ele>1153</ele><time>2023-10-12T17:57:07Z</time></trkpt>
<trkpt lat="46.74704" lon="6.42302"><ele>1151.8</ele><time>2023-10-12T17:57:08Z</time></trkpt>
<trkpt lat="46.747" lon="6.42314"><ele>1151</ele><time>2023-10-12T17:57:09Z</time></trkpt>
<trkpt lat="46.74696" lon="6.42326"><ele>1149.6</ele><time>2023-10-12T17:57:10Z</time></trkpt>
<trkpt lat="46.74684" lon="6.42358"><ele>1148.2</ele><time>2023-10-12T17:57:13Z</time></trkpt>
<trkpt lat="46.74676" lon="6.42376"><ele>1148</ele><time>2023-10-12T17:57:15Z</time></trkpt>
<trkpt lat="46.74653" lon="6.42428"><ele>1147</ele><time>2023-10-12T17:57:21Z</time></trkpt>
<trkpt lat="46.74646" lon="6.42446"><ele>1146.4</ele><time>2023-10-12T17:57:23Z</time></trkpt>
<trkpt lat="46.74642" lon="6.42455"><ele>1146</ele><time>2023-10-12T17:57:24Z</time></trkpt>
<trkpt lat="46.74629" lon="6.42484"><ele>1144.2</ele><time>2023-10-12T17:57:27Z</time></trkpt>
<trkpt lat="46.74624" lon="6.42495"><ele>1142.8</ele><time>2023-10-12T17:57:28Z</time></trkpt>
<trkpt lat="46.7462" lon="6.42506"><ele>1141.4</ele><time>2023-10-12T17:57:29Z</time></trkpt>
<trkpt lat="46.74609" lon="6.42529"><ele>1140</ele><time>2023-10-12T17:57:31Z</time></trkpt>
<trkpt lat="46.74603" lon="6.42541"><ele>1138.4</ele><time>2023-10-12T17:57:32Z</time></trkpt>
<trkpt lat="46.74598" lon="6.42552"><ele>1136.8</ele><time>2023-10-12T17:57:33Z</time></trkpt>
<trkpt lat="46.74592" lon="6.42564"><ele>1135</ele><time>2023-10-12T17:57:34Z</time></trkpt>
<trkpt lat="46.74586" lon="6.42576"><ele>1134.2</ele><time>2023-10-12T17:57:35Z</time></trkpt>
<trkpt lat="46.74581" lon="6.42588"><ele>1133.6</ele><time>2023-10-12T17:57:36Z</time></trkpt>
<trkpt lat="46.74575" lon="6.426"><ele>1132.2</ele><time>2023-10-12T17:57:37Z</time></trkpt>
<trkpt lat="46.7457" lon="6.42611"><ele>1131</ele><time>2023-10-12T17:57:38Z</time></trkpt>
<trkpt lat="46.74564" lon="6.42622"><ele>1129.8</ele><time>2023-10-12T17:57:39Z</time></trkpt>
<trkpt lat="46.74559" lon="6.42632"><ele>1128.4</ele><time>2023-10-12T17:57:40Z</time></trkpt>
<trkpt lat="46.74554" lon="6.42643"><ele>1127.4</ele><time>2023-10-12T17:57:41Z</time></trkpt>
<trkpt lat="46.74545" lon="6.42664"><ele>1125.6</ele><time>2023-10-12T17:57:43Z</time></trkpt>
<trkpt lat="46.74541" lon="6.42675"><ele>1124.4</ele><time>2023-10-12T17:57:44Z</time></trkpt>
<trkpt lat="46.74533" lon="6.427"><ele>1122.2</ele><time>2023-10-12T17:57:46Z</time></trkpt>
<trkpt lat="46.74531" lon="6.42714"><ele>1120.6</ele><time>2023-10-12T17:57:47Z</time></trkpt>
<trkpt lat="46.7453" lon="6.42729"><ele>1119.6</ele><time>2023-10-12T17:57:48Z</time></trkpt>
<trkpt lat="46.74528" lon="6.42744"><ele>1118.2</ele><time>2023-10-12T17:57:49Z</time></trkpt>
<trkpt lat="46.74525" lon="6.4276"><ele>1116.6</ele><time>2023-10-12T17:57:50Z</time></trkpt>
<trkpt lat="46.74523" lon="6.42775"><ele>1115.2</ele><time>2023-10-12T17:57:51Z</time></trkpt>
<trkpt lat="46.7452" lon="6.42789"><ele>1113.6</ele><time>2023-10-12T17:57:52Z</time></trkpt>
<trkpt lat="46.74517" lon="6.42803"><ele>1111.8</ele><time>2023-10-12T17:57:53Z</time></trkpt>
<trkpt lat="46.7451" lon="6.42827"><ele>1110</ele><time>2023-10-12T17:57:55Z</time></trkpt>
<trkpt lat="46.74504" lon="6.42848"><ele>1108</ele><time>2023-10-12T17:57:57Z</time></trkpt>
<trkpt lat="46.74497" lon="6.42866"><ele>1106.8</ele><time>2023-10-12T17:57:59Z</time></trkpt>
<trkpt lat="46.74493" lon="6.42874"><ele>1106</ele><time>2023-10-12T17:58:00Z</time></trkpt>
<trkpt lat="46.7449" lon="6.42881"><ele>1105</ele><time>2023-10-12T17:58:01Z</time></trkpt>
<trkpt lat="46.74486" lon="6.42886"><ele>1103.8</ele><time>2023-10-12T17:58:02Z</time></trkpt>
<trkpt lat="46.7448" lon="6.42894"><ele>1102.8</ele><time>2023-10-12T17:58:04Z</time></trkpt>
<trkpt lat="46.74473" lon="6.42905"><ele>1102.4</ele><time>2023-10-12T17:58:07Z</time></trkpt>
<trkpt lat="46.74474" lon="6.42911"><ele>1102</ele><time>2023-10-12T17:58:08Z</time></trkpt>
<trkpt lat="46.74476" lon="6.42916"><ele>1101.8</ele><time>2023-10-12T17:58:09Z</time></trkpt>
<trkpt lat="46.7448" lon="6.42933"><ele>1100</ele><time>2023-10-12T17:58:12Z</time></trkpt>
<trkpt lat="46.74481" lon="6.42939"><ele>1099.6</ele><time>2023-10-12T17:58:13Z</time></trkpt>
<trkpt lat="46.74482" lon="6.42946"><ele>1099</ele><time>2023-10-12T17:58:14Z</time></trkpt>
<trkpt lat="46.74483" lon="6.42964"><ele>1097.6</ele><time>2023-10-12T17:58:16Z</time></trkpt>
<trkpt lat="46.74482" lon="6.42973"><ele>1096.8</ele><time>2023-10-12T17:58:17Z</time></trkpt>
<trkpt lat="46.74482" lon="6.42983"><ele>1096.4</ele><time>2023-10-12T17:58:18Z</time></trkpt>
<trkpt lat="46.74481" lon="6.43004"><ele>1094.4</ele><time>2023-10-12T17:58:20Z</time></trkpt>
<trkpt lat="46.7448" lon="6.43013"><ele>1093.4</ele><time>2023-10-12T17:58:21Z</time></trkpt>
<trkpt lat="46.74479" lon="6.43023"><ele>1092</ele><time>2023-10-12T17:58:22Z</time></trkpt>
<trkpt lat="46.74477" lon="6.43042"><ele>1090.2</ele><time>2023-10-12T17:58:24Z</time></trkpt>
<trkpt lat="46.74476" lon="6.43063"><ele>1088.4</ele><time>2023-10-12T17:58:26Z</time></trkpt>
<trkpt lat="46.74475" lon="6.43082"><ele>1087</ele><time>2023-10-12T17:58:28Z</time></trkpt>
<trkpt lat="46.74475" lon="6.43092"><ele>1085.8</ele><time>2023-10-12T17:58:29Z</time></trkpt>
<trkpt lat="46.74475" lon="6.43102"><ele>1085.2</ele><time>2023-10-12T17:58:30Z</time></trkpt>
<trkpt lat="46.74475" lon="6.43112"><ele>1084.6</ele><time>2023-10-12T17:58:31Z</time></trkpt>
<trkpt lat="46.74477" lon="6.43133"><ele>1082.2</ele><time>2023-10-12T17:58:33Z</time></trkpt>
<trkpt lat="46.74477" lon="6.43153"><ele>1080.4</ele><time>2023-10-12T17:58:35Z</time></trkpt>
<trkpt lat="46.74476" lon="6.43163"><ele>1080</ele><time>2023-10-12T17:58:36Z</time></trkpt>
<trkpt lat="46.74473" lon="6.43174"><ele>1079.2</ele><time>2023-10-12T17:58:37Z</time></trkpt>
<trkpt lat="46.74467" lon="6.43195"><ele>1077</ele><time>2023-10-12T17:58:39Z</time></trkpt>
<trkpt lat="46.74464" lon="6.43206"><ele>1075.8</ele><time>2023-10-12T17:58:40Z</time></trkpt>
<trkpt lat="46.74458" lon="6.43228"><ele>1073.4</ele><time>2023-10-12T17:58:42Z</time></trkpt>
<trkpt lat="46.74452" lon="6.43249"><ele>1072.2</ele><time>2023-10-12T17:58:44Z</time></trkpt>
<trkpt lat="46.74447" lon="6.43258"><ele>1071.4</ele><time>2023-10-12T17:58:45Z</time></trkpt>
<trkpt lat="46.74442" lon="6.43265"><ele>1070.6</ele><time>2023-10-12T17:58:46Z</time></trkpt>
<trkpt lat="46.74436" lon="6.43271"><ele>1069.2</ele><time>2023-10-12T17:58:47Z</time></trkpt>
<trkpt lat="46.74428" lon="6.43274"><ele>1068.2</ele><time>2023-10-12T17:58:48Z</time></trkpt>
<trkpt lat="46.74414" lon="6.43277"><ele>1066.6</ele><time>2023-10-12T17:58:50Z</time></trkpt>
<trkpt lat="46.74407" lon="6.43276"><ele>1065.4</ele><time>2023-10-12T17:58:51Z</time></trkpt>
<trkpt lat="46.744" lon="6.43275"><ele>1064.4</ele><time>2023-10-12T17:58:52Z</time></trkpt>
<trkpt lat="46.74393" lon="6.43275"><ele>1063.4</ele><time>2023-10-12T17:58:53Z</time></trkpt>
<trkpt lat="46.74379" lon="6.43273"><ele>1061.8</ele><time>2023-10-12T17:58:55Z</time></trkpt>
<trkpt lat="46.74372" lon="6.43272"><ele>1060.2</ele><time>2023-10-12T17:58:56Z</time></trkpt>
<trkpt lat="46.74364" lon="6.4327"><ele>1058.8</ele><time>2023-10-12T17:58:57Z</time></trkpt>
<trkpt lat="46.74357" lon="6.43267"><ele>1057.6</ele><time>2023-10-12T17:58:58Z</time></trkpt>
<trkpt lat="46.74349" lon="6.43266"><ele>1056.6</ele><time>2023-10-12T17:58:59Z</time></trkpt>
<trkpt lat="46.74341" lon="6.43266"><ele>1055.4</ele><time>2023-10-12T17:59:00Z</time></trkpt>
<trkpt lat="46.74333" lon="6.43268"><ele>1054.4</ele><time>2023-10-12T17:59:01Z</time></trkpt>
<trkpt lat="46.74326" lon="6.43271"><ele>1053.2</ele><time>2023-10-12T17:59:02Z</time></trkpt>
<trkpt lat="46.7431" lon="6.43279"><ele>1050.8</ele><time>2023-10-12T17:59:04Z</time></trkpt>
<trkpt lat="46.74302" lon="6.43284"><ele>1049.6</ele><time>2023-10-12T17:59:05Z</time></trkpt>
<trkpt lat="46.74295" lon="6.43289"><ele>1047.8</ele><time>2023-10-12T17:59:06Z</time></trkpt>
<trkpt lat="46.74286" lon="6.43295"><ele>1047.2</ele><time>2023-10-12T17:59:07Z</time></trkpt>
<trkpt lat="46.74278" lon="6.433"><ele>1045.4</ele><time>2023-10-12T17:59:08Z</time></trkpt>
<trkpt lat="46.74261" lon="6.43311"><ele>1042.8</ele><time>2023-10-12T17:59:10Z</time></trkpt>
<trkpt lat="46.74251" lon="6.43316"><ele>1041.6</ele><time>2023-10-12T17:59:11Z</time></trkpt>
<trkpt lat="46.74243" lon="6.43322"><ele>1040.2</ele><time>2023-10-12T17:59:12Z</time></trkpt>
<trkpt lat="46.74236" lon="6.43328"><ele>1038.4</ele><time>2023-10-12T17:59:13Z</time></trkpt>
<trkpt lat="46.74221" lon="6.43341"><ele>1036</ele><time>2023-10-12T17:59:15Z</time></trkpt>
<trkpt lat="46.74214" lon="6.43349"><ele>1034.6</ele><time>2023-10-12T17:59:16Z</time></trkpt>
<trkpt lat="46.74208" lon="6.43358"><ele>1033.8</ele><time>2023-10-12T17:59:17Z</time></trkpt>
<trkpt lat="46.74202" lon="6.43368"><ele>1033</ele><time>2023-10-12T17:59:18Z</time></trkpt>
<trkpt lat="46.74197" lon="6.4338"><ele>1031.4</ele><time>2023-10-12T17:59:19Z</time></trkpt>
<trkpt lat="46.74192" lon="6.43391"><ele>1029.6</ele><time>2023-10-12T17:59:20Z</time></trkpt>
<trkpt lat="46.74187" lon="6.43403"><ele>1027.8</ele><time>2023-10-12T17:59:21Z</time></trkpt>
<trkpt lat="46.74182" lon="6.43414"><ele>1026.2</ele><time>2023-10-12T17:59:22Z</time></trkpt>
<trkpt lat="46.74177" lon="6.43426"><ele>1024.8</ele><time>2023-10-12T17:59:23Z</time></trkpt>
<trkpt lat="46.74171" lon="6.43437"><ele>1023.4</ele><time>2023-10-12T17:59:24Z</time></trkpt>
<trkpt lat="46.74165" lon="6.43448"><ele>1022.4</ele><time>2023-10-12T17:59:25Z</time></trkpt>
<trkpt lat="46.7416" lon="6.43458"><ele>1020.4</ele><time>2023-10-12T17:59:26Z</time></trkpt>
<trkpt lat="46.74151" lon="6.43476"><ele>1018</ele><time>2023-10-12T17:59:28Z</time></trkpt>
<trkpt lat="46.74146" lon="6.43485"><ele>1016.6</ele><time>2023-10-12T17:59:29Z</time></trkpt>
<trkpt lat="46.74141" lon="6.43495"><ele>1015.2</ele><time>2023-10-12T17:59:30Z</time></trkpt>
<trkpt lat="46.74132" lon="6.43516"><ele>1013.4</ele><time>2023-10-12T17:59:32Z</time></trkpt>
<trkpt lat="46.74128" lon="6.43526"><ele>1012.4</ele><time>2023-10-12T17:59:33Z</time></trkpt>
<trkpt lat="46.74124" lon="6.43538"><ele>1010.6</ele><time>2023-10-12T17:59:34Z</time></trkpt>
<trkpt lat="46.74119" lon="6.43548"><ele>1009.6</ele><time>2023-10-12T17:59:35Z</time></trkpt>
<trkpt lat="46.74111" lon="6.43567"><ele>1007.2</ele><time>2023-10-12T17:59:37Z</time></trkpt>
<trkpt lat="46.74101" lon="6.43585"><ele>1005.4</ele><time>2023-10-12T17:59:39Z</time></trkpt>
<trkpt lat="46.74097" lon="6.43594"><ele>1004</ele><time>2023-10-12T17:59:40Z</time></trkpt>
<trkpt lat="46.74092" lon="6.43604"><ele>1002.6</ele><time>2023-10-12T17:59:41Z</time></trkpt>
<trkpt lat="46.74087" lon="6.43615"><ele>1001.6</ele><time>2023-10-12T17:59:42Z</time></trkpt>
<trkpt lat="46.74082" lon="6.43625"><ele>1000</ele><time>2023-10-12T17:59:43Z</time></trkpt>
<trkpt lat="46.74072" lon="6.43645"><ele>997</ele><time>2023-10-12T17:59:45Z</time></trkpt>
<trkpt lat="46.74063" lon="6.43664"><ele>995</ele><time>2023-10-12T17:59:47Z</time></trkpt>
<trkpt lat="46.74058" lon="6.43674"><ele>993.8</ele><time>2023-10-12T17:59:48Z</time></trkpt>
<trkpt lat="46.74047" lon="6.43693"><ele>992</ele><time>2023-10-12T17:59:50Z</time></trkpt>
<trkpt lat="46.74042" lon="6.43702"><ele>990</ele><time>2023-10-12T17:59:51Z</time></trkpt>
<trkpt lat="46.74037" lon="6.43711"><ele>987.4</ele><time>2023-10-12T17:59:52Z</time></trkpt>
<trkpt lat="46.74032" lon="6.43721"><ele>986.2</ele><time>2023-10-12T17:59:53Z</time></trkpt>
<trkpt lat="46.74027" lon="6.43729"><ele>984.8</ele><time>2023-10-12T17:59:54Z</time></trkpt>
<trkpt lat="46.74022" lon="6.43737"><ele>983</ele><time>2023-10-12T17:59:55Z</time></trkpt>
<trkpt lat="46.74017" lon="6.43745"><ele>980.8</ele><time>2023-10-12T17:59:56Z</time></trkpt>
<trkpt lat="46.74012" lon="6.43753"><ele>979.6</ele><time>2023-10-12T17:59:57Z</time></trkpt>
<trkpt lat="46.74007" lon="6.43761"><ele>978.2</ele><time>2023-10-12T17:59:58Z</time></trkpt>
<trkpt lat="46.74003" lon="6.43769"><ele>976.8</ele><time>2023-10-12T17:59:59Z</time></trkpt>
<trkpt lat="46.73999" lon="6.43777"><ele>975.2</ele><time>2023-10-12T18:00:00Z</time></trkpt>
<trkpt lat="46.73996" lon="6.43785"><ele>974</ele><time>2023-10-12T18:00:01Z</time></trkpt>
<trkpt lat="46.73993" lon="6.43793"><ele>972.6</ele><time>2023-10-12T18:00:02Z</time></trkpt>
<trkpt lat="46.73991" lon="6.43803"><ele>971</ele><time>2023-10-12T18:00:03Z</time></trkpt>
<trkpt lat="46.7399" lon="6.43814"><ele>969.4</ele><time>2023-10-12T18:00:04Z</time></trkpt>
<trkpt lat="46.73989" lon="6.43826"><ele>968</ele><time>2023-10-12T18:00:05Z</time></trkpt>
<trkpt lat="46.73988" lon="6.43839"><ele>966.4</ele><time>2023-10-12T18:00:06Z</time></trkpt>
<trkpt lat="46.73988" lon="6.43851"><ele>964.8</ele><time>2023-10-12T18:00:07Z</time></trkpt>
<trkpt lat="46.73987" lon="6.43862"><ele>963</ele><time>2023-10-12T18:00:08Z</time></trkpt>
<trkpt lat="46.73987" lon="6.43873"><ele>961.8</ele><time>2023-10-12T18:00:09Z</time></trkpt>
<trkpt lat="46.73986" lon="6.43884"><ele>960</ele><time>2023-10-12T18:00:10Z</time></trkpt>
<trkpt lat="46.73986" lon="6.43896"><ele>959</ele><time>2023-10-12T18:00:11Z</time></trkpt>
<trkpt lat="46.73987" lon="6.43909"><ele>957.8</ele><time>2023-10-12T18:00:12Z</time></trkpt>
<trkpt lat="46.73989" lon="6.43921"><ele>955.6</ele><time>2023-10-12T18:00:13Z</time></trkpt>
<trkpt lat="46.7399" lon="6.43934"><ele>954.6</ele><time>2023-10-12T18:00:14Z</time></trkpt>
<trkpt lat="46.73991" lon="6.43945"><ele>953.2</ele><time>2023-10-12T18:00:15Z</time></trkpt>
<trkpt lat="46.73992" lon="6.43957"><ele>952</ele><time>2023-10-12T18:00:16Z</time></trkpt>
<trkpt lat="46.73994" lon="6.43981"><ele>949.6</ele><time>2023-10-12T18:00:18Z</time></trkpt>
<trkpt lat="46.73997" lon="6.44004"><ele>947.4</ele><time>2023-10-12T18:00:20Z</time></trkpt>
<trkpt lat="46.73999" lon="6.44016"><ele>946.6</ele><time>2023-10-12T18:00:21Z</time></trkpt>
<trkpt lat="46.74001" lon="6.44027"><ele>945.8</ele><time>2023-10-12T18:00:22Z</time></trkpt>
<trkpt lat="46.74004" lon="6.44051"><ele>944.2</ele><time>2023-10-12T18:00:24Z</time></trkpt>
<trkpt lat="46.74006" lon="6.44063"><ele>942.4</ele><time>2023-10-12T18:00:25Z</time></trkpt>
<trkpt lat="46.74007" lon="6.44076"><ele>940.6</ele><time>2023-10-12T18:00:26Z</time></trkpt>
<trkpt lat="46.74009" lon="6.44089"><ele>939.8</ele><time>2023-10-12T18:00:27Z</time></trkpt>
<trkpt lat="46.7401" lon="6.44101"><ele>938.4</ele><time>2023-10-12T18:00:28Z</time></trkpt>
<trkpt lat="46.74011" lon="6.44114"><ele>936.8</ele><time>2023-10-12T18:00:29Z</time></trkpt>
<trkpt lat="46.74013" lon="6.44139"><ele>934.8</ele><time>2023-10-12T18:00:31Z</time></trkpt>
<trkpt lat="46.74014" lon="6.44152"><ele>933.4</ele><time>2023-10-12T18:00:32Z</time></trkpt>
<trkpt lat="46.74014" lon="6.44164"><ele>932.6</ele><time>2023-10-12T18:00:33Z</time></trkpt>
<trkpt lat="46.74015" lon="6.44177"><ele>931</ele><time>2023-10-12T18:00:34Z</time></trkpt>
<trkpt lat="46.74016" lon="6.4419"><ele>929.4</ele><time>2023-10-12T18:00:35Z</time></trkpt>
<trkpt lat="46.74017" lon="6.44202"><ele>927.8</ele><time>2023-10-12T18:00:36Z</time></trkpt>
<trkpt lat="46.74018" lon="6.44215"><ele>926.6</ele><time>2023-10-12T18:00:37Z</time></trkpt>
<trkpt lat="46.74018" lon="6.44228"><ele>925.2</ele><time>2023-10-12T18:00:38Z</time></trkpt>
<trkpt lat="46.74019" lon="6.4424"><ele>924</ele><time>2023-10-12T18:00:39Z</time></trkpt>
<trkpt lat="46.74019" lon="6.44252"><ele>922.2</ele><time>2023-10-12T18:00:40Z</time></trkpt>
<trkpt lat="46.74019" lon="6.44264"><ele>921.2</ele><time>2023-10-12T18:00:41Z</time></trkpt>
<trkpt lat="46.74019" lon="6.44276"><ele>919.8</ele><time>2023-10-12T18:00:42Z</time></trkpt>
<trkpt lat="46.7402" lon="6.44287"><ele>917.8</ele><time>2023-10-12T18:00:43Z</time></trkpt>
<trkpt lat="46.74021" lon="6.44314"><ele>915.2</ele><time>2023-10-12T18:00:45Z</time></trkpt>
<trkpt lat="46.74025" lon="6.44341"><ele>912.6</ele><time>2023-10-12T18:00:47Z</time></trkpt>
<trkpt lat="46.74027" lon="6.44354"><ele>910.8</ele><time>2023-10-12T18:00:48Z</time></trkpt>
<trkpt lat="46.74034" lon="6.44376"><ele>908.8</ele><time>2023-10-12T18:00:50Z</time></trkpt>
<trkpt lat="46.74036" lon="6.44387"><ele>907.6</ele><time>2023-10-12T18:00:51Z</time></trkpt>
<trkpt lat="46.74039" lon="6.44398"><ele>906.4</ele><time>2023-10-12T18:00:52Z</time></trkpt>
<trkpt lat="46.74041" lon="6.44409"><ele>905</ele><time>2023-10-12T18:00:53Z</time></trkpt>
<trkpt lat="46.74043" lon="6.4442"><ele>903.6</ele><time>2023-10-12T18:00:54Z</time></trkpt>
<trkpt lat="46.74047" lon="6.44442"><ele>901</ele><time>2023-10-12T18:00:56Z</time></trkpt>
<trkpt lat="46.74048" lon="6.44452"><ele>899.8</ele><time>2023-10-12T18:00:57Z</time></trkpt>
<trkpt lat="46.74049" lon="6.44462"><ele>898.8</ele><time>2023-10-12T18:00:58Z</time></trkpt>
<trkpt lat="46.74049" lon="6.44472"><ele>897.4</ele><time>2023-10-12T18:00:59Z</time></trkpt>
<trkpt lat="46.74049" lon="6.44491"><ele>895.6</ele><time>2023-10-12T18:01:01Z</time></trkpt>
<trkpt lat="46.74049" lon="6.445"><ele>894.8</ele><time>2023-10-12T18:01:02Z</time></trkpt>
<trkpt lat="46.74049" lon="6.44509"><ele>893</ele><time>2023-10-12T18:01:03Z</time></trkpt>
<trkpt lat="46.7405" lon="6.44519"><ele>892.2</ele><time>2023-10-12T18:01:04Z</time></trkpt>
<trkpt lat="46.74052" lon="6.44528"><ele>891.4</ele><time>2023-10-12T18:01:05Z</time></trkpt>
<trkpt lat="46.74054" lon="6.44537"><ele>890.2</ele><time>2023-10-12T18:01:06Z</time></trkpt>
<trkpt lat="46.74057" lon="6.44546"><ele>888.8</ele><time>2023-10-12T18:01:07Z</time></trkpt>
<trkpt lat="46.74063" lon="6.44565"><ele>887.2</ele><time>2023-10-12T18:01:09Z</time></trkpt>
<trkpt lat="46.74067" lon="6.44575"><ele>886.2</ele><time>2023-10-12T18:01:10Z</time></trkpt>
<trkpt lat="46.74074" lon="6.44596"><ele>884.2</ele><time>2023-10-12T18:01:12Z</time></trkpt>
<trkpt lat="46.74082" lon="6.44617"><ele>881.6</ele><time>2023-10-12T18:01:14Z</time></trkpt>
<trkpt lat="46.74093" lon="6.44646"><ele>879.6</ele><time>2023-10-12T18:01:17Z</time></trkpt>
<trkpt lat="46.74096" lon="6.44655"><ele>878.8</ele><time>2023-10-12T18:01:18Z</time></trkpt>
<trkpt lat="46.741" lon="6.44664"><ele>878.2</ele><time>2023-10-12T18:01:19Z</time></trkpt>
<trkpt lat="46.74108" lon="6.4468"><ele>877</ele><time>2023-10-12T18:01:21Z</time></trkpt>
<trkpt lat="46.74111" lon="6.44689"><ele>875.8</ele><time>2023-10-12T18:01:22Z</time></trkpt>
<trkpt lat="46.74113" lon="6.44699"><ele>875.6</ele><time>2023-10-12T18:01:23Z</time></trkpt>
<trkpt lat="46.74114" lon="6.44708"><ele>875.2</ele><time>2023-10-12T18:01:24Z</time></trkpt>
<trkpt lat="46.74115" lon="6.44718"><ele>874.4</ele><time>2023-10-12T18:01:25Z</time></trkpt>
<trkpt lat="46.74115" lon="6.44728"><ele>873.2</ele><time>2023-10-12T18:01:26Z</time></trkpt>
<trkpt lat="46.74116" lon="6.44738"><ele>871.8</ele><time>2023-10-12T18:01:27Z</time></trkpt>
<trkpt lat="46.74116" lon="6.44748"><ele>870.4</ele><time>2023-10-12T18:01:28Z</time></trkpt>
<trkpt lat="46.74117" lon="6.44757"><ele>870</ele><time>2023-10-12T18:01:29Z</time></trkpt>
<trkpt lat="46.74119" lon="6.44766"><ele>868.2</ele><time>2023-10-12T18:01:30Z</time></trkpt>
<trkpt lat="46.74122" lon="6.44774"><ele>867</ele><time>2023-10-12T18:01:31Z</time></trkpt>
<trkpt lat="46.74124" lon="6.44782"><ele>866.2</ele><time>2023-10-12T18:01:32Z</time></trkpt>
<trkpt lat="46.74127" lon="6.4479"><ele>865.8</ele><time>2023-10-12T18:01:33Z</time></trkpt>
<trkpt lat="46.7413" lon="6.44797"><ele>864.8</ele><time>2023-10-12T18:01:34Z</time></trkpt>
<trkpt lat="46.74135" lon="6.44813"><ele>863.6</ele><time>2023-10-12T18:01:36Z</time></trkpt>
<trkpt lat="46.74138" lon="6.44829"><ele>861.4</ele><time>2023-10-12T18:01:38Z</time></trkpt>
<trkpt lat="46.74139" lon="6.44838"><ele>860.2</ele><time>2023-10-12T18:01:39Z</time></trkpt>
<trkpt lat="46.74141" lon="6.44847"><ele>859</ele><time>2023-10-12T18:01:40Z</time></trkpt>
<trkpt lat="46.74144" lon="6.44864"><ele>857.6</ele><time>2023-10-12T18:01:42Z</time></trkpt>
<trkpt lat="46.74148" lon="6.44882"><ele>856.4</ele><time>2023-10-12T18:01:44Z</time></trkpt>
<trkpt lat="46.74154" lon="6.44899"><ele>854.6</ele><time>2023-10-12T18:01:46Z</time></trkpt>
<trkpt lat="46.74157" lon="6.44908"><ele>853.4</ele><time>2023-10-12T18:01:47Z</time></trkpt>
<trkpt lat="46.74163" lon="6.44926"><ele>852.6</ele><time>2023-10-12T18:01:49Z</time></trkpt>
<trkpt lat="46.74166" lon="6.44936"><ele>851.8</ele><time>2023-10-12T18:01:50Z</time></trkpt>
<trkpt lat="46.74173" lon="6.44971"><ele>850</ele><time>2023-10-12T18:01:53Z</time></trkpt>
<trkpt lat="46.74175" lon="6.44983"><ele>848.8</ele><time>2023-10-12T18:01:54Z</time></trkpt>
<trkpt lat="46.74178" lon="6.44995"><ele>847.4</ele><time>2023-10-12T18:01:55Z</time></trkpt>
<trkpt lat="46.74183" lon="6.45018"><ele>846.2</ele><time>2023-10-12T18:01:57Z</time></trkpt>
<trkpt lat="46.74189" lon="6.45042"><ele>845</ele><time>2023-10-12T18:01:59Z</time></trkpt>
<trkpt lat="46.74195" lon="6.45066"><ele>843.2</ele><time>2023-10-12T18:02:01Z</time></trkpt>
<trkpt lat="46.74198" lon="6.45079"><ele>842</ele><time>2023-10-12T18:02:02Z</time></trkpt>
<trkpt lat="46.74204" lon="6.45107"><ele>840.6</ele><time>2023-10-12T18:02:04Z</time></trkpt>
<trkpt lat="46.74207" lon="6.45122"><ele>839.6</ele><time>2023-10-12T18:02:05Z</time></trkpt>
<trkpt lat="46.74212" lon="6.45152"><ele>837.2</ele><time>2023-10-12T18:02:07Z</time></trkpt>
<trkpt lat="46.74215" lon="6.45186"><ele>835.4</ele><time>2023-10-12T18:02:09Z</time></trkpt>
<trkpt lat="46.74217" lon="6.45221"><ele>833</ele><time>2023-10-12T18:02:11Z</time></trkpt>
<trkpt lat="46.74218" lon="6.45238"><ele>831.8</ele><time>2023-10-12T18:02:12Z</time></trkpt>
<trkpt lat="46.74219" lon="6.45254"><ele>830.6</ele><time>2023-10-12T18:02:13Z</time></trkpt>
<trkpt lat="46.74219" lon="6.45269"><ele>829.4</ele><time>2023-10-12T18:02:14Z</time></trkpt>
<trkpt lat="46.74219" lon="6.45296"><ele>827.8</ele><time>2023-10-12T18:02:16Z</time></trkpt>
<trkpt lat="46.74218" lon="6.45323"><ele>826</ele><time>2023-10-12T18:02:18Z</time></trkpt>
<trkpt lat="46.74218" lon="6.45336"><ele>825.6</ele><time>2023-10-12T18:02:19Z</time></trkpt>
<trkpt lat="46.74217" lon="6.45349"><ele>824.6</ele><time>2023-10-12T18:02:20Z</time></trkpt>
<trkpt lat="46.74217" lon="6.4536"><ele>823.4</ele><time>2023-10-12T18:02:21Z</time></trkpt>
<trkpt lat="46.74217" lon="6.45381"><ele>821.8</ele><time>2023-10-12T18:02:23Z</time></trkpt>
<trkpt lat="46.74218" lon="6.45391"><ele>821.4</ele><time>2023-10-12T18:02:24Z</time></trkpt>
<trkpt lat="46.74218" lon="6.45411"><ele>820.4</ele><time>2023-10-12T18:02:26Z</time></trkpt>
<trkpt lat="46.74215" lon="6.45441"><ele>819</ele><time>2023-10-12T18:02:29Z</time></trkpt>
<trkpt lat="46.74214" lon="6.45452"><ele>818.6</ele><time>2023-10-12T18:02:30Z</time></trkpt>
<trkpt lat="46.74212" lon="6.45476"><ele>817.2</ele><time>2023-10-12T18:02:32Z</time></trkpt>
<trkpt lat="46.7421" lon="6.45498"><ele>815.8</ele><time>2023-10-12T18:02:34Z</time></trkpt>
<trkpt lat="46.74208" lon="6.45521"><ele>814.2</ele><time>2023-10-12T18:02:36Z</time></trkpt>
<trkpt lat="46.74207" lon="6.45532"><ele>813.8</ele><time>2023-10-12T18:02:37Z</time></trkpt>
<trkpt lat="46.74206" lon="6.45542"><ele>813</ele><time>2023-10-12T18:02:38Z</time></trkpt>
<trkpt lat="46.74203" lon="6.45562"><ele>812</ele><time>2023-10-12T18:02:40Z</time></trkpt>
<trkpt lat="46.74201" lon="6.45583"><ele>811.4</ele><time>2023-10-12T18:02:42Z</time></trkpt>
<trkpt lat="46.74199" lon="6.45603"><ele>810.4</ele><time>2023-10-12T18:02:44Z</time></trkpt>
<trkpt lat="46.74197" lon="6.45627"><ele>809.2</ele><time>2023-10-12T18:02:47Z</time></trkpt>
<trkpt lat="46.74197" lon="6.45644"><ele>808</ele><time>2023-10-12T18:02:50Z</time></trkpt>
<trkpt lat="46.74193" lon="6.45661"><ele>807.2</ele><time>2023-10-12T18:02:53Z</time></trkpt>
<trkpt lat="46.7419" lon="6.45665"><ele>806.8</ele><time>2023-10-12T18:02:54Z</time></trkpt>
<trkpt lat="46.74182" lon="6.45676"><ele>805.8</ele><time>2023-10-12T18:02:56Z</time></trkpt>
<trkpt lat="46.74175" lon="6.45687"><ele>804.6</ele><time>2023-10-12T18:02:58Z</time></trkpt>
<trkpt lat="46.74169" lon="6.45694"><ele>803.4</ele><time>2023-10-12T18:03:00Z</time></trkpt>
<trkpt lat="46.74162" lon="6.45696"><ele>803</ele><time>2023-10-12T18:03:02Z</time></trkpt>
<trkpt lat="46.74158" lon="6.45695"><ele>802.8</ele><time>2023-10-12T18:03:03Z</time></trkpt>
<trkpt lat="46.74154" lon="6.45692"><ele>802.2</ele><time>2023-10-12T18:03:04Z</time></trkpt>
<trkpt lat="46.7415" lon="6.45689"><ele>801.8</ele><time>2023-10-12T18:03:05Z</time></trkpt>
<trkpt lat="46.74145" lon="6.45685"><ele>801.2</ele><time>2023-10-12T18:03:06Z</time></trkpt>
<trkpt lat="46.74141" lon="6.4568"><ele>800.6</ele><time>2023-10-12T18:03:07Z</time></trkpt>
<trkpt lat="46.74138" lon="6.45675"><ele>800.2</ele><time>2023-10-12T18:03:08Z</time></trkpt>
<trkpt lat="46.74136" lon="6.4567"><ele>799.4</ele><time>2023-10-12T18:03:09Z</time></trkpt>
<trkpt lat="46.74134" lon="6.45665"><ele>799</ele><time>2023-10-12T18:03:10Z</time></trkpt>
<trkpt lat="46.74132" lon="6.45661"><ele>798.4</ele><time>2023-10-12T18:03:11Z</time></trkpt>
<trkpt lat="46.7412" lon="6.45648"><ele>797</ele><time>2023-10-12T18:03:15Z</time></trkpt>
<trkpt lat="46.74109" lon="6.45647"><ele>795.8</ele><time>2023-10-12T18:03:17Z</time></trkpt>
<trkpt lat="46.74103" lon="6.45649"><ele>795.4</ele><time>2023-10-12T18:03:18Z</time></trkpt>
<trkpt lat="46.74097" lon="6.45651"><ele>794.4</ele><time>2023-10-12T18:03:19Z</time></trkpt>
<trkpt lat="46.74084" lon="6.45656"><ele>792.8</ele><time>2023-10-12T18:03:21Z</time></trkpt>
<trkpt lat="46.74078" lon="6.45658"><ele>791.6</ele><time>2023-10-12T18:03:22Z</time></trkpt>
<trkpt lat="46.74073" lon="6.4566"><ele>790.8</ele><time>2023-10-12T18:03:23Z</time></trkpt>
<trkpt lat="46.74069" lon="6.45662"><ele>790.2</ele><time>2023-10-12T18:03:24Z</time></trkpt>
<trkpt lat="46.74064" lon="6.45663"><ele>789.4</ele><time>2023-10-12T18:03:25Z</time></trkpt>
<trkpt lat="46.7406" lon="6.45665"><ele>788.8</ele><time>2023-10-12T18:03:26Z</time></trkpt>
<trkpt lat="46.74056" lon="6.45666"><ele>787.8</ele><time>2023-10-12T18:03:27Z</time></trkpt>
<trkpt lat="46.74052" lon="6.45666"><ele>787.4</ele><time>2023-10-12T18:03:28Z</time></trkpt>
<trkpt lat="46.74045" lon="6.45662"><ele>786.4</ele><time>2023-10-12T18:03:30Z</time></trkpt>
<trkpt lat="46.74039" lon="6.45657"><ele>785.6</ele><time>2023-10-12T18:03:32Z</time></trkpt>
<trkpt lat="46.74037" lon="6.45654"><ele>785.4</ele><time>2023-10-12T18:03:33Z</time></trkpt>
<trkpt lat="46.74023" lon="6.45653"><ele>784.6</ele><time>2023-10-12T18:03:37Z</time></trkpt>
<trkpt lat="46.74019" lon="6.45654"><ele>784.2</ele><time>2023-10-12T18:03:38Z</time></trkpt>
<trkpt lat="46.74008" lon="6.45655"><ele>783.2</ele><time>2023-10-12T18:03:41Z</time></trkpt>
<trkpt lat="46.74004" lon="6.45654"><ele>782.2</ele><time>2023-10-12T18:03:43Z</time></trkpt>
<trkpt lat="46.74002" lon="6.45654"><ele>781.8</ele><time>2023-10-12T18:03:44Z</time></trkpt>
<trkpt lat="46.73996" lon="6.45656"><ele>781</ele><time>2023-10-12T18:03:48Z</time></trkpt>
<trkpt lat="46.73994" lon="6.4566"><ele>780.8</ele><time>2023-10-12T18:03:49Z</time></trkpt>
<trkpt lat="46.73993" lon="6.45666"><ele>780.6</ele><time>2023-10-12T18:03:50Z</time></trkpt>
<trkpt lat="46.73992" lon="6.45673"><ele>780.4</ele><time>2023-10-12T18:03:51Z</time></trkpt>
<trkpt lat="46.73988" lon="6.45697"><ele>779.6</ele><time>2023-10-12T18:03:54Z</time></trkpt>
<trkpt lat="46.73984" lon="6.45716"><ele>778.8</ele><time>2023-10-12T18:03:56Z</time></trkpt>
<trkpt lat="46.73982" lon="6.45725"><ele>778.4</ele><time>2023-10-12T18:03:57Z</time></trkpt>
<trkpt lat="46.73978" lon="6.45742"><ele>777.8</ele><time>2023-10-12T18:03:59Z</time></trkpt>
<trkpt lat="46.73979" lon="6.45747"><ele>777.6</ele><time>2023-10-12T18:04:00Z</time></trkpt>
<trkpt lat="46.73983" lon="6.4575"><ele>777.6</ele><time>2023-10-12T18:04:01Z</time></trkpt>
<trkpt lat="46.73986" lon="6.4575"><ele>777.6</ele><time>2023-10-12T18:04:02Z</time></trkpt>
<trkpt lat="46.74002" lon="6.45743"><ele>777.6</ele><time>2023-10-12T18:04:07Z</time></trkpt>
<trkpt lat="46.74006" lon="6.45743"><ele>777.8</ele><time>2023-10-12T18:04:11Z</time></trkpt>
<trkpt lat="46.74006" lon="6.45743"><ele>778</ele><time>2023-10-12T18:04:15Z</time></trkpt>
<trkpt lat="46.74007" lon="6.45744"><ele>778</ele><time>2023-10-12T18:04:16Z</time></trkpt>
<trkpt lat="46.74007" lon="6.45744"><ele>778</ele><time>2023-10-12T18:04:17Z</time></trkpt>
<trkpt lat="46.74007" lon="6.45744"><ele>778</ele><time>2023-10-12T18:04:18Z</time></trkpt>
<trkpt lat="46.74007" lon="6.45743"><ele>777.4</ele><time>2023-10-12T18:04:27Z</time></trkpt>
<trkpt lat="46.74007" lon="6.45742"><ele>777.4</ele><time>2023-10-12T18:04:28Z</time></trkpt>
</trkseg></trk></gpx>